<?xml version="1.0" encoding="UTF-8" standalone="no" ?>
<gpx xmlns="http://www.topografix.com/GPX/1/1" xmlns:xsi="http://www.w3.org/2001/XMLSchema-instance" xsi:schemaLocation="http://www.topografix.com/GPX/1/1 http://www.topografix.com/GPX/1/1/gpx.xsd" version="1.1" creator="VisuGPX - https://www.visugpx.com">
  <metadata>
    <name>20 nov. 2021 09:57:50</name>
  </metadata>
  <trk>
    <name><![CDATA[20 nov. 2021 09:57:50]]></name>
    <trkseg>
      <trkpt lat="48.72593" lon="2.12657">
        <ele>80.79</ele>
        <time>2021-11-20T08:52:43.999Z</time>
      </trkpt>
      <trkpt lat="48.72591" lon="2.12659">
        <ele>210.93</ele>
        <time>2021-11-20T08:57:50.999Z</time>
      </trkpt>
      <trkpt lat="48.72593" lon="2.12644">
        <ele>210.08</ele>
        <time>2021-11-20T08:57:59.999Z</time>
      </trkpt>
      <trkpt lat="48.72595" lon="2.12631">
        <ele>209.29</ele>
        <time>2021-11-20T08:58:08.999Z</time>
      </trkpt>
      <trkpt lat="48.72586" lon="2.12623">
        <ele>208.95</ele>
        <time>2021-11-20T08:58:16.999Z</time>
      </trkpt>
      <trkpt lat="48.72582" lon="2.1261">
        <ele>208.72</ele>
        <time>2021-11-20T08:58:28.999Z</time>
      </trkpt>
      <trkpt lat="48.72577" lon="2.12598">
        <ele>208.44</ele>
        <time>2021-11-20T08:58:37.999Z</time>
      </trkpt>
      <trkpt lat="48.72576" lon="2.12583">
        <ele>208.05</ele>
        <time>2021-11-20T08:58:47.999Z</time>
      </trkpt>
      <trkpt lat="48.72573" lon="2.12569">
        <ele>207.7</ele>
        <time>2021-11-20T08:58:55.999Z</time>
      </trkpt>
      <trkpt lat="48.72569" lon="2.12555">
        <ele>207.43</ele>
        <time>2021-11-20T08:59:02.999Z</time>
      </trkpt>
      <trkpt lat="48.72563" lon="2.12544">
        <ele>207.15</ele>
        <time>2021-11-20T08:59:11.999Z</time>
      </trkpt>
      <trkpt lat="48.72555" lon="2.12537">
        <ele>206.82</ele>
        <time>2021-11-20T08:59:24.999Z</time>
      </trkpt>
      <trkpt lat="48.72548" lon="2.12527">
        <ele>206.6</ele>
        <time>2021-11-20T08:59:33.999Z</time>
      </trkpt>
      <trkpt lat="48.7254" lon="2.12534">
        <ele>205.58</ele>
        <time>2021-11-20T09:00:25.999Z</time>
      </trkpt>
      <trkpt lat="48.7253" lon="2.12541">
        <ele>205.23</ele>
        <time>2021-11-20T09:00:40.999Z</time>
      </trkpt>
      <trkpt lat="48.72521" lon="2.12543">
        <ele>204.92</ele>
        <time>2021-11-20T09:00:57.999Z</time>
      </trkpt>
      <trkpt lat="48.72511" lon="2.12549">
        <ele>204.79</ele>
        <time>2021-11-20T09:01:06.999Z</time>
      </trkpt>
      <trkpt lat="48.72504" lon="2.1256">
        <ele>204.68</ele>
        <time>2021-11-20T09:01:14.999Z</time>
      </trkpt>
      <trkpt lat="48.72496" lon="2.12568">
        <ele>204.61</ele>
        <time>2021-11-20T09:01:20.999Z</time>
      </trkpt>
      <trkpt lat="48.72494" lon="2.12584">
        <ele>204.55</ele>
        <time>2021-11-20T09:01:26.999Z</time>
      </trkpt>
      <trkpt lat="48.72491" lon="2.12598">
        <ele>204.49</ele>
        <time>2021-11-20T09:01:34.999Z</time>
      </trkpt>
      <trkpt lat="48.72488" lon="2.12612">
        <ele>204.45</ele>
        <time>2021-11-20T09:01:40.999Z</time>
      </trkpt>
      <trkpt lat="48.72485" lon="2.12626">
        <ele>204.4</ele>
        <time>2021-11-20T09:01:50.999Z</time>
      </trkpt>
      <trkpt lat="48.72483" lon="2.1264">
        <ele>204.37</ele>
        <time>2021-11-20T09:02:01.999Z</time>
      </trkpt>
      <trkpt lat="48.72481" lon="2.12654">
        <ele>204.35</ele>
        <time>2021-11-20T09:02:10.999Z</time>
      </trkpt>
      <trkpt lat="48.7248" lon="2.12668">
        <ele>204.34</ele>
        <time>2021-11-20T09:02:21.999Z</time>
      </trkpt>
      <trkpt lat="48.72476" lon="2.12681">
        <ele>204.32</ele>
        <time>2021-11-20T09:02:28.999Z</time>
      </trkpt>
      <trkpt lat="48.7248" lon="2.12695">
        <ele>204.29</ele>
        <time>2021-11-20T09:02:37.999Z</time>
      </trkpt>
      <trkpt lat="48.72488" lon="2.12702">
        <ele>204.28</ele>
        <time>2021-11-20T09:02:44.999Z</time>
      </trkpt>
      <trkpt lat="48.72497" lon="2.12708">
        <ele>204.26</ele>
        <time>2021-11-20T09:02:50.999Z</time>
      </trkpt>
      <trkpt lat="48.72507" lon="2.1271">
        <ele>204.22</ele>
        <time>2021-11-20T09:02:56.999Z</time>
      </trkpt>
      <trkpt lat="48.72516" lon="2.12707">
        <ele>204.13</ele>
        <time>2021-11-20T09:03:05.999Z</time>
      </trkpt>
      <trkpt lat="48.72526" lon="2.12705">
        <ele>204.05</ele>
        <time>2021-11-20T09:03:13.999Z</time>
      </trkpt>
      <trkpt lat="48.72535" lon="2.12699">
        <ele>203.96</ele>
        <time>2021-11-20T09:03:22.999Z</time>
      </trkpt>
      <trkpt lat="48.72545" lon="2.127">
        <ele>203.88</ele>
        <time>2021-11-20T09:03:30.999Z</time>
      </trkpt>
      <trkpt lat="48.72555" lon="2.12699">
        <ele>203.81</ele>
        <time>2021-11-20T09:03:38.999Z</time>
      </trkpt>
      <trkpt lat="48.72564" lon="2.12699">
        <ele>203.75</ele>
        <time>2021-11-20T09:03:46.999Z</time>
      </trkpt>
      <trkpt lat="48.72571" lon="2.12708">
        <ele>203.7</ele>
        <time>2021-11-20T09:03:58.999Z</time>
      </trkpt>
      <trkpt lat="48.72575" lon="2.12722">
        <ele>203.68</ele>
        <time>2021-11-20T09:04:12.999Z</time>
      </trkpt>
      <trkpt lat="48.72575" lon="2.12735">
        <ele>203.67</ele>
        <time>2021-11-20T09:04:21.999Z</time>
      </trkpt>
      <trkpt lat="48.72577" lon="2.1275">
        <ele>203.61</ele>
        <time>2021-11-20T09:04:34.999Z</time>
      </trkpt>
      <trkpt lat="48.7258" lon="2.12765">
        <ele>203.56</ele>
        <time>2021-11-20T09:04:42.999Z</time>
      </trkpt>
      <trkpt lat="48.72581" lon="2.12779">
        <ele>203.5</ele>
        <time>2021-11-20T09:04:53.999Z</time>
      </trkpt>
      <trkpt lat="48.72584" lon="2.12793">
        <ele>203.48</ele>
        <time>2021-11-20T09:05:00.999Z</time>
      </trkpt>
      <trkpt lat="48.72583" lon="2.12807">
        <ele>203.44</ele>
        <time>2021-11-20T09:05:08.999Z</time>
      </trkpt>
      <trkpt lat="48.72584" lon="2.12821">
        <ele>203.41</ele>
        <time>2021-11-20T09:05:15.999Z</time>
      </trkpt>
      <trkpt lat="48.72586" lon="2.12836">
        <ele>203.37</ele>
        <time>2021-11-20T09:05:22.999Z</time>
      </trkpt>
      <trkpt lat="48.72588" lon="2.12851">
        <ele>203.34</ele>
        <time>2021-11-20T09:05:28.999Z</time>
      </trkpt>
      <trkpt lat="48.72589" lon="2.12866">
        <ele>203.3</ele>
        <time>2021-11-20T09:05:37.999Z</time>
      </trkpt>
      <trkpt lat="48.7259" lon="2.1288">
        <ele>203.27</ele>
        <time>2021-11-20T09:05:43.999Z</time>
      </trkpt>
      <trkpt lat="48.72591" lon="2.12894">
        <ele>203.24</ele>
        <time>2021-11-20T09:05:49.999Z</time>
      </trkpt>
      <trkpt lat="48.72592" lon="2.12909">
        <ele>203.2</ele>
        <time>2021-11-20T09:05:56.999Z</time>
      </trkpt>
      <trkpt lat="48.72594" lon="2.12922">
        <ele>203.16</ele>
        <time>2021-11-20T09:06:02.999Z</time>
      </trkpt>
      <trkpt lat="48.72594" lon="2.12936">
        <ele>203.12</ele>
        <time>2021-11-20T09:06:08.999Z</time>
      </trkpt>
      <trkpt lat="48.72595" lon="2.12951">
        <ele>203.06</ele>
        <time>2021-11-20T09:06:15.999Z</time>
      </trkpt>
      <trkpt lat="48.72594" lon="2.12965">
        <ele>203.01</ele>
        <time>2021-11-20T09:06:21.999Z</time>
      </trkpt>
      <trkpt lat="48.72596" lon="2.1298">
        <ele>202.93</ele>
        <time>2021-11-20T09:06:28.999Z</time>
      </trkpt>
      <trkpt lat="48.72595" lon="2.12995">
        <ele>202.84</ele>
        <time>2021-11-20T09:06:36.999Z</time>
      </trkpt>
      <trkpt lat="48.72592" lon="2.13008">
        <ele>202.76</ele>
        <time>2021-11-20T09:06:44.999Z</time>
      </trkpt>
      <trkpt lat="48.72595" lon="2.13024">
        <ele>202.71</ele>
        <time>2021-11-20T09:06:50.999Z</time>
      </trkpt>
      <trkpt lat="48.726" lon="2.13036">
        <ele>202.66</ele>
        <time>2021-11-20T09:06:55.999Z</time>
      </trkpt>
      <trkpt lat="48.72603" lon="2.1305">
        <ele>202.61</ele>
        <time>2021-11-20T09:07:03.999Z</time>
      </trkpt>
      <trkpt lat="48.72607" lon="2.13062">
        <ele>202.56</ele>
        <time>2021-11-20T09:07:10.999Z</time>
      </trkpt>
      <trkpt lat="48.7261" lon="2.13076">
        <ele>202.51</ele>
        <time>2021-11-20T09:07:18.999Z</time>
      </trkpt>
      <trkpt lat="48.7261" lon="2.1309">
        <ele>202.45</ele>
        <time>2021-11-20T09:07:27.999Z</time>
      </trkpt>
      <trkpt lat="48.7261" lon="2.13105">
        <ele>202.41</ele>
        <time>2021-11-20T09:07:34.999Z</time>
      </trkpt>
      <trkpt lat="48.72611" lon="2.13119">
        <ele>202.38</ele>
        <time>2021-11-20T09:07:42.999Z</time>
      </trkpt>
      <trkpt lat="48.72614" lon="2.13133">
        <ele>202.36</ele>
        <time>2021-11-20T09:07:50.999Z</time>
      </trkpt>
      <trkpt lat="48.72615" lon="2.13147">
        <ele>202.35</ele>
        <time>2021-11-20T09:07:57.999Z</time>
      </trkpt>
      <trkpt lat="48.72613" lon="2.1316">
        <ele>202.34</ele>
        <time>2021-11-20T09:08:05.999Z</time>
      </trkpt>
      <trkpt lat="48.72609" lon="2.13174">
        <ele>202.31</ele>
        <time>2021-11-20T09:08:14.999Z</time>
      </trkpt>
      <trkpt lat="48.72605" lon="2.13187">
        <ele>202.29</ele>
        <time>2021-11-20T09:08:22.999Z</time>
      </trkpt>
      <trkpt lat="48.72602" lon="2.13201">
        <ele>202.29</ele>
        <time>2021-11-20T09:08:29.999Z</time>
      </trkpt>
      <trkpt lat="48.72598" lon="2.13214">
        <ele>202.29</ele>
        <time>2021-11-20T09:08:37.999Z</time>
      </trkpt>
      <trkpt lat="48.72595" lon="2.13227">
        <ele>202.3</ele>
        <time>2021-11-20T09:08:44.999Z</time>
      </trkpt>
      <trkpt lat="48.72595" lon="2.13242">
        <ele>202.32</ele>
        <time>2021-11-20T09:08:51.999Z</time>
      </trkpt>
      <trkpt lat="48.72589" lon="2.13254">
        <ele>202.34</ele>
        <time>2021-11-20T09:08:59.999Z</time>
      </trkpt>
      <trkpt lat="48.72585" lon="2.13269">
        <ele>202.36</ele>
        <time>2021-11-20T09:09:07.999Z</time>
      </trkpt>
      <trkpt lat="48.72581" lon="2.13282">
        <ele>202.37</ele>
        <time>2021-11-20T09:09:15.999Z</time>
      </trkpt>
      <trkpt lat="48.72582" lon="2.13296">
        <ele>202.39</ele>
        <time>2021-11-20T09:09:23.999Z</time>
      </trkpt>
      <trkpt lat="48.7258" lon="2.13311">
        <ele>202.41</ele>
        <time>2021-11-20T09:09:31.999Z</time>
      </trkpt>
      <trkpt lat="48.72575" lon="2.13322">
        <ele>202.42</ele>
        <time>2021-11-20T09:09:38.999Z</time>
      </trkpt>
      <trkpt lat="48.72573" lon="2.13336">
        <ele>202.44</ele>
        <time>2021-11-20T09:09:45.999Z</time>
      </trkpt>
      <trkpt lat="48.72571" lon="2.1335">
        <ele>202.45</ele>
        <time>2021-11-20T09:09:53.999Z</time>
      </trkpt>
      <trkpt lat="48.72569" lon="2.13363">
        <ele>202.45</ele>
        <time>2021-11-20T09:10:01.999Z</time>
      </trkpt>
      <trkpt lat="48.72567" lon="2.13378">
        <ele>202.45</ele>
        <time>2021-11-20T09:10:09.999Z</time>
      </trkpt>
      <trkpt lat="48.72567" lon="2.13391">
        <ele>202.44</ele>
        <time>2021-11-20T09:10:16.999Z</time>
      </trkpt>
      <trkpt lat="48.72567" lon="2.13405">
        <ele>202.43</ele>
        <time>2021-11-20T09:10:23.999Z</time>
      </trkpt>
      <trkpt lat="48.72564" lon="2.13419">
        <ele>202.43</ele>
        <time>2021-11-20T09:10:30.999Z</time>
      </trkpt>
      <trkpt lat="48.72562" lon="2.13434">
        <ele>202.43</ele>
        <time>2021-11-20T09:10:38.999Z</time>
      </trkpt>
      <trkpt lat="48.72562" lon="2.13449">
        <ele>202.42</ele>
        <time>2021-11-20T09:10:46.999Z</time>
      </trkpt>
      <trkpt lat="48.72561" lon="2.13463">
        <ele>202.42</ele>
        <time>2021-11-20T09:10:53.999Z</time>
      </trkpt>
      <trkpt lat="48.72563" lon="2.13477">
        <ele>202.43</ele>
        <time>2021-11-20T09:11:00.999Z</time>
      </trkpt>
      <trkpt lat="48.72562" lon="2.13491">
        <ele>202.43</ele>
        <time>2021-11-20T09:11:07.999Z</time>
      </trkpt>
      <trkpt lat="48.7256" lon="2.13506">
        <ele>202.44</ele>
        <time>2021-11-20T09:11:16Z</time>
      </trkpt>
      <trkpt lat="48.72559" lon="2.1352">
        <ele>202.46</ele>
        <time>2021-11-20T09:11:24Z</time>
      </trkpt>
      <trkpt lat="48.7256" lon="2.13534">
        <ele>202.47</ele>
        <time>2021-11-20T09:11:31Z</time>
      </trkpt>
      <trkpt lat="48.7256" lon="2.13549">
        <ele>202.49</ele>
        <time>2021-11-20T09:11:39Z</time>
      </trkpt>
      <trkpt lat="48.72561" lon="2.13563">
        <ele>202.51</ele>
        <time>2021-11-20T09:11:46Z</time>
      </trkpt>
      <trkpt lat="48.72558" lon="2.13575">
        <ele>202.53</ele>
        <time>2021-11-20T09:11:54Z</time>
      </trkpt>
      <trkpt lat="48.72554" lon="2.13591">
        <ele>202.56</ele>
        <time>2021-11-20T09:12:03Z</time>
      </trkpt>
      <trkpt lat="48.72551" lon="2.13605">
        <ele>202.58</ele>
        <time>2021-11-20T09:12:10Z</time>
      </trkpt>
      <trkpt lat="48.7255" lon="2.13619">
        <ele>202.61</ele>
        <time>2021-11-20T09:12:18Z</time>
      </trkpt>
      <trkpt lat="48.72549" lon="2.13633">
        <ele>202.63</ele>
        <time>2021-11-20T09:12:26Z</time>
      </trkpt>
      <trkpt lat="48.72547" lon="2.13647">
        <ele>202.66</ele>
        <time>2021-11-20T09:12:34Z</time>
      </trkpt>
      <trkpt lat="48.72543" lon="2.1366">
        <ele>202.69</ele>
        <time>2021-11-20T09:12:43Z</time>
      </trkpt>
      <trkpt lat="48.72539" lon="2.13673">
        <ele>202.72</ele>
        <time>2021-11-20T09:12:52Z</time>
      </trkpt>
      <trkpt lat="48.72535" lon="2.13688">
        <ele>202.73</ele>
        <time>2021-11-20T09:13:00Z</time>
      </trkpt>
      <trkpt lat="48.72533" lon="2.13701">
        <ele>202.74</ele>
        <time>2021-11-20T09:13:08Z</time>
      </trkpt>
      <trkpt lat="48.72532" lon="2.13715">
        <ele>202.75</ele>
        <time>2021-11-20T09:13:16Z</time>
      </trkpt>
      <trkpt lat="48.72531" lon="2.13729">
        <ele>202.75</ele>
        <time>2021-11-20T09:13:22Z</time>
      </trkpt>
      <trkpt lat="48.72528" lon="2.13743">
        <ele>202.75</ele>
        <time>2021-11-20T09:13:30Z</time>
      </trkpt>
      <trkpt lat="48.7252" lon="2.13753">
        <ele>202.76</ele>
        <time>2021-11-20T09:13:37Z</time>
      </trkpt>
      <trkpt lat="48.72513" lon="2.13763">
        <ele>202.76</ele>
        <time>2021-11-20T09:13:44Z</time>
      </trkpt>
      <trkpt lat="48.72506" lon="2.13773">
        <ele>202.77</ele>
        <time>2021-11-20T09:13:51Z</time>
      </trkpt>
      <trkpt lat="48.725" lon="2.13784">
        <ele>202.77</ele>
        <time>2021-11-20T09:13:59Z</time>
      </trkpt>
      <trkpt lat="48.72493" lon="2.13794">
        <ele>202.78</ele>
        <time>2021-11-20T09:14:08Z</time>
      </trkpt>
      <trkpt lat="48.72487" lon="2.13805">
        <ele>202.79</ele>
        <time>2021-11-20T09:14:15Z</time>
      </trkpt>
      <trkpt lat="48.72479" lon="2.13815">
        <ele>202.79</ele>
        <time>2021-11-20T09:14:22Z</time>
      </trkpt>
      <trkpt lat="48.72473" lon="2.13826">
        <ele>202.81</ele>
        <time>2021-11-20T09:14:30Z</time>
      </trkpt>
      <trkpt lat="48.72465" lon="2.13837">
        <ele>202.82</ele>
        <time>2021-11-20T09:14:37Z</time>
      </trkpt>
      <trkpt lat="48.72459" lon="2.13847">
        <ele>202.85</ele>
        <time>2021-11-20T09:14:53Z</time>
      </trkpt>
      <trkpt lat="48.72449" lon="2.13845">
        <ele>202.91</ele>
        <time>2021-11-20T09:15:22Z</time>
      </trkpt>
      <trkpt lat="48.72441" lon="2.13838">
        <ele>202.94</ele>
        <time>2021-11-20T09:15:32Z</time>
      </trkpt>
      <trkpt lat="48.72432" lon="2.13832">
        <ele>202.97</ele>
        <time>2021-11-20T09:15:40Z</time>
      </trkpt>
      <trkpt lat="48.72422" lon="2.13827">
        <ele>203</ele>
        <time>2021-11-20T09:15:48Z</time>
      </trkpt>
      <trkpt lat="48.72414" lon="2.13822">
        <ele>203.04</ele>
        <time>2021-11-20T09:15:57Z</time>
      </trkpt>
      <trkpt lat="48.72404" lon="2.13818">
        <ele>203.07</ele>
        <time>2021-11-20T09:16:06Z</time>
      </trkpt>
      <trkpt lat="48.72395" lon="2.13813">
        <ele>203.1</ele>
        <time>2021-11-20T09:16:15Z</time>
      </trkpt>
      <trkpt lat="48.72387" lon="2.13804">
        <ele>203.12</ele>
        <time>2021-11-20T09:16:23Z</time>
      </trkpt>
      <trkpt lat="48.72387" lon="2.13788">
        <ele>203.13</ele>
        <time>2021-11-20T09:16:31Z</time>
      </trkpt>
      <trkpt lat="48.72388" lon="2.13774">
        <ele>203.17</ele>
        <time>2021-11-20T09:16:40Z</time>
      </trkpt>
      <trkpt lat="48.7239" lon="2.1376">
        <ele>203.22</ele>
        <time>2021-11-20T09:16:48Z</time>
      </trkpt>
      <trkpt lat="48.72391" lon="2.13745">
        <ele>203.28</ele>
        <time>2021-11-20T09:16:58Z</time>
      </trkpt>
      <trkpt lat="48.7239" lon="2.13731">
        <ele>203.32</ele>
        <time>2021-11-20T09:17:06Z</time>
      </trkpt>
      <trkpt lat="48.72389" lon="2.13716">
        <ele>203.37</ele>
        <time>2021-11-20T09:17:14Z</time>
      </trkpt>
      <trkpt lat="48.7239" lon="2.13702">
        <ele>203.4</ele>
        <time>2021-11-20T09:17:22Z</time>
      </trkpt>
      <trkpt lat="48.72386" lon="2.13689">
        <ele>203.43</ele>
        <time>2021-11-20T09:17:30Z</time>
      </trkpt>
      <trkpt lat="48.72382" lon="2.13676">
        <ele>203.45</ele>
        <time>2021-11-20T09:17:36Z</time>
      </trkpt>
      <trkpt lat="48.72379" lon="2.13661">
        <ele>203.47</ele>
        <time>2021-11-20T09:17:44Z</time>
      </trkpt>
      <trkpt lat="48.72373" lon="2.1365">
        <ele>203.48</ele>
        <time>2021-11-20T09:17:51Z</time>
      </trkpt>
      <trkpt lat="48.72369" lon="2.13638">
        <ele>203.48</ele>
        <time>2021-11-20T09:17:58Z</time>
      </trkpt>
      <trkpt lat="48.72364" lon="2.13624">
        <ele>203.47</ele>
        <time>2021-11-20T09:18:07Z</time>
      </trkpt>
      <trkpt lat="48.72361" lon="2.13612">
        <ele>203.47</ele>
        <time>2021-11-20T09:18:14Z</time>
      </trkpt>
      <trkpt lat="48.72356" lon="2.13598">
        <ele>203.46</ele>
        <time>2021-11-20T09:18:20Z</time>
      </trkpt>
      <trkpt lat="48.7235" lon="2.13588">
        <ele>203.46</ele>
        <time>2021-11-20T09:18:26Z</time>
      </trkpt>
      <trkpt lat="48.72342" lon="2.1358">
        <ele>203.44</ele>
        <time>2021-11-20T09:18:34Z</time>
      </trkpt>
      <trkpt lat="48.72336" lon="2.13569">
        <ele>203.42</ele>
        <time>2021-11-20T09:18:45Z</time>
      </trkpt>
      <trkpt lat="48.72329" lon="2.13558">
        <ele>203.4</ele>
        <time>2021-11-20T09:18:53Z</time>
      </trkpt>
      <trkpt lat="48.72323" lon="2.13549">
        <ele>203.38</ele>
        <time>2021-11-20T09:19:00Z</time>
      </trkpt>
      <trkpt lat="48.72314" lon="2.1354">
        <ele>203.36</ele>
        <time>2021-11-20T09:19:07Z</time>
      </trkpt>
      <trkpt lat="48.72305" lon="2.13538">
        <ele>203.33</ele>
        <time>2021-11-20T09:19:13Z</time>
      </trkpt>
      <trkpt lat="48.72298" lon="2.13529">
        <ele>203.29</ele>
        <time>2021-11-20T09:19:23Z</time>
      </trkpt>
      <trkpt lat="48.72291" lon="2.1352">
        <ele>203.27</ele>
        <time>2021-11-20T09:19:29Z</time>
      </trkpt>
      <trkpt lat="48.72283" lon="2.13513">
        <ele>203.25</ele>
        <time>2021-11-20T09:19:35Z</time>
      </trkpt>
      <trkpt lat="48.72276" lon="2.13505">
        <ele>203.23</ele>
        <time>2021-11-20T09:19:43Z</time>
      </trkpt>
      <trkpt lat="48.7227" lon="2.13494">
        <ele>203.2</ele>
        <time>2021-11-20T09:19:52Z</time>
      </trkpt>
      <trkpt lat="48.72262" lon="2.13485">
        <ele>203.17</ele>
        <time>2021-11-20T09:20:02Z</time>
      </trkpt>
      <trkpt lat="48.72255" lon="2.13475">
        <ele>203.15</ele>
        <time>2021-11-20T09:20:09Z</time>
      </trkpt>
      <trkpt lat="48.72249" lon="2.13464">
        <ele>203.13</ele>
        <time>2021-11-20T09:20:16Z</time>
      </trkpt>
      <trkpt lat="48.72242" lon="2.13453">
        <ele>203.1</ele>
        <time>2021-11-20T09:20:25Z</time>
      </trkpt>
      <trkpt lat="48.72236" lon="2.13442">
        <ele>203.08</ele>
        <time>2021-11-20T09:20:34Z</time>
      </trkpt>
      <trkpt lat="48.72228" lon="2.13433">
        <ele>203.06</ele>
        <time>2021-11-20T09:20:42Z</time>
      </trkpt>
      <trkpt lat="48.72221" lon="2.13423">
        <ele>203.05</ele>
        <time>2021-11-20T09:20:49Z</time>
      </trkpt>
      <trkpt lat="48.72215" lon="2.1341">
        <ele>203.03</ele>
        <time>2021-11-20T09:20:57Z</time>
      </trkpt>
      <trkpt lat="48.72208" lon="2.13402">
        <ele>203.02</ele>
        <time>2021-11-20T09:21:04Z</time>
      </trkpt>
      <trkpt lat="48.72202" lon="2.13389">
        <ele>203.01</ele>
        <time>2021-11-20T09:21:10Z</time>
      </trkpt>
      <trkpt lat="48.72196" lon="2.13377">
        <ele>203</ele>
        <time>2021-11-20T09:21:16Z</time>
      </trkpt>
      <trkpt lat="48.72189" lon="2.13366">
        <ele>202.99</ele>
        <time>2021-11-20T09:21:24Z</time>
      </trkpt>
      <trkpt lat="48.72182" lon="2.13356">
        <ele>202.97</ele>
        <time>2021-11-20T09:21:31Z</time>
      </trkpt>
      <trkpt lat="48.72176" lon="2.13343">
        <ele>202.95</ele>
        <time>2021-11-20T09:21:42Z</time>
      </trkpt>
      <trkpt lat="48.7217" lon="2.13332">
        <ele>202.95</ele>
        <time>2021-11-20T09:21:48Z</time>
      </trkpt>
      <trkpt lat="48.72165" lon="2.13321">
        <ele>202.94</ele>
        <time>2021-11-20T09:21:56Z</time>
      </trkpt>
      <trkpt lat="48.72158" lon="2.13312">
        <ele>202.92</ele>
        <time>2021-11-20T09:22:04Z</time>
      </trkpt>
      <trkpt lat="48.72153" lon="2.13299">
        <ele>202.9</ele>
        <time>2021-11-20T09:22:15Z</time>
      </trkpt>
      <trkpt lat="48.72149" lon="2.13286">
        <ele>202.88</ele>
        <time>2021-11-20T09:22:23Z</time>
      </trkpt>
      <trkpt lat="48.72143" lon="2.13276">
        <ele>202.86</ele>
        <time>2021-11-20T09:22:30Z</time>
      </trkpt>
      <trkpt lat="48.72137" lon="2.13264">
        <ele>202.84</ele>
        <time>2021-11-20T09:22:37Z</time>
      </trkpt>
      <trkpt lat="48.72133" lon="2.1325">
        <ele>202.83</ele>
        <time>2021-11-20T09:22:45Z</time>
      </trkpt>
      <trkpt lat="48.72126" lon="2.1324">
        <ele>202.81</ele>
        <time>2021-11-20T09:22:52Z</time>
      </trkpt>
      <trkpt lat="48.72119" lon="2.13228">
        <ele>202.8</ele>
        <time>2021-11-20T09:23:00Z</time>
      </trkpt>
      <trkpt lat="48.72115" lon="2.13215">
        <ele>202.79</ele>
        <time>2021-11-20T09:23:07Z</time>
      </trkpt>
      <trkpt lat="48.72109" lon="2.13205">
        <ele>202.77</ele>
        <time>2021-11-20T09:23:16Z</time>
      </trkpt>
      <trkpt lat="48.72108" lon="2.1319">
        <ele>202.77</ele>
        <time>2021-11-20T09:23:23Z</time>
      </trkpt>
      <trkpt lat="48.72104" lon="2.13177">
        <ele>202.78</ele>
        <time>2021-11-20T09:23:31Z</time>
      </trkpt>
      <trkpt lat="48.72097" lon="2.13168">
        <ele>202.78</ele>
        <time>2021-11-20T09:23:38Z</time>
      </trkpt>
      <trkpt lat="48.7209" lon="2.13159">
        <ele>202.79</ele>
        <time>2021-11-20T09:23:44Z</time>
      </trkpt>
      <trkpt lat="48.72083" lon="2.1315">
        <ele>202.79</ele>
        <time>2021-11-20T09:23:51Z</time>
      </trkpt>
      <trkpt lat="48.72078" lon="2.13137">
        <ele>202.78</ele>
        <time>2021-11-20T09:24:21Z</time>
      </trkpt>
      <trkpt lat="48.72071" lon="2.13129">
        <ele>202.79</ele>
        <time>2021-11-20T09:25:32Z</time>
      </trkpt>
      <trkpt lat="48.72061" lon="2.13126">
        <ele>202.8</ele>
        <time>2021-11-20T09:25:41Z</time>
      </trkpt>
      <trkpt lat="48.72053" lon="2.13121">
        <ele>202.81</ele>
        <time>2021-11-20T09:25:50Z</time>
      </trkpt>
      <trkpt lat="48.72044" lon="2.13116">
        <ele>202.81</ele>
        <time>2021-11-20T09:25:57Z</time>
      </trkpt>
      <trkpt lat="48.72036" lon="2.13111">
        <ele>202.82</ele>
        <time>2021-11-20T09:26:05Z</time>
      </trkpt>
      <trkpt lat="48.72027" lon="2.13103">
        <ele>202.84</ele>
        <time>2021-11-20T09:26:14Z</time>
      </trkpt>
      <trkpt lat="48.72019" lon="2.13096">
        <ele>202.85</ele>
        <time>2021-11-20T09:26:21Z</time>
      </trkpt>
      <trkpt lat="48.7201" lon="2.13089">
        <ele>202.85</ele>
        <time>2021-11-20T09:26:30Z</time>
      </trkpt>
      <trkpt lat="48.72001" lon="2.13084">
        <ele>202.86</ele>
        <time>2021-11-20T09:26:39Z</time>
      </trkpt>
      <trkpt lat="48.71992" lon="2.13081">
        <ele>202.86</ele>
        <time>2021-11-20T09:26:49Z</time>
      </trkpt>
      <trkpt lat="48.71982" lon="2.13077">
        <ele>202.87</ele>
        <time>2021-11-20T09:26:57Z</time>
      </trkpt>
      <trkpt lat="48.71973" lon="2.13074">
        <ele>202.87</ele>
        <time>2021-11-20T09:27:04Z</time>
      </trkpt>
      <trkpt lat="48.71963" lon="2.1307">
        <ele>202.87</ele>
        <time>2021-11-20T09:27:13Z</time>
      </trkpt>
      <trkpt lat="48.71954" lon="2.13065">
        <ele>202.87</ele>
        <time>2021-11-20T09:27:21Z</time>
      </trkpt>
      <trkpt lat="48.71946" lon="2.13061">
        <ele>202.88</ele>
        <time>2021-11-20T09:27:30Z</time>
      </trkpt>
      <trkpt lat="48.71936" lon="2.13055">
        <ele>202.89</ele>
        <time>2021-11-20T09:27:38Z</time>
      </trkpt>
      <trkpt lat="48.71927" lon="2.13049">
        <ele>202.89</ele>
        <time>2021-11-20T09:27:45Z</time>
      </trkpt>
      <trkpt lat="48.7192" lon="2.13039">
        <ele>202.88</ele>
        <time>2021-11-20T09:27:53Z</time>
      </trkpt>
      <trkpt lat="48.71913" lon="2.13028">
        <ele>202.89</ele>
        <time>2021-11-20T09:28:03Z</time>
      </trkpt>
      <trkpt lat="48.71907" lon="2.13016">
        <ele>202.9</ele>
        <time>2021-11-20T09:28:12Z</time>
      </trkpt>
      <trkpt lat="48.71899" lon="2.13009">
        <ele>202.93</ele>
        <time>2021-11-20T09:28:21Z</time>
      </trkpt>
      <trkpt lat="48.71892" lon="2.12998">
        <ele>202.97</ele>
        <time>2021-11-20T09:28:29Z</time>
      </trkpt>
      <trkpt lat="48.71883" lon="2.1299">
        <ele>202.99</ele>
        <time>2021-11-20T09:28:36Z</time>
      </trkpt>
      <trkpt lat="48.71876" lon="2.12982">
        <ele>203.01</ele>
        <time>2021-11-20T09:28:44Z</time>
      </trkpt>
      <trkpt lat="48.71868" lon="2.12975">
        <ele>203.03</ele>
        <time>2021-11-20T09:28:53Z</time>
      </trkpt>
      <trkpt lat="48.71859" lon="2.12969">
        <ele>203.04</ele>
        <time>2021-11-20T09:29:00Z</time>
      </trkpt>
      <trkpt lat="48.71849" lon="2.12965">
        <ele>203.06</ele>
        <time>2021-11-20T09:29:09Z</time>
      </trkpt>
      <trkpt lat="48.7184" lon="2.12962">
        <ele>203.08</ele>
        <time>2021-11-20T09:29:17Z</time>
      </trkpt>
      <trkpt lat="48.7183" lon="2.12958">
        <ele>203.09</ele>
        <time>2021-11-20T09:29:24Z</time>
      </trkpt>
      <trkpt lat="48.71821" lon="2.12954">
        <ele>203.1</ele>
        <time>2021-11-20T09:29:32Z</time>
      </trkpt>
      <trkpt lat="48.71812" lon="2.1295">
        <ele>203.12</ele>
        <time>2021-11-20T09:29:40Z</time>
      </trkpt>
      <trkpt lat="48.71802" lon="2.12945">
        <ele>203.13</ele>
        <time>2021-11-20T09:29:48Z</time>
      </trkpt>
      <trkpt lat="48.71793" lon="2.12945">
        <ele>203.15</ele>
        <time>2021-11-20T09:29:56Z</time>
      </trkpt>
      <trkpt lat="48.71784" lon="2.12945">
        <ele>203.16</ele>
        <time>2021-11-20T09:30:03Z</time>
      </trkpt>
      <trkpt lat="48.71774" lon="2.12946">
        <ele>203.17</ele>
        <time>2021-11-20T09:30:10Z</time>
      </trkpt>
      <trkpt lat="48.71765" lon="2.12946">
        <ele>203.2</ele>
        <time>2021-11-20T09:30:18Z</time>
      </trkpt>
      <trkpt lat="48.71755" lon="2.12947">
        <ele>203.22</ele>
        <time>2021-11-20T09:30:26Z</time>
      </trkpt>
      <trkpt lat="48.71746" lon="2.12949">
        <ele>203.25</ele>
        <time>2021-11-20T09:30:33.999Z</time>
      </trkpt>
      <trkpt lat="48.71737" lon="2.12949">
        <ele>203.28</ele>
        <time>2021-11-20T09:30:41.999Z</time>
      </trkpt>
      <trkpt lat="48.71727" lon="2.12951">
        <ele>203.29</ele>
        <time>2021-11-20T09:30:50.999Z</time>
      </trkpt>
      <trkpt lat="48.71717" lon="2.12953">
        <ele>203.31</ele>
        <time>2021-11-20T09:30:58.999Z</time>
      </trkpt>
      <trkpt lat="48.71708" lon="2.12955">
        <ele>203.33</ele>
        <time>2021-11-20T09:31:06.999Z</time>
      </trkpt>
      <trkpt lat="48.71698" lon="2.12956">
        <ele>203.36</ele>
        <time>2021-11-20T09:31:14.999Z</time>
      </trkpt>
      <trkpt lat="48.71689" lon="2.12956">
        <ele>203.38</ele>
        <time>2021-11-20T09:31:22.999Z</time>
      </trkpt>
      <trkpt lat="48.7168" lon="2.12958">
        <ele>203.4</ele>
        <time>2021-11-20T09:31:30.999Z</time>
      </trkpt>
      <trkpt lat="48.7167" lon="2.1296">
        <ele>203.42</ele>
        <time>2021-11-20T09:31:38.999Z</time>
      </trkpt>
      <trkpt lat="48.71661" lon="2.12964">
        <ele>203.42</ele>
        <time>2021-11-20T09:31:46.999Z</time>
      </trkpt>
      <trkpt lat="48.71652" lon="2.12969">
        <ele>203.43</ele>
        <time>2021-11-20T09:31:53.999Z</time>
      </trkpt>
      <trkpt lat="48.71642" lon="2.12971">
        <ele>203.44</ele>
        <time>2021-11-20T09:32:01.999Z</time>
      </trkpt>
      <trkpt lat="48.71632" lon="2.12973">
        <ele>203.45</ele>
        <time>2021-11-20T09:32:10.999Z</time>
      </trkpt>
      <trkpt lat="48.71622" lon="2.12976">
        <ele>203.46</ele>
        <time>2021-11-20T09:32:19.999Z</time>
      </trkpt>
      <trkpt lat="48.71612" lon="2.12979">
        <ele>203.46</ele>
        <time>2021-11-20T09:32:26.999Z</time>
      </trkpt>
      <trkpt lat="48.71604" lon="2.12981">
        <ele>203.47</ele>
        <time>2021-11-20T09:32:34.999Z</time>
      </trkpt>
      <trkpt lat="48.71594" lon="2.12982">
        <ele>203.47</ele>
        <time>2021-11-20T09:32:42.999Z</time>
      </trkpt>
      <trkpt lat="48.71585" lon="2.12985">
        <ele>203.47</ele>
        <time>2021-11-20T09:32:50.999Z</time>
      </trkpt>
      <trkpt lat="48.71577" lon="2.1299">
        <ele>203.46</ele>
        <time>2021-11-20T09:32:58.999Z</time>
      </trkpt>
      <trkpt lat="48.71572" lon="2.13003">
        <ele>203.45</ele>
        <time>2021-11-20T09:33:08.999Z</time>
      </trkpt>
      <trkpt lat="48.71571" lon="2.13017">
        <ele>203.45</ele>
        <time>2021-11-20T09:33:18.999Z</time>
      </trkpt>
      <trkpt lat="48.71569" lon="2.13031">
        <ele>203.43</ele>
        <time>2021-11-20T09:33:25.999Z</time>
      </trkpt>
      <trkpt lat="48.71564" lon="2.13045">
        <ele>203.41</ele>
        <time>2021-11-20T09:33:35.999Z</time>
      </trkpt>
      <trkpt lat="48.71559" lon="2.13058">
        <ele>203.4</ele>
        <time>2021-11-20T09:33:41.999Z</time>
      </trkpt>
      <trkpt lat="48.7156" lon="2.13072">
        <ele>203.38</ele>
        <time>2021-11-20T09:33:49.999Z</time>
      </trkpt>
      <trkpt lat="48.71559" lon="2.13086">
        <ele>203.38</ele>
        <time>2021-11-20T09:33:56.999Z</time>
      </trkpt>
      <trkpt lat="48.71556" lon="2.13099">
        <ele>203.37</ele>
        <time>2021-11-20T09:34:05.999Z</time>
      </trkpt>
      <trkpt lat="48.71554" lon="2.13113">
        <ele>203.38</ele>
        <time>2021-11-20T09:34:13.999Z</time>
      </trkpt>
      <trkpt lat="48.71553" lon="2.13127">
        <ele>203.4</ele>
        <time>2021-11-20T09:34:21.999Z</time>
      </trkpt>
      <trkpt lat="48.71549" lon="2.13141">
        <ele>203.42</ele>
        <time>2021-11-20T09:34:31.999Z</time>
      </trkpt>
      <trkpt lat="48.71547" lon="2.13155">
        <ele>203.43</ele>
        <time>2021-11-20T09:34:38.999Z</time>
      </trkpt>
      <trkpt lat="48.71546" lon="2.1317">
        <ele>203.44</ele>
        <time>2021-11-20T09:34:47.999Z</time>
      </trkpt>
      <trkpt lat="48.71545" lon="2.13184">
        <ele>203.44</ele>
        <time>2021-11-20T09:34:56.999Z</time>
      </trkpt>
      <trkpt lat="48.71543" lon="2.13197">
        <ele>203.45</ele>
        <time>2021-11-20T09:35:04.999Z</time>
      </trkpt>
      <trkpt lat="48.71542" lon="2.13211">
        <ele>203.45</ele>
        <time>2021-11-20T09:35:11.999Z</time>
      </trkpt>
      <trkpt lat="48.7154" lon="2.13226">
        <ele>203.44</ele>
        <time>2021-11-20T09:35:19.999Z</time>
      </trkpt>
      <trkpt lat="48.71538" lon="2.1324">
        <ele>203.44</ele>
        <time>2021-11-20T09:35:28.999Z</time>
      </trkpt>
      <trkpt lat="48.71538" lon="2.13255">
        <ele>203.44</ele>
        <time>2021-11-20T09:35:35.999Z</time>
      </trkpt>
      <trkpt lat="48.71537" lon="2.13269">
        <ele>203.45</ele>
        <time>2021-11-20T09:35:44.999Z</time>
      </trkpt>
      <trkpt lat="48.71535" lon="2.13283">
        <ele>203.46</ele>
        <time>2021-11-20T09:35:53.999Z</time>
      </trkpt>
      <trkpt lat="48.71533" lon="2.13297">
        <ele>203.47</ele>
        <time>2021-11-20T09:36:00.999Z</time>
      </trkpt>
      <trkpt lat="48.7153" lon="2.1331">
        <ele>203.48</ele>
        <time>2021-11-20T09:36:07.999Z</time>
      </trkpt>
      <trkpt lat="48.71527" lon="2.13324">
        <ele>203.5</ele>
        <time>2021-11-20T09:36:15.999Z</time>
      </trkpt>
      <trkpt lat="48.71527" lon="2.1334">
        <ele>203.52</ele>
        <time>2021-11-20T09:36:24.999Z</time>
      </trkpt>
      <trkpt lat="48.71525" lon="2.13355">
        <ele>203.55</ele>
        <time>2021-11-20T09:36:33.999Z</time>
      </trkpt>
      <trkpt lat="48.71521" lon="2.13368">
        <ele>203.56</ele>
        <time>2021-11-20T09:36:40.999Z</time>
      </trkpt>
      <trkpt lat="48.71517" lon="2.13382">
        <ele>203.58</ele>
        <time>2021-11-20T09:36:49.999Z</time>
      </trkpt>
      <trkpt lat="48.71515" lon="2.134">
        <ele>203.61</ele>
        <time>2021-11-20T09:36:58.999Z</time>
      </trkpt>
      <trkpt lat="48.71514" lon="2.13415">
        <ele>203.63</ele>
        <time>2021-11-20T09:37:06.999Z</time>
      </trkpt>
      <trkpt lat="48.71512" lon="2.13429">
        <ele>203.64</ele>
        <time>2021-11-20T09:37:14.999Z</time>
      </trkpt>
      <trkpt lat="48.71509" lon="2.13443">
        <ele>203.66</ele>
        <time>2021-11-20T09:37:24.999Z</time>
      </trkpt>
      <trkpt lat="48.71509" lon="2.13457">
        <ele>203.69</ele>
        <time>2021-11-20T09:37:34.999Z</time>
      </trkpt>
      <trkpt lat="48.71506" lon="2.1347">
        <ele>203.71</ele>
        <time>2021-11-20T09:37:42.999Z</time>
      </trkpt>
      <trkpt lat="48.71505" lon="2.13485">
        <ele>203.73</ele>
        <time>2021-11-20T09:37:52.999Z</time>
      </trkpt>
      <trkpt lat="48.71502" lon="2.13498">
        <ele>203.75</ele>
        <time>2021-11-20T09:37:59.999Z</time>
      </trkpt>
      <trkpt lat="48.71501" lon="2.13512">
        <ele>203.77</ele>
        <time>2021-11-20T09:38:08.999Z</time>
      </trkpt>
      <trkpt lat="48.71497" lon="2.13525">
        <ele>203.81</ele>
        <time>2021-11-20T09:39:09.999Z</time>
      </trkpt>
      <trkpt lat="48.71495" lon="2.13539">
        <ele>203.76</ele>
        <time>2021-11-20T09:39:16.999Z</time>
      </trkpt>
      <trkpt lat="48.71495" lon="2.13553">
        <ele>203.59</ele>
        <time>2021-11-20T09:39:42.999Z</time>
      </trkpt>
      <trkpt lat="48.71494" lon="2.13569">
        <ele>203.48</ele>
        <time>2021-11-20T09:39:50.999Z</time>
      </trkpt>
      <trkpt lat="48.71492" lon="2.13584">
        <ele>203.35</ele>
        <time>2021-11-20T09:40:00.999Z</time>
      </trkpt>
      <trkpt lat="48.7149" lon="2.13597">
        <ele>203.28</ele>
        <time>2021-11-20T09:40:06.999Z</time>
      </trkpt>
      <trkpt lat="48.71487" lon="2.1361">
        <ele>203.2</ele>
        <time>2021-11-20T09:40:14.999Z</time>
      </trkpt>
      <trkpt lat="48.71484" lon="2.13624">
        <ele>203.15</ele>
        <time>2021-11-20T09:40:21.999Z</time>
      </trkpt>
      <trkpt lat="48.71481" lon="2.13638">
        <ele>203.1</ele>
        <time>2021-11-20T09:40:28.999Z</time>
      </trkpt>
      <trkpt lat="48.71481" lon="2.13652">
        <ele>203.03</ele>
        <time>2021-11-20T09:40:37.999Z</time>
      </trkpt>
      <trkpt lat="48.71479" lon="2.13668">
        <ele>202.97</ele>
        <time>2021-11-20T09:40:48.999Z</time>
      </trkpt>
      <trkpt lat="48.7148" lon="2.13681">
        <ele>202.93</ele>
        <time>2021-11-20T09:40:57.999Z</time>
      </trkpt>
      <trkpt lat="48.71478" lon="2.13696">
        <ele>202.9</ele>
        <time>2021-11-20T09:41:07.999Z</time>
      </trkpt>
      <trkpt lat="48.71475" lon="2.13709">
        <ele>202.88</ele>
        <time>2021-11-20T09:41:15.999Z</time>
      </trkpt>
      <trkpt lat="48.71473" lon="2.13723">
        <ele>202.86</ele>
        <time>2021-11-20T09:41:23.999Z</time>
      </trkpt>
      <trkpt lat="48.71471" lon="2.13737">
        <ele>202.85</ele>
        <time>2021-11-20T09:41:32.999Z</time>
      </trkpt>
      <trkpt lat="48.71471" lon="2.13751">
        <ele>202.84</ele>
        <time>2021-11-20T09:41:41.999Z</time>
      </trkpt>
      <trkpt lat="48.71467" lon="2.13765">
        <ele>202.83</ele>
        <time>2021-11-20T09:41:49.999Z</time>
      </trkpt>
      <trkpt lat="48.71463" lon="2.1378">
        <ele>202.83</ele>
        <time>2021-11-20T09:41:57.999Z</time>
      </trkpt>
      <trkpt lat="48.7146" lon="2.13794">
        <ele>202.82</ele>
        <time>2021-11-20T09:42:05.999Z</time>
      </trkpt>
      <trkpt lat="48.7146" lon="2.13808">
        <ele>202.82</ele>
        <time>2021-11-20T09:42:12.999Z</time>
      </trkpt>
      <trkpt lat="48.71459" lon="2.13822">
        <ele>202.81</ele>
        <time>2021-11-20T09:42:20.999Z</time>
      </trkpt>
      <trkpt lat="48.71457" lon="2.13837">
        <ele>202.81</ele>
        <time>2021-11-20T09:42:28.999Z</time>
      </trkpt>
      <trkpt lat="48.71454" lon="2.13851">
        <ele>202.81</ele>
        <time>2021-11-20T09:42:35.999Z</time>
      </trkpt>
      <trkpt lat="48.71449" lon="2.13864">
        <ele>202.82</ele>
        <time>2021-11-20T09:42:42.999Z</time>
      </trkpt>
      <trkpt lat="48.71445" lon="2.13877">
        <ele>202.84</ele>
        <time>2021-11-20T09:42:51.999Z</time>
      </trkpt>
      <trkpt lat="48.71442" lon="2.13891">
        <ele>202.87</ele>
        <time>2021-11-20T09:42:59.999Z</time>
      </trkpt>
      <trkpt lat="48.71434" lon="2.13898">
        <ele>203.08</ele>
        <time>2021-11-20T09:43:45.999Z</time>
      </trkpt>
      <trkpt lat="48.71425" lon="2.13897">
        <ele>203.17</ele>
        <time>2021-11-20T09:43:54.999Z</time>
      </trkpt>
      <trkpt lat="48.71416" lon="2.13896">
        <ele>203.26</ele>
        <time>2021-11-20T09:44:04.999Z</time>
      </trkpt>
      <trkpt lat="48.71406" lon="2.13898">
        <ele>203.33</ele>
        <time>2021-11-20T09:44:12.999Z</time>
      </trkpt>
      <trkpt lat="48.71396" lon="2.13897">
        <ele>203.4</ele>
        <time>2021-11-20T09:44:21.999Z</time>
      </trkpt>
      <trkpt lat="48.71388" lon="2.13891">
        <ele>203.46</ele>
        <time>2021-11-20T09:44:29.999Z</time>
      </trkpt>
      <trkpt lat="48.71379" lon="2.13884">
        <ele>203.52</ele>
        <time>2021-11-20T09:44:37.999Z</time>
      </trkpt>
      <trkpt lat="48.7137" lon="2.13879">
        <ele>203.58</ele>
        <time>2021-11-20T09:44:46.999Z</time>
      </trkpt>
      <trkpt lat="48.71361" lon="2.13876">
        <ele>203.64</ele>
        <time>2021-11-20T09:44:54.999Z</time>
      </trkpt>
      <trkpt lat="48.71352" lon="2.1387">
        <ele>203.7</ele>
        <time>2021-11-20T09:45:02.999Z</time>
      </trkpt>
      <trkpt lat="48.71343" lon="2.13866">
        <ele>203.76</ele>
        <time>2021-11-20T09:45:10.999Z</time>
      </trkpt>
      <trkpt lat="48.71334" lon="2.13868">
        <ele>203.81</ele>
        <time>2021-11-20T09:45:17.999Z</time>
      </trkpt>
      <trkpt lat="48.71325" lon="2.13872">
        <ele>203.86</ele>
        <time>2021-11-20T09:45:25.999Z</time>
      </trkpt>
      <trkpt lat="48.71318" lon="2.13882">
        <ele>203.9</ele>
        <time>2021-11-20T09:45:34.999Z</time>
      </trkpt>
      <trkpt lat="48.71314" lon="2.13897">
        <ele>203.94</ele>
        <time>2021-11-20T09:45:42.999Z</time>
      </trkpt>
      <trkpt lat="48.71311" lon="2.1391">
        <ele>203.97</ele>
        <time>2021-11-20T09:45:50.999Z</time>
      </trkpt>
      <trkpt lat="48.71307" lon="2.13923">
        <ele>203.99</ele>
        <time>2021-11-20T09:45:57.999Z</time>
      </trkpt>
      <trkpt lat="48.71302" lon="2.13936">
        <ele>204.03</ele>
        <time>2021-11-20T09:46:08.999Z</time>
      </trkpt>
      <trkpt lat="48.713" lon="2.13949">
        <ele>204.07</ele>
        <time>2021-11-20T09:46:17.999Z</time>
      </trkpt>
      <trkpt lat="48.71295" lon="2.13963">
        <ele>204.1</ele>
        <time>2021-11-20T09:46:25.999Z</time>
      </trkpt>
      <trkpt lat="48.71293" lon="2.13976">
        <ele>204.11</ele>
        <time>2021-11-20T09:46:32.999Z</time>
      </trkpt>
      <trkpt lat="48.71291" lon="2.13991">
        <ele>204.12</ele>
        <time>2021-11-20T09:46:39.999Z</time>
      </trkpt>
      <trkpt lat="48.71289" lon="2.14004">
        <ele>204.12</ele>
        <time>2021-11-20T09:47:01.999Z</time>
      </trkpt>
      <trkpt lat="48.7128" lon="2.14008">
        <ele>204.05</ele>
        <time>2021-11-20T09:47:47.999Z</time>
      </trkpt>
      <trkpt lat="48.71271" lon="2.14004">
        <ele>204.05</ele>
        <time>2021-11-20T09:47:56.999Z</time>
      </trkpt>
      <trkpt lat="48.71262" lon="2.14001">
        <ele>204.05</ele>
        <time>2021-11-20T09:48:04.999Z</time>
      </trkpt>
      <trkpt lat="48.71254" lon="2.13996">
        <ele>204.06</ele>
        <time>2021-11-20T09:48:12.999Z</time>
      </trkpt>
      <trkpt lat="48.71245" lon="2.13988">
        <ele>204.09</ele>
        <time>2021-11-20T09:48:25.999Z</time>
      </trkpt>
      <trkpt lat="48.71236" lon="2.13986">
        <ele>204.11</ele>
        <time>2021-11-20T09:48:36.999Z</time>
      </trkpt>
      <trkpt lat="48.71227" lon="2.13982">
        <ele>204.13</ele>
        <time>2021-11-20T09:48:46.999Z</time>
      </trkpt>
      <trkpt lat="48.71219" lon="2.13975">
        <ele>204.16</ele>
        <time>2021-11-20T09:48:56.999Z</time>
      </trkpt>
      <trkpt lat="48.7121" lon="2.13969">
        <ele>204.2</ele>
        <time>2021-11-20T09:49:06.999Z</time>
      </trkpt>
      <trkpt lat="48.71203" lon="2.13962">
        <ele>204.24</ele>
        <time>2021-11-20T09:49:15.999Z</time>
      </trkpt>
      <trkpt lat="48.71196" lon="2.13953">
        <ele>204.31</ele>
        <time>2021-11-20T09:49:26.999Z</time>
      </trkpt>
      <trkpt lat="48.71188" lon="2.13945">
        <ele>204.43</ele>
        <time>2021-11-20T09:50:00.999Z</time>
      </trkpt>
      <trkpt lat="48.71179" lon="2.13939">
        <ele>204.5</ele>
        <time>2021-11-20T09:50:06.999Z</time>
      </trkpt>
      <trkpt lat="48.71172" lon="2.1393">
        <ele>204.58</ele>
        <time>2021-11-20T09:50:15.999Z</time>
      </trkpt>
      <trkpt lat="48.71164" lon="2.13923">
        <ele>204.64</ele>
        <time>2021-11-20T09:50:23Z</time>
      </trkpt>
      <trkpt lat="48.71157" lon="2.13912">
        <ele>204.73</ele>
        <time>2021-11-20T09:50:33Z</time>
      </trkpt>
      <trkpt lat="48.7115" lon="2.13901">
        <ele>204.82</ele>
        <time>2021-11-20T09:50:44Z</time>
      </trkpt>
      <trkpt lat="48.71144" lon="2.13892">
        <ele>204.89</ele>
        <time>2021-11-20T09:50:53Z</time>
      </trkpt>
      <trkpt lat="48.71135" lon="2.13884">
        <ele>204.99</ele>
        <time>2021-11-20T09:51:04Z</time>
      </trkpt>
      <trkpt lat="48.71129" lon="2.13873">
        <ele>205.07</ele>
        <time>2021-11-20T09:51:12Z</time>
      </trkpt>
      <trkpt lat="48.71121" lon="2.13865">
        <ele>205.14</ele>
        <time>2021-11-20T09:51:19Z</time>
      </trkpt>
      <trkpt lat="48.71113" lon="2.13857">
        <ele>205.21</ele>
        <time>2021-11-20T09:51:27Z</time>
      </trkpt>
      <trkpt lat="48.71106" lon="2.13846">
        <ele>205.3</ele>
        <time>2021-11-20T09:51:36Z</time>
      </trkpt>
      <trkpt lat="48.71098" lon="2.13839">
        <ele>205.37</ele>
        <time>2021-11-20T09:51:42Z</time>
      </trkpt>
      <trkpt lat="48.7109" lon="2.1383">
        <ele>205.46</ele>
        <time>2021-11-20T09:51:50Z</time>
      </trkpt>
      <trkpt lat="48.71083" lon="2.13821">
        <ele>205.57</ele>
        <time>2021-11-20T09:52:00Z</time>
      </trkpt>
      <trkpt lat="48.71075" lon="2.13815">
        <ele>205.63</ele>
        <time>2021-11-20T09:52:07Z</time>
      </trkpt>
      <trkpt lat="48.71067" lon="2.13805">
        <ele>205.7</ele>
        <time>2021-11-20T09:52:15Z</time>
      </trkpt>
      <trkpt lat="48.7106" lon="2.13797">
        <ele>205.76</ele>
        <time>2021-11-20T09:52:25Z</time>
      </trkpt>
      <trkpt lat="48.7105" lon="2.13788">
        <ele>205.81</ele>
        <time>2021-11-20T09:52:34Z</time>
      </trkpt>
      <trkpt lat="48.71042" lon="2.13777">
        <ele>205.85</ele>
        <time>2021-11-20T09:52:42Z</time>
      </trkpt>
      <trkpt lat="48.71035" lon="2.13767">
        <ele>205.9</ele>
        <time>2021-11-20T09:52:50Z</time>
      </trkpt>
      <trkpt lat="48.71027" lon="2.13758">
        <ele>205.94</ele>
        <time>2021-11-20T09:52:59Z</time>
      </trkpt>
      <trkpt lat="48.7102" lon="2.1375">
        <ele>205.98</ele>
        <time>2021-11-20T09:53:07Z</time>
      </trkpt>
      <trkpt lat="48.71013" lon="2.1374">
        <ele>206.02</ele>
        <time>2021-11-20T09:53:15Z</time>
      </trkpt>
      <trkpt lat="48.71006" lon="2.1373">
        <ele>206.05</ele>
        <time>2021-11-20T09:53:24Z</time>
      </trkpt>
      <trkpt lat="48.70998" lon="2.13722">
        <ele>206.08</ele>
        <time>2021-11-20T09:53:32Z</time>
      </trkpt>
      <trkpt lat="48.7099" lon="2.13713">
        <ele>206.12</ele>
        <time>2021-11-20T09:53:40Z</time>
      </trkpt>
      <trkpt lat="48.70983" lon="2.13703">
        <ele>206.17</ele>
        <time>2021-11-20T09:53:48Z</time>
      </trkpt>
      <trkpt lat="48.70975" lon="2.13696">
        <ele>206.21</ele>
        <time>2021-11-20T09:53:58Z</time>
      </trkpt>
      <trkpt lat="48.7097" lon="2.13684">
        <ele>206.28</ele>
        <time>2021-11-20T09:54:19Z</time>
      </trkpt>
      <trkpt lat="48.70962" lon="2.13678">
        <ele>206.46</ele>
        <time>2021-11-20T09:56:15Z</time>
      </trkpt>
      <trkpt lat="48.70954" lon="2.13671">
        <ele>206.56</ele>
        <time>2021-11-20T09:56:31Z</time>
      </trkpt>
      <trkpt lat="48.70947" lon="2.13661">
        <ele>206.62</ele>
        <time>2021-11-20T09:56:44Z</time>
      </trkpt>
      <trkpt lat="48.7094" lon="2.13651">
        <ele>206.66</ele>
        <time>2021-11-20T09:56:53Z</time>
      </trkpt>
      <trkpt lat="48.70932" lon="2.13642">
        <ele>206.7</ele>
        <time>2021-11-20T09:57:02Z</time>
      </trkpt>
      <trkpt lat="48.70924" lon="2.13633">
        <ele>206.74</ele>
        <time>2021-11-20T09:57:10Z</time>
      </trkpt>
      <trkpt lat="48.70915" lon="2.13628">
        <ele>206.78</ele>
        <time>2021-11-20T09:57:20Z</time>
      </trkpt>
      <trkpt lat="48.70908" lon="2.13618">
        <ele>206.81</ele>
        <time>2021-11-20T09:57:29Z</time>
      </trkpt>
      <trkpt lat="48.70903" lon="2.13606">
        <ele>206.83</ele>
        <time>2021-11-20T09:57:33Z</time>
      </trkpt>
      <trkpt lat="48.70893" lon="2.13602">
        <ele>206.85</ele>
        <time>2021-11-20T09:57:41Z</time>
      </trkpt>
      <trkpt lat="48.70884" lon="2.13594">
        <ele>206.88</ele>
        <time>2021-11-20T09:57:50Z</time>
      </trkpt>
      <trkpt lat="48.70878" lon="2.13584">
        <ele>206.93</ele>
        <time>2021-11-20T09:58:09Z</time>
      </trkpt>
      <trkpt lat="48.7087" lon="2.13576">
        <ele>206.98</ele>
        <time>2021-11-20T09:58:36Z</time>
      </trkpt>
      <trkpt lat="48.70862" lon="2.13566">
        <ele>206.99</ele>
        <time>2021-11-20T09:58:45Z</time>
      </trkpt>
      <trkpt lat="48.70855" lon="2.13557">
        <ele>206.99</ele>
        <time>2021-11-20T09:58:59Z</time>
      </trkpt>
      <trkpt lat="48.70852" lon="2.13544">
        <ele>206.98</ele>
        <time>2021-11-20T09:59:08Z</time>
      </trkpt>
      <trkpt lat="48.70853" lon="2.13529">
        <ele>206.97</ele>
        <time>2021-11-20T09:59:16Z</time>
      </trkpt>
      <trkpt lat="48.70853" lon="2.13515">
        <ele>206.96</ele>
        <time>2021-11-20T09:59:24Z</time>
      </trkpt>
      <trkpt lat="48.70845" lon="2.13509">
        <ele>206.91</ele>
        <time>2021-11-20T09:59:46Z</time>
      </trkpt>
      <trkpt lat="48.70839" lon="2.13498">
        <ele>206.86</ele>
        <time>2021-11-20T10:00:04Z</time>
      </trkpt>
      <trkpt lat="48.70833" lon="2.13487">
        <ele>206.82</ele>
        <time>2021-11-20T10:00:18Z</time>
      </trkpt>
      <trkpt lat="48.70833" lon="2.13474">
        <ele>206.79</ele>
        <time>2021-11-20T10:00:26Z</time>
      </trkpt>
      <trkpt lat="48.70836" lon="2.1346">
        <ele>206.74</ele>
        <time>2021-11-20T10:00:36Z</time>
      </trkpt>
      <trkpt lat="48.70831" lon="2.13447">
        <ele>206.59</ele>
        <time>2021-11-20T10:00:58Z</time>
      </trkpt>
      <trkpt lat="48.70822" lon="2.13447">
        <ele>206.46</ele>
        <time>2021-11-20T10:01:27Z</time>
      </trkpt>
      <trkpt lat="48.70814" lon="2.13453">
        <ele>206.4</ele>
        <time>2021-11-20T10:01:33Z</time>
      </trkpt>
      <trkpt lat="48.7081" lon="2.1344">
        <ele>206.26</ele>
        <time>2021-11-20T10:01:49Z</time>
      </trkpt>
      <trkpt lat="48.70802" lon="2.13432">
        <ele>205.54</ele>
        <time>2021-11-20T10:02:33Z</time>
      </trkpt>
      <trkpt lat="48.70792" lon="2.1343">
        <ele>205.27</ele>
        <time>2021-11-20T10:02:51Z</time>
      </trkpt>
      <trkpt lat="48.70783" lon="2.13426">
        <ele>205.15</ele>
        <time>2021-11-20T10:02:59Z</time>
      </trkpt>
      <trkpt lat="48.70774" lon="2.13422">
        <ele>205</ele>
        <time>2021-11-20T10:03:09Z</time>
      </trkpt>
      <trkpt lat="48.70765" lon="2.13418">
        <ele>204.82</ele>
        <time>2021-11-20T10:03:21Z</time>
      </trkpt>
      <trkpt lat="48.70755" lon="2.13414">
        <ele>204.59</ele>
        <time>2021-11-20T10:03:39Z</time>
      </trkpt>
      <trkpt lat="48.70748" lon="2.13404">
        <ele>204.45</ele>
        <time>2021-11-20T10:03:50Z</time>
      </trkpt>
      <trkpt lat="48.70739" lon="2.13398">
        <ele>204.23</ele>
        <time>2021-11-20T10:04:07Z</time>
      </trkpt>
      <trkpt lat="48.70732" lon="2.13389">
        <ele>203.94</ele>
        <time>2021-11-20T10:04:25Z</time>
      </trkpt>
      <trkpt lat="48.70725" lon="2.13381">
        <ele>203.76</ele>
        <time>2021-11-20T10:04:35Z</time>
      </trkpt>
      <trkpt lat="48.70719" lon="2.13369">
        <ele>203.58</ele>
        <time>2021-11-20T10:04:49Z</time>
      </trkpt>
      <trkpt lat="48.70714" lon="2.13355">
        <ele>203.28</ele>
        <time>2021-11-20T10:05:06Z</time>
      </trkpt>
      <trkpt lat="48.70712" lon="2.13342">
        <ele>203.06</ele>
        <time>2021-11-20T10:05:17Z</time>
      </trkpt>
      <trkpt lat="48.70704" lon="2.13334">
        <ele>202.51</ele>
        <time>2021-11-20T10:05:41Z</time>
      </trkpt>
      <trkpt lat="48.70695" lon="2.13327">
        <ele>202.2</ele>
        <time>2021-11-20T10:05:52Z</time>
      </trkpt>
      <trkpt lat="48.70693" lon="2.1331">
        <ele>201.61</ele>
        <time>2021-11-20T10:06:08Z</time>
      </trkpt>
      <trkpt lat="48.7069" lon="2.13296">
        <ele>201.32</ele>
        <time>2021-11-20T10:06:15Z</time>
      </trkpt>
      <trkpt lat="48.70687" lon="2.13282">
        <ele>200.79</ele>
        <time>2021-11-20T10:06:26Z</time>
      </trkpt>
      <trkpt lat="48.70678" lon="2.13276">
        <ele>199.52</ele>
        <time>2021-11-20T10:06:44Z</time>
      </trkpt>
      <trkpt lat="48.70669" lon="2.13267">
        <ele>198.76</ele>
        <time>2021-11-20T10:06:52Z</time>
      </trkpt>
      <trkpt lat="48.70661" lon="2.1326">
        <ele>197.93</ele>
        <time>2021-11-20T10:06:59Z</time>
      </trkpt>
      <trkpt lat="48.70653" lon="2.13253">
        <ele>195.62</ele>
        <time>2021-11-20T10:07:16Z</time>
      </trkpt>
      <trkpt lat="48.70648" lon="2.1324">
        <ele>194.69</ele>
        <time>2021-11-20T10:07:22Z</time>
      </trkpt>
      <trkpt lat="48.70642" lon="2.1323">
        <ele>193.04</ele>
        <time>2021-11-20T10:07:32Z</time>
      </trkpt>
      <trkpt lat="48.70631" lon="2.13231">
        <ele>191.77</ele>
        <time>2021-11-20T10:07:39Z</time>
      </trkpt>
      <trkpt lat="48.70622" lon="2.13238">
        <ele>190.57</ele>
        <time>2021-11-20T10:07:45Z</time>
      </trkpt>
      <trkpt lat="48.70614" lon="2.13243">
        <ele>189.34</ele>
        <time>2021-11-20T10:07:51Z</time>
      </trkpt>
      <trkpt lat="48.70609" lon="2.13231">
        <ele>183.92</ele>
        <time>2021-11-20T10:08:24Z</time>
      </trkpt>
      <trkpt lat="48.70605" lon="2.13244">
        <ele>179.42</ele>
        <time>2021-11-20T10:08:56Z</time>
      </trkpt>
      <trkpt lat="48.70609" lon="2.13231">
        <ele>170.78</ele>
        <time>2021-11-20T10:10:31.999Z</time>
      </trkpt>
      <trkpt lat="48.70611" lon="2.13234">
        <ele>164.42</ele>
        <time>2021-11-20T10:12:32.999Z</time>
      </trkpt>
      <trkpt lat="48.70613" lon="2.1322">
        <ele>159.23</ele>
        <time>2021-11-20T10:14:00.999Z</time>
      </trkpt>
      <trkpt lat="48.70617" lon="2.13223">
        <ele>151.82</ele>
        <time>2021-11-20T10:16:01.999Z</time>
      </trkpt>
      <trkpt lat="48.7061" lon="2.13232">
        <ele>145.95</ele>
        <time>2021-11-20T10:18:02.999Z</time>
      </trkpt>
      <trkpt lat="48.70601" lon="2.13237">
        <ele>145.21</ele>
        <time>2021-11-20T10:18:08.999Z</time>
      </trkpt>
      <trkpt lat="48.70592" lon="2.13236">
        <ele>144.15</ele>
        <time>2021-11-20T10:18:18.999Z</time>
      </trkpt>
      <trkpt lat="48.70583" lon="2.13238">
        <ele>143.52</ele>
        <time>2021-11-20T10:18:25.999Z</time>
      </trkpt>
      <trkpt lat="48.70574" lon="2.1324">
        <ele>142.84</ele>
        <time>2021-11-20T10:18:34.999Z</time>
      </trkpt>
      <trkpt lat="48.70565" lon="2.13241">
        <ele>142.1</ele>
        <time>2021-11-20T10:18:46.999Z</time>
      </trkpt>
      <trkpt lat="48.70557" lon="2.13234">
        <ele>141.62</ele>
        <time>2021-11-20T10:18:54.999Z</time>
      </trkpt>
      <trkpt lat="48.70547" lon="2.13231">
        <ele>140.94</ele>
        <time>2021-11-20T10:19:05.999Z</time>
      </trkpt>
      <trkpt lat="48.70538" lon="2.13234">
        <ele>140.55</ele>
        <time>2021-11-20T10:19:12.999Z</time>
      </trkpt>
      <trkpt lat="48.70527" lon="2.13236">
        <ele>140.15</ele>
        <time>2021-11-20T10:19:20.999Z</time>
      </trkpt>
      <trkpt lat="48.70518" lon="2.13235">
        <ele>139.77</ele>
        <time>2021-11-20T10:19:28.999Z</time>
      </trkpt>
      <trkpt lat="48.70508" lon="2.13237">
        <ele>139.3</ele>
        <time>2021-11-20T10:19:39.999Z</time>
      </trkpt>
      <trkpt lat="48.70499" lon="2.13239">
        <ele>138.95</ele>
        <time>2021-11-20T10:19:48.999Z</time>
      </trkpt>
      <trkpt lat="48.7049" lon="2.13242">
        <ele>138.56</ele>
        <time>2021-11-20T10:19:59.999Z</time>
      </trkpt>
      <trkpt lat="48.7048" lon="2.13242">
        <ele>138.25</ele>
        <time>2021-11-20T10:20:08.999Z</time>
      </trkpt>
      <trkpt lat="48.70471" lon="2.13246">
        <ele>137.98</ele>
        <time>2021-11-20T10:20:16.999Z</time>
      </trkpt>
      <trkpt lat="48.70462" lon="2.13247">
        <ele>137.73</ele>
        <time>2021-11-20T10:20:24.999Z</time>
      </trkpt>
      <trkpt lat="48.70452" lon="2.13248">
        <ele>137.47</ele>
        <time>2021-11-20T10:20:33.999Z</time>
      </trkpt>
      <trkpt lat="48.70442" lon="2.13245">
        <ele>137.15</ele>
        <time>2021-11-20T10:20:46.999Z</time>
      </trkpt>
      <trkpt lat="48.70433" lon="2.13251">
        <ele>136.9</ele>
        <time>2021-11-20T10:21:01.999Z</time>
      </trkpt>
      <trkpt lat="48.70423" lon="2.1325">
        <ele>136.58</ele>
        <time>2021-11-20T10:21:22.999Z</time>
      </trkpt>
      <trkpt lat="48.70414" lon="2.13252">
        <ele>136.42</ele>
        <time>2021-11-20T10:21:33.999Z</time>
      </trkpt>
      <trkpt lat="48.70404" lon="2.13253">
        <ele>136.3</ele>
        <time>2021-11-20T10:21:42.999Z</time>
      </trkpt>
      <trkpt lat="48.70395" lon="2.1325">
        <ele>136.17</ele>
        <time>2021-11-20T10:21:53.999Z</time>
      </trkpt>
      <trkpt lat="48.70386" lon="2.13245">
        <ele>136.05</ele>
        <time>2021-11-20T10:22:02.999Z</time>
      </trkpt>
      <trkpt lat="48.70376" lon="2.13249">
        <ele>135.95</ele>
        <time>2021-11-20T10:22:09.999Z</time>
      </trkpt>
      <trkpt lat="48.70367" lon="2.13254">
        <ele>135.84</ele>
        <time>2021-11-20T10:22:17.999Z</time>
      </trkpt>
      <trkpt lat="48.70359" lon="2.13249">
        <ele>135.68</ele>
        <time>2021-11-20T10:22:30.999Z</time>
      </trkpt>
      <trkpt lat="48.70349" lon="2.13247">
        <ele>135.59</ele>
        <time>2021-11-20T10:22:37.999Z</time>
      </trkpt>
      <trkpt lat="48.7034" lon="2.13248">
        <ele>135.48</ele>
        <time>2021-11-20T10:22:44.999Z</time>
      </trkpt>
      <trkpt lat="48.70331" lon="2.13253">
        <ele>135.34</ele>
        <time>2021-11-20T10:22:53.999Z</time>
      </trkpt>
      <trkpt lat="48.70321" lon="2.13254">
        <ele>135.18</ele>
        <time>2021-11-20T10:23:03.999Z</time>
      </trkpt>
      <trkpt lat="48.70312" lon="2.13257">
        <ele>134.98</ele>
        <time>2021-11-20T10:23:13.999Z</time>
      </trkpt>
      <trkpt lat="48.70303" lon="2.13258">
        <ele>134.8</ele>
        <time>2021-11-20T10:23:21.999Z</time>
      </trkpt>
      <trkpt lat="48.70293" lon="2.13257">
        <ele>134.57</ele>
        <time>2021-11-20T10:23:32.999Z</time>
      </trkpt>
      <trkpt lat="48.70283" lon="2.13255">
        <ele>134.4</ele>
        <time>2021-11-20T10:23:41.999Z</time>
      </trkpt>
      <trkpt lat="48.70274" lon="2.13253">
        <ele>134.23</ele>
        <time>2021-11-20T10:23:50.999Z</time>
      </trkpt>
      <trkpt lat="48.70265" lon="2.13254">
        <ele>134.09</ele>
        <time>2021-11-20T10:23:59.999Z</time>
      </trkpt>
      <trkpt lat="48.70256" lon="2.13251">
        <ele>133.94</ele>
        <time>2021-11-20T10:24:09.999Z</time>
      </trkpt>
      <trkpt lat="48.70246" lon="2.13252">
        <ele>133.86</ele>
        <time>2021-11-20T10:24:16.999Z</time>
      </trkpt>
      <trkpt lat="48.70237" lon="2.13254">
        <ele>133.77</ele>
        <time>2021-11-20T10:24:26.999Z</time>
      </trkpt>
      <trkpt lat="48.70228" lon="2.13256">
        <ele>133.7</ele>
        <time>2021-11-20T10:24:34.999Z</time>
      </trkpt>
      <trkpt lat="48.70218" lon="2.13262">
        <ele>133.57</ele>
        <time>2021-11-20T10:24:48.999Z</time>
      </trkpt>
      <trkpt lat="48.70208" lon="2.13268">
        <ele>133.42</ele>
        <time>2021-11-20T10:24:58.999Z</time>
      </trkpt>
      <trkpt lat="48.70201" lon="2.1328">
        <ele>133.31</ele>
        <time>2021-11-20T10:25:04.999Z</time>
      </trkpt>
      <trkpt lat="48.70205" lon="2.13293">
        <ele>133.04</ele>
        <time>2021-11-20T10:25:15.999Z</time>
      </trkpt>
      <trkpt lat="48.70202" lon="2.13306">
        <ele>132.71</ele>
        <time>2021-11-20T10:25:26.999Z</time>
      </trkpt>
      <trkpt lat="48.70202" lon="2.1332">
        <ele>132.39</ele>
        <time>2021-11-20T10:25:35.999Z</time>
      </trkpt>
      <trkpt lat="48.70203" lon="2.13334">
        <ele>131.78</ele>
        <time>2021-11-20T10:25:51.999Z</time>
      </trkpt>
      <trkpt lat="48.70202" lon="2.13348">
        <ele>131.48</ele>
        <time>2021-11-20T10:25:58.999Z</time>
      </trkpt>
      <trkpt lat="48.70199" lon="2.13362">
        <ele>131.03</ele>
        <time>2021-11-20T10:26:09.999Z</time>
      </trkpt>
      <trkpt lat="48.70202" lon="2.13375">
        <ele>130.6</ele>
        <time>2021-11-20T10:26:28.999Z</time>
      </trkpt>
      <trkpt lat="48.70193" lon="2.13379">
        <ele>130.07</ele>
        <time>2021-11-20T10:26:53.999Z</time>
      </trkpt>
      <trkpt lat="48.70184" lon="2.13383">
        <ele>129.58</ele>
        <time>2021-11-20T10:27:09.999Z</time>
      </trkpt>
      <trkpt lat="48.70176" lon="2.13375">
        <ele>129.35</ele>
        <time>2021-11-20T10:27:17.999Z</time>
      </trkpt>
      <trkpt lat="48.70168" lon="2.13369">
        <ele>129.15</ele>
        <time>2021-11-20T10:27:25.999Z</time>
      </trkpt>
      <trkpt lat="48.7016" lon="2.13363">
        <ele>128.92</ele>
        <time>2021-11-20T10:27:35.999Z</time>
      </trkpt>
      <trkpt lat="48.70151" lon="2.13355">
        <ele>128.73</ele>
        <time>2021-11-20T10:27:44.999Z</time>
      </trkpt>
      <trkpt lat="48.70142" lon="2.13353">
        <ele>128.59</ele>
        <time>2021-11-20T10:27:51.999Z</time>
      </trkpt>
      <trkpt lat="48.70136" lon="2.13341">
        <ele>128.44</ele>
        <time>2021-11-20T10:27:58.999Z</time>
      </trkpt>
      <trkpt lat="48.70128" lon="2.13334">
        <ele>128.28</ele>
        <time>2021-11-20T10:28:06.999Z</time>
      </trkpt>
      <trkpt lat="48.7012" lon="2.13329">
        <ele>128.11</ele>
        <time>2021-11-20T10:28:15.999Z</time>
      </trkpt>
      <trkpt lat="48.70111" lon="2.13323">
        <ele>127.9</ele>
        <time>2021-11-20T10:28:27.999Z</time>
      </trkpt>
      <trkpt lat="48.70105" lon="2.13312">
        <ele>127.73</ele>
        <time>2021-11-20T10:28:37.999Z</time>
      </trkpt>
      <trkpt lat="48.70101" lon="2.13299">
        <ele>127.61</ele>
        <time>2021-11-20T10:28:44.999Z</time>
      </trkpt>
      <trkpt lat="48.70098" lon="2.13285">
        <ele>127.46</ele>
        <time>2021-11-20T10:28:52.999Z</time>
      </trkpt>
      <trkpt lat="48.70095" lon="2.13271">
        <ele>127.27</ele>
        <time>2021-11-20T10:29:03.999Z</time>
      </trkpt>
      <trkpt lat="48.70092" lon="2.13258">
        <ele>127.08</ele>
        <time>2021-11-20T10:29:14.999Z</time>
      </trkpt>
      <trkpt lat="48.70088" lon="2.13244">
        <ele>126.94</ele>
        <time>2021-11-20T10:29:23.999Z</time>
      </trkpt>
      <trkpt lat="48.70083" lon="2.13233">
        <ele>126.83</ele>
        <time>2021-11-20T10:29:31.999Z</time>
      </trkpt>
      <trkpt lat="48.70081" lon="2.1322">
        <ele>126.72</ele>
        <time>2021-11-20T10:29:39Z</time>
      </trkpt>
      <trkpt lat="48.7008" lon="2.13206">
        <ele>126.6</ele>
        <time>2021-11-20T10:29:48Z</time>
      </trkpt>
      <trkpt lat="48.70082" lon="2.13191">
        <ele>126.44</ele>
        <time>2021-11-20T10:29:57Z</time>
      </trkpt>
      <trkpt lat="48.70083" lon="2.13176">
        <ele>126.33</ele>
        <time>2021-11-20T10:30:04Z</time>
      </trkpt>
      <trkpt lat="48.70084" lon="2.13162">
        <ele>126.15</ele>
        <time>2021-11-20T10:30:15Z</time>
      </trkpt>
      <trkpt lat="48.70086" lon="2.13149">
        <ele>126.01</ele>
        <time>2021-11-20T10:30:25Z</time>
      </trkpt>
      <trkpt lat="48.70084" lon="2.13133">
        <ele>125.82</ele>
        <time>2021-11-20T10:30:39Z</time>
      </trkpt>
      <trkpt lat="48.70082" lon="2.1312">
        <ele>125.33</ele>
        <time>2021-11-20T10:31:42Z</time>
      </trkpt>
      <trkpt lat="48.70085" lon="2.13106">
        <ele>125.07</ele>
        <time>2021-11-20T10:31:55Z</time>
      </trkpt>
      <trkpt lat="48.70091" lon="2.13095">
        <ele>124.9</ele>
        <time>2021-11-20T10:32:04Z</time>
      </trkpt>
      <trkpt lat="48.70093" lon="2.13079">
        <ele>124.7</ele>
        <time>2021-11-20T10:32:14Z</time>
      </trkpt>
      <trkpt lat="48.70093" lon="2.13065">
        <ele>124.5</ele>
        <time>2021-11-20T10:32:24Z</time>
      </trkpt>
      <trkpt lat="48.70095" lon="2.13051">
        <ele>124.31</ele>
        <time>2021-11-20T10:32:34Z</time>
      </trkpt>
      <trkpt lat="48.70098" lon="2.13037">
        <ele>124.12</ele>
        <time>2021-11-20T10:32:44Z</time>
      </trkpt>
      <trkpt lat="48.70099" lon="2.13022">
        <ele>124</ele>
        <time>2021-11-20T10:32:51Z</time>
      </trkpt>
      <trkpt lat="48.70097" lon="2.13008">
        <ele>123.89</ele>
        <time>2021-11-20T10:32:57Z</time>
      </trkpt>
      <trkpt lat="48.70097" lon="2.12994">
        <ele>123.74</ele>
        <time>2021-11-20T10:33:06Z</time>
      </trkpt>
      <trkpt lat="48.70088" lon="2.12986">
        <ele>123.6</ele>
        <time>2021-11-20T10:33:16Z</time>
      </trkpt>
      <trkpt lat="48.7008" lon="2.12981">
        <ele>123.49</ele>
        <time>2021-11-20T10:33:23Z</time>
      </trkpt>
      <trkpt lat="48.70071" lon="2.12976">
        <ele>123.36</ele>
        <time>2021-11-20T10:33:31Z</time>
      </trkpt>
      <trkpt lat="48.70062" lon="2.1297">
        <ele>123.23</ele>
        <time>2021-11-20T10:33:40Z</time>
      </trkpt>
      <trkpt lat="48.70053" lon="2.12969">
        <ele>123.1</ele>
        <time>2021-11-20T10:33:49Z</time>
      </trkpt>
      <trkpt lat="48.70043" lon="2.12971">
        <ele>123.01</ele>
        <time>2021-11-20T10:33:57Z</time>
      </trkpt>
      <trkpt lat="48.70034" lon="2.12965">
        <ele>122.91</ele>
        <time>2021-11-20T10:34:06Z</time>
      </trkpt>
      <trkpt lat="48.70025" lon="2.12958">
        <ele>122.83</ele>
        <time>2021-11-20T10:34:14Z</time>
      </trkpt>
      <trkpt lat="48.70016" lon="2.12955">
        <ele>122.75</ele>
        <time>2021-11-20T10:34:22Z</time>
      </trkpt>
      <trkpt lat="48.70006" lon="2.12959">
        <ele>122.67</ele>
        <time>2021-11-20T10:34:30Z</time>
      </trkpt>
      <trkpt lat="48.69997" lon="2.12959">
        <ele>122.56</ele>
        <time>2021-11-20T10:34:42Z</time>
      </trkpt>
      <trkpt lat="48.69987" lon="2.12959">
        <ele>122.48</ele>
        <time>2021-11-20T10:34:50Z</time>
      </trkpt>
      <trkpt lat="48.69978" lon="2.12952">
        <ele>122.38</ele>
        <time>2021-11-20T10:35:00Z</time>
      </trkpt>
      <trkpt lat="48.69969" lon="2.12948">
        <ele>122.27</ele>
        <time>2021-11-20T10:35:09Z</time>
      </trkpt>
      <trkpt lat="48.69959" lon="2.12943">
        <ele>122.18</ele>
        <time>2021-11-20T10:35:17Z</time>
      </trkpt>
      <trkpt lat="48.69949" lon="2.12939">
        <ele>122.08</ele>
        <time>2021-11-20T10:35:25Z</time>
      </trkpt>
      <trkpt lat="48.69939" lon="2.12935">
        <ele>121.98</ele>
        <time>2021-11-20T10:35:33Z</time>
      </trkpt>
      <trkpt lat="48.69935" lon="2.12921">
        <ele>121.91</ele>
        <time>2021-11-20T10:35:39Z</time>
      </trkpt>
      <trkpt lat="48.69937" lon="2.12904">
        <ele>121.83</ele>
        <time>2021-11-20T10:35:45Z</time>
      </trkpt>
      <trkpt lat="48.6994" lon="2.12891">
        <ele>121.76</ele>
        <time>2021-11-20T10:35:50Z</time>
      </trkpt>
      <trkpt lat="48.69943" lon="2.12875">
        <ele>121.68</ele>
        <time>2021-11-20T10:35:56Z</time>
      </trkpt>
      <trkpt lat="48.69947" lon="2.12863">
        <ele>121.57</ele>
        <time>2021-11-20T10:36:04Z</time>
      </trkpt>
      <trkpt lat="48.69949" lon="2.1285">
        <ele>121.44</ele>
        <time>2021-11-20T10:36:14Z</time>
      </trkpt>
      <trkpt lat="48.69954" lon="2.12838">
        <ele>121.31</ele>
        <time>2021-11-20T10:36:25Z</time>
      </trkpt>
      <trkpt lat="48.69959" lon="2.12824">
        <ele>121.2</ele>
        <time>2021-11-20T10:36:36Z</time>
      </trkpt>
      <trkpt lat="48.69963" lon="2.12809">
        <ele>121.13</ele>
        <time>2021-11-20T10:36:44Z</time>
      </trkpt>
      <trkpt lat="48.69967" lon="2.12796">
        <ele>121.05</ele>
        <time>2021-11-20T10:36:54Z</time>
      </trkpt>
      <trkpt lat="48.6997" lon="2.12783">
        <ele>120.97</ele>
        <time>2021-11-20T10:37:03Z</time>
      </trkpt>
      <trkpt lat="48.69978" lon="2.12774">
        <ele>120.89</ele>
        <time>2021-11-20T10:37:12Z</time>
      </trkpt>
      <trkpt lat="48.69984" lon="2.12763">
        <ele>120.82</ele>
        <time>2021-11-20T10:37:20Z</time>
      </trkpt>
      <trkpt lat="48.6999" lon="2.12752">
        <ele>120.73</ele>
        <time>2021-11-20T10:37:29Z</time>
      </trkpt>
      <trkpt lat="48.69995" lon="2.12741">
        <ele>120.64</ele>
        <time>2021-11-20T10:37:36Z</time>
      </trkpt>
      <trkpt lat="48.69999" lon="2.12728">
        <ele>120.54</ele>
        <time>2021-11-20T10:37:42Z</time>
      </trkpt>
      <trkpt lat="48.70003" lon="2.12716">
        <ele>120.39</ele>
        <time>2021-11-20T10:37:51Z</time>
      </trkpt>
      <trkpt lat="48.7001" lon="2.12703">
        <ele>120.19</ele>
        <time>2021-11-20T10:38:02Z</time>
      </trkpt>
      <trkpt lat="48.70016" lon="2.12693">
        <ele>120.04</ele>
        <time>2021-11-20T10:38:10Z</time>
      </trkpt>
      <trkpt lat="48.70023" lon="2.12683">
        <ele>119.9</ele>
        <time>2021-11-20T10:38:18Z</time>
      </trkpt>
      <trkpt lat="48.70031" lon="2.12677">
        <ele>119.75</ele>
        <time>2021-11-20T10:38:26Z</time>
      </trkpt>
      <trkpt lat="48.7004" lon="2.12669">
        <ele>119.63</ele>
        <time>2021-11-20T10:38:33Z</time>
      </trkpt>
      <trkpt lat="48.70048" lon="2.12659">
        <ele>119.48</ele>
        <time>2021-11-20T10:38:43Z</time>
      </trkpt>
      <trkpt lat="48.70056" lon="2.12653">
        <ele>119.33</ele>
        <time>2021-11-20T10:38:52Z</time>
      </trkpt>
      <trkpt lat="48.70064" lon="2.12646">
        <ele>119.15</ele>
        <time>2021-11-20T10:39:05Z</time>
      </trkpt>
      <trkpt lat="48.70071" lon="2.12635">
        <ele>119.05</ele>
        <time>2021-11-20T10:39:12Z</time>
      </trkpt>
      <trkpt lat="48.70076" lon="2.12624">
        <ele>118.93</ele>
        <time>2021-11-20T10:39:20Z</time>
      </trkpt>
      <trkpt lat="48.70084" lon="2.12614">
        <ele>118.8</ele>
        <time>2021-11-20T10:39:28Z</time>
      </trkpt>
      <trkpt lat="48.70091" lon="2.12603">
        <ele>118.69</ele>
        <time>2021-11-20T10:39:35Z</time>
      </trkpt>
      <trkpt lat="48.70098" lon="2.12592">
        <ele>118.58</ele>
        <time>2021-11-20T10:39:41Z</time>
      </trkpt>
      <trkpt lat="48.70105" lon="2.12582">
        <ele>118.43</ele>
        <time>2021-11-20T10:39:49Z</time>
      </trkpt>
      <trkpt lat="48.70112" lon="2.12572">
        <ele>118.24</ele>
        <time>2021-11-20T10:40:00Z</time>
      </trkpt>
      <trkpt lat="48.70121" lon="2.12565">
        <ele>118.09</ele>
        <time>2021-11-20T10:40:10Z</time>
      </trkpt>
      <trkpt lat="48.70128" lon="2.12554">
        <ele>117.95</ele>
        <time>2021-11-20T10:40:20Z</time>
      </trkpt>
      <trkpt lat="48.70129" lon="2.12541">
        <ele>117.86</ele>
        <time>2021-11-20T10:40:26Z</time>
      </trkpt>
      <trkpt lat="48.70129" lon="2.12527">
        <ele>117.74</ele>
        <time>2021-11-20T10:40:34Z</time>
      </trkpt>
      <trkpt lat="48.70132" lon="2.12513">
        <ele>117.6</ele>
        <time>2021-11-20T10:40:42Z</time>
      </trkpt>
      <trkpt lat="48.70136" lon="2.125">
        <ele>116.95</ele>
        <time>2021-11-20T10:40:51Z</time>
      </trkpt>
      <trkpt lat="48.70134" lon="2.12487">
        <ele>116.86</ele>
        <time>2021-11-20T10:40:59Z</time>
      </trkpt>
      <trkpt lat="48.70142" lon="2.12478">
        <ele>116.8</ele>
        <time>2021-11-20T10:41:07Z</time>
      </trkpt>
      <trkpt lat="48.70151" lon="2.12482">
        <ele>116.69</ele>
        <time>2021-11-20T10:41:17Z</time>
      </trkpt>
      <trkpt lat="48.7016" lon="2.12486">
        <ele>116.54</ele>
        <time>2021-11-20T10:41:28Z</time>
      </trkpt>
      <trkpt lat="48.7017" lon="2.12487">
        <ele>116.4</ele>
        <time>2021-11-20T10:41:37Z</time>
      </trkpt>
      <trkpt lat="48.70179" lon="2.12493">
        <ele>116.21</ele>
        <time>2021-11-20T10:41:47Z</time>
      </trkpt>
      <trkpt lat="48.70188" lon="2.12496">
        <ele>116.05</ele>
        <time>2021-11-20T10:41:55Z</time>
      </trkpt>
      <trkpt lat="48.70197" lon="2.12491">
        <ele>115.89</ele>
        <time>2021-11-20T10:42:03Z</time>
      </trkpt>
      <trkpt lat="48.70207" lon="2.12484">
        <ele>115.8</ele>
        <time>2021-11-20T10:42:08Z</time>
      </trkpt>
      <trkpt lat="48.70214" lon="2.12476">
        <ele>115.67</ele>
        <time>2021-11-20T10:42:15Z</time>
      </trkpt>
      <trkpt lat="48.7022" lon="2.12463">
        <ele>115.54</ele>
        <time>2021-11-20T10:42:23Z</time>
      </trkpt>
      <trkpt lat="48.70226" lon="2.12452">
        <ele>115.41</ele>
        <time>2021-11-20T10:42:31Z</time>
      </trkpt>
      <trkpt lat="48.70235" lon="2.12444">
        <ele>115.23</ele>
        <time>2021-11-20T10:42:40Z</time>
      </trkpt>
      <trkpt lat="48.70243" lon="2.12436">
        <ele>115.04</ele>
        <time>2021-11-20T10:42:49Z</time>
      </trkpt>
      <trkpt lat="48.7025" lon="2.12427">
        <ele>114.81</ele>
        <time>2021-11-20T10:42:59Z</time>
      </trkpt>
      <trkpt lat="48.70256" lon="2.12414">
        <ele>114.64</ele>
        <time>2021-11-20T10:43:06Z</time>
      </trkpt>
      <trkpt lat="48.70261" lon="2.12403">
        <ele>114.46</ele>
        <time>2021-11-20T10:43:13Z</time>
      </trkpt>
      <trkpt lat="48.70264" lon="2.1239">
        <ele>114.3</ele>
        <time>2021-11-20T10:43:20Z</time>
      </trkpt>
      <trkpt lat="48.70266" lon="2.12375">
        <ele>114.16</ele>
        <time>2021-11-20T10:43:27Z</time>
      </trkpt>
      <trkpt lat="48.70268" lon="2.12361">
        <ele>114.01</ele>
        <time>2021-11-20T10:43:35Z</time>
      </trkpt>
      <trkpt lat="48.70269" lon="2.12347">
        <ele>113.92</ele>
        <time>2021-11-20T10:43:41Z</time>
      </trkpt>
      <trkpt lat="48.70274" lon="2.12335">
        <ele>113.82</ele>
        <time>2021-11-20T10:43:50Z</time>
      </trkpt>
      <trkpt lat="48.70275" lon="2.1232">
        <ele>113.76</ele>
        <time>2021-11-20T10:44:00Z</time>
      </trkpt>
      <trkpt lat="48.70278" lon="2.12306">
        <ele>113.74</ele>
        <time>2021-11-20T10:44:06Z</time>
      </trkpt>
      <trkpt lat="48.70285" lon="2.12296">
        <ele>113.72</ele>
        <time>2021-11-20T10:44:15Z</time>
      </trkpt>
      <trkpt lat="48.70292" lon="2.12286">
        <ele>113.71</ele>
        <time>2021-11-20T10:44:23Z</time>
      </trkpt>
      <trkpt lat="48.703" lon="2.12278">
        <ele>113.67</ele>
        <time>2021-11-20T10:44:32Z</time>
      </trkpt>
      <trkpt lat="48.70307" lon="2.1227">
        <ele>113.64</ele>
        <time>2021-11-20T10:44:42Z</time>
      </trkpt>
      <trkpt lat="48.70312" lon="2.12256">
        <ele>113.6</ele>
        <time>2021-11-20T10:44:50Z</time>
      </trkpt>
      <trkpt lat="48.70314" lon="2.12242">
        <ele>113.59</ele>
        <time>2021-11-20T10:44:57Z</time>
      </trkpt>
      <trkpt lat="48.70314" lon="2.12228">
        <ele>113.58</ele>
        <time>2021-11-20T10:45:06Z</time>
      </trkpt>
      <trkpt lat="48.70312" lon="2.12214">
        <ele>113.57</ele>
        <time>2021-11-20T10:45:18Z</time>
      </trkpt>
      <trkpt lat="48.70309" lon="2.122">
        <ele>113.56</ele>
        <time>2021-11-20T10:45:29Z</time>
      </trkpt>
      <trkpt lat="48.70305" lon="2.12187">
        <ele>113.53</ele>
        <time>2021-11-20T10:45:39Z</time>
      </trkpt>
      <trkpt lat="48.703" lon="2.12174">
        <ele>113.46</ele>
        <time>2021-11-20T10:45:49Z</time>
      </trkpt>
      <trkpt lat="48.70297" lon="2.12161">
        <ele>113.39</ele>
        <time>2021-11-20T10:45:57Z</time>
      </trkpt>
      <trkpt lat="48.70294" lon="2.12147">
        <ele>113.31</ele>
        <time>2021-11-20T10:46:06Z</time>
      </trkpt>
      <trkpt lat="48.70292" lon="2.12133">
        <ele>113.24</ele>
        <time>2021-11-20T10:46:13Z</time>
      </trkpt>
      <trkpt lat="48.7029" lon="2.12119">
        <ele>113.16</ele>
        <time>2021-11-20T10:46:20Z</time>
      </trkpt>
      <trkpt lat="48.70288" lon="2.12105">
        <ele>113.06</ele>
        <time>2021-11-20T10:46:28Z</time>
      </trkpt>
      <trkpt lat="48.70289" lon="2.12091">
        <ele>112.96</ele>
        <time>2021-11-20T10:46:37Z</time>
      </trkpt>
      <trkpt lat="48.70289" lon="2.12076">
        <ele>112.86</ele>
        <time>2021-11-20T10:46:46Z</time>
      </trkpt>
      <trkpt lat="48.70289" lon="2.12062">
        <ele>112.76</ele>
        <time>2021-11-20T10:46:56Z</time>
      </trkpt>
      <trkpt lat="48.70289" lon="2.12048">
        <ele>112.69</ele>
        <time>2021-11-20T10:47:04Z</time>
      </trkpt>
      <trkpt lat="48.70288" lon="2.12033">
        <ele>112.62</ele>
        <time>2021-11-20T10:47:12Z</time>
      </trkpt>
      <trkpt lat="48.70284" lon="2.12019">
        <ele>112.54</ele>
        <time>2021-11-20T10:47:20Z</time>
      </trkpt>
      <trkpt lat="48.70279" lon="2.12007">
        <ele>112.46</ele>
        <time>2021-11-20T10:47:30Z</time>
      </trkpt>
      <trkpt lat="48.70273" lon="2.11995">
        <ele>112.34</ele>
        <time>2021-11-20T10:47:41Z</time>
      </trkpt>
      <trkpt lat="48.70268" lon="2.11984">
        <ele>112.26</ele>
        <time>2021-11-20T10:47:48Z</time>
      </trkpt>
      <trkpt lat="48.70263" lon="2.11973">
        <ele>112.17</ele>
        <time>2021-11-20T10:47:55Z</time>
      </trkpt>
      <trkpt lat="48.70257" lon="2.11962">
        <ele>112.03</ele>
        <time>2021-11-20T10:48:05Z</time>
      </trkpt>
      <trkpt lat="48.70251" lon="2.11949">
        <ele>111.9</ele>
        <time>2021-11-20T10:48:15Z</time>
      </trkpt>
      <trkpt lat="48.70247" lon="2.11937">
        <ele>111.8</ele>
        <time>2021-11-20T10:48:23Z</time>
      </trkpt>
      <trkpt lat="48.70243" lon="2.11924">
        <ele>111.69</ele>
        <time>2021-11-20T10:48:32Z</time>
      </trkpt>
      <trkpt lat="48.70239" lon="2.1191">
        <ele>111.63</ele>
        <time>2021-11-20T10:48:38Z</time>
      </trkpt>
      <trkpt lat="48.70237" lon="2.11895">
        <ele>111.54</ele>
        <time>2021-11-20T10:48:47Z</time>
      </trkpt>
      <trkpt lat="48.7023" lon="2.11883">
        <ele>111.44</ele>
        <time>2021-11-20T10:48:57Z</time>
      </trkpt>
      <trkpt lat="48.70222" lon="2.11879">
        <ele>111.36</ele>
        <time>2021-11-20T10:49:05Z</time>
      </trkpt>
      <trkpt lat="48.70213" lon="2.11873">
        <ele>111.27</ele>
        <time>2021-11-20T10:49:14Z</time>
      </trkpt>
      <trkpt lat="48.70207" lon="2.11861">
        <ele>111.18</ele>
        <time>2021-11-20T10:49:22.999Z</time>
      </trkpt>
      <trkpt lat="48.70202" lon="2.11848">
        <ele>111.1</ele>
        <time>2021-11-20T10:49:29.999Z</time>
      </trkpt>
      <trkpt lat="48.70201" lon="2.11833">
        <ele>111</ele>
        <time>2021-11-20T10:49:36.999Z</time>
      </trkpt>
      <trkpt lat="48.70199" lon="2.1182">
        <ele>110.9</ele>
        <time>2021-11-20T10:49:44.999Z</time>
      </trkpt>
      <trkpt lat="48.70196" lon="2.11806">
        <ele>110.77</ele>
        <time>2021-11-20T10:49:55.999Z</time>
      </trkpt>
      <trkpt lat="48.70193" lon="2.11792">
        <ele>110.69</ele>
        <time>2021-11-20T10:50:02.999Z</time>
      </trkpt>
      <trkpt lat="48.70188" lon="2.1178">
        <ele>110.58</ele>
        <time>2021-11-20T10:50:10.999Z</time>
      </trkpt>
      <trkpt lat="48.70182" lon="2.11769">
        <ele>110.47</ele>
        <time>2021-11-20T10:50:18.999Z</time>
      </trkpt>
      <trkpt lat="48.70174" lon="2.11761">
        <ele>110.33</ele>
        <time>2021-11-20T10:50:27.999Z</time>
      </trkpt>
      <trkpt lat="48.70166" lon="2.11755">
        <ele>110.25</ele>
        <time>2021-11-20T10:50:33.999Z</time>
      </trkpt>
      <trkpt lat="48.70156" lon="2.11751">
        <ele>110.2</ele>
        <time>2021-11-20T10:50:40.999Z</time>
      </trkpt>
      <trkpt lat="48.70147" lon="2.11752">
        <ele>110.18</ele>
        <time>2021-11-20T10:50:47.999Z</time>
      </trkpt>
      <trkpt lat="48.70138" lon="2.11755">
        <ele>110.21</ele>
        <time>2021-11-20T10:50:54.999Z</time>
      </trkpt>
      <trkpt lat="48.70126" lon="2.11756">
        <ele>110.32</ele>
        <time>2021-11-20T10:51:07.999Z</time>
      </trkpt>
      <trkpt lat="48.70116" lon="2.11759">
        <ele>110.37</ele>
        <time>2021-11-20T10:51:12.999Z</time>
      </trkpt>
      <trkpt lat="48.70108" lon="2.11765">
        <ele>110.44</ele>
        <time>2021-11-20T10:51:17.999Z</time>
      </trkpt>
      <trkpt lat="48.70099" lon="2.11763">
        <ele>110.58</ele>
        <time>2021-11-20T10:51:26.999Z</time>
      </trkpt>
      <trkpt lat="48.7009" lon="2.11764">
        <ele>110.75</ele>
        <time>2021-11-20T10:51:37.999Z</time>
      </trkpt>
      <trkpt lat="48.7008" lon="2.11769">
        <ele>110.88</ele>
        <time>2021-11-20T10:51:47.999Z</time>
      </trkpt>
      <trkpt lat="48.70071" lon="2.11775">
        <ele>110.99</ele>
        <time>2021-11-20T10:51:57.999Z</time>
      </trkpt>
      <trkpt lat="48.70064" lon="2.11765">
        <ele>111.07</ele>
        <time>2021-11-20T10:52:21.999Z</time>
      </trkpt>
      <trkpt lat="48.70059" lon="2.11753">
        <ele>111.1</ele>
        <time>2021-11-20T10:52:29.999Z</time>
      </trkpt>
      <trkpt lat="48.7006" lon="2.11739">
        <ele>111.11</ele>
        <time>2021-11-20T10:52:37.999Z</time>
      </trkpt>
      <trkpt lat="48.70062" lon="2.11726">
        <ele>111.11</ele>
        <time>2021-11-20T10:52:45.999Z</time>
      </trkpt>
      <trkpt lat="48.70068" lon="2.11714">
        <ele>111.11</ele>
        <time>2021-11-20T10:52:55.999Z</time>
      </trkpt>
      <trkpt lat="48.70071" lon="2.11701">
        <ele>111.09</ele>
        <time>2021-11-20T10:53:02.999Z</time>
      </trkpt>
      <trkpt lat="48.70075" lon="2.11687">
        <ele>111.07</ele>
        <time>2021-11-20T10:53:11.999Z</time>
      </trkpt>
      <trkpt lat="48.70077" lon="2.11673">
        <ele>111.04</ele>
        <time>2021-11-20T10:53:17.999Z</time>
      </trkpt>
      <trkpt lat="48.70078" lon="2.11658">
        <ele>111</ele>
        <time>2021-11-20T10:53:23.999Z</time>
      </trkpt>
      <trkpt lat="48.70082" lon="2.11645">
        <ele>110.93</ele>
        <time>2021-11-20T10:53:33.999Z</time>
      </trkpt>
      <trkpt lat="48.70091" lon="2.11643">
        <ele>110.82</ele>
        <time>2021-11-20T10:54:39.999Z</time>
      </trkpt>
      <trkpt lat="48.70086" lon="2.11631">
        <ele>110.76</ele>
        <time>2021-11-20T10:55:13.999Z</time>
      </trkpt>
      <trkpt lat="48.70089" lon="2.11619">
        <ele>110.69</ele>
        <time>2021-11-20T10:55:23.999Z</time>
      </trkpt>
      <trkpt lat="48.70095" lon="2.11607">
        <ele>110.64</ele>
        <time>2021-11-20T10:55:30.999Z</time>
      </trkpt>
      <trkpt lat="48.70101" lon="2.11597">
        <ele>110.56</ele>
        <time>2021-11-20T10:55:40.999Z</time>
      </trkpt>
      <trkpt lat="48.70106" lon="2.11585">
        <ele>110.5</ele>
        <time>2021-11-20T10:55:47.999Z</time>
      </trkpt>
      <trkpt lat="48.70109" lon="2.1157">
        <ele>110.4</ele>
        <time>2021-11-20T10:55:57.999Z</time>
      </trkpt>
      <trkpt lat="48.70112" lon="2.11557">
        <ele>110.32</ele>
        <time>2021-11-20T10:56:04.999Z</time>
      </trkpt>
      <trkpt lat="48.7011" lon="2.11544">
        <ele>110.25</ele>
        <time>2021-11-20T10:56:10.999Z</time>
      </trkpt>
      <trkpt lat="48.70106" lon="2.11531">
        <ele>110.16</ele>
        <time>2021-11-20T10:56:17.999Z</time>
      </trkpt>
      <trkpt lat="48.7011" lon="2.11517">
        <ele>110.03</ele>
        <time>2021-11-20T10:56:26.999Z</time>
      </trkpt>
      <trkpt lat="48.70115" lon="2.11505">
        <ele>109.9</ele>
        <time>2021-11-20T10:56:36.999Z</time>
      </trkpt>
      <trkpt lat="48.70118" lon="2.1149">
        <ele>109.81</ele>
        <time>2021-11-20T10:56:44.999Z</time>
      </trkpt>
      <trkpt lat="48.7012" lon="2.11474">
        <ele>109.69</ele>
        <time>2021-11-20T10:56:54.999Z</time>
      </trkpt>
      <trkpt lat="48.70125" lon="2.11461">
        <ele>109.6</ele>
        <time>2021-11-20T10:57:04.999Z</time>
      </trkpt>
      <trkpt lat="48.70134" lon="2.11461">
        <ele>109.45</ele>
        <time>2021-11-20T10:57:19.999Z</time>
      </trkpt>
      <trkpt lat="48.70144" lon="2.11461">
        <ele>109.32</ele>
        <time>2021-11-20T10:57:34.999Z</time>
      </trkpt>
      <trkpt lat="48.70152" lon="2.11466">
        <ele>109.23</ele>
        <time>2021-11-20T10:57:43.999Z</time>
      </trkpt>
      <trkpt lat="48.70162" lon="2.11468">
        <ele>109.16</ele>
        <time>2021-11-20T10:57:52.999Z</time>
      </trkpt>
      <trkpt lat="48.70171" lon="2.11472">
        <ele>109.08</ele>
        <time>2021-11-20T10:58:01.999Z</time>
      </trkpt>
      <trkpt lat="48.7018" lon="2.11477">
        <ele>108.98</ele>
        <time>2021-11-20T10:58:14.999Z</time>
      </trkpt>
      <trkpt lat="48.7019" lon="2.11473">
        <ele>108.91</ele>
        <time>2021-11-20T10:58:23.999Z</time>
      </trkpt>
      <trkpt lat="48.70199" lon="2.11476">
        <ele>108.85</ele>
        <time>2021-11-20T10:58:30.999Z</time>
      </trkpt>
      <trkpt lat="48.70209" lon="2.11474">
        <ele>108.8</ele>
        <time>2021-11-20T10:58:36.999Z</time>
      </trkpt>
      <trkpt lat="48.70217" lon="2.11466">
        <ele>108.78</ele>
        <time>2021-11-20T10:58:40.999Z</time>
      </trkpt>
      <trkpt lat="48.70222" lon="2.11453">
        <ele>108.74</ele>
        <time>2021-11-20T10:58:46.999Z</time>
      </trkpt>
      <trkpt lat="48.70225" lon="2.11439">
        <ele>108.7</ele>
        <time>2021-11-20T10:58:53.999Z</time>
      </trkpt>
      <trkpt lat="48.7023" lon="2.11427">
        <ele>108.64</ele>
        <time>2021-11-20T10:59:05.999Z</time>
      </trkpt>
      <trkpt lat="48.70235" lon="2.11415">
        <ele>108.57</ele>
        <time>2021-11-20T10:59:25.999Z</time>
      </trkpt>
      <trkpt lat="48.70237" lon="2.11402">
        <ele>108.53</ele>
        <time>2021-11-20T10:59:33.999Z</time>
      </trkpt>
      <trkpt lat="48.7024" lon="2.11389">
        <ele>108.49</ele>
        <time>2021-11-20T10:59:42.999Z</time>
      </trkpt>
      <trkpt lat="48.70241" lon="2.11375">
        <ele>108.46</ele>
        <time>2021-11-20T10:59:50.999Z</time>
      </trkpt>
      <trkpt lat="48.70244" lon="2.11361">
        <ele>108.43</ele>
        <time>2021-11-20T10:59:59.999Z</time>
      </trkpt>
      <trkpt lat="48.70247" lon="2.11346">
        <ele>108.4</ele>
        <time>2021-11-20T11:00:09.999Z</time>
      </trkpt>
      <trkpt lat="48.70251" lon="2.11331">
        <ele>108.37</ele>
        <time>2021-11-20T11:00:18.999Z</time>
      </trkpt>
      <trkpt lat="48.70254" lon="2.11318">
        <ele>108.34</ele>
        <time>2021-11-20T11:00:26.999Z</time>
      </trkpt>
      <trkpt lat="48.70257" lon="2.11304">
        <ele>108.31</ele>
        <time>2021-11-20T11:00:33.999Z</time>
      </trkpt>
      <trkpt lat="48.70259" lon="2.11291">
        <ele>108.25</ele>
        <time>2021-11-20T11:00:42.999Z</time>
      </trkpt>
      <trkpt lat="48.70265" lon="2.11279">
        <ele>108.16</ele>
        <time>2021-11-20T11:00:54.999Z</time>
      </trkpt>
      <trkpt lat="48.70271" lon="2.11269">
        <ele>108.12</ele>
        <time>2021-11-20T11:01:06.999Z</time>
      </trkpt>
      <trkpt lat="48.70277" lon="2.11257">
        <ele>108.05</ele>
        <time>2021-11-20T11:01:22.999Z</time>
      </trkpt>
      <trkpt lat="48.70283" lon="2.11246">
        <ele>108</ele>
        <time>2021-11-20T11:01:31.999Z</time>
      </trkpt>
      <trkpt lat="48.70284" lon="2.1123">
        <ele>107.94</ele>
        <time>2021-11-20T11:01:40.999Z</time>
      </trkpt>
      <trkpt lat="48.70283" lon="2.11216">
        <ele>107.9</ele>
        <time>2021-11-20T11:01:46.999Z</time>
      </trkpt>
      <trkpt lat="48.70282" lon="2.112">
        <ele>107.81</ele>
        <time>2021-11-20T11:01:57.999Z</time>
      </trkpt>
      <trkpt lat="48.70287" lon="2.11186">
        <ele>107.76</ele>
        <time>2021-11-20T11:02:03.999Z</time>
      </trkpt>
      <trkpt lat="48.70291" lon="2.11173">
        <ele>107.71</ele>
        <time>2021-11-20T11:02:10.999Z</time>
      </trkpt>
      <trkpt lat="48.70294" lon="2.1116">
        <ele>107.64</ele>
        <time>2021-11-20T11:02:19.999Z</time>
      </trkpt>
      <trkpt lat="48.70288" lon="2.11145">
        <ele>107.58</ele>
        <time>2021-11-20T11:02:25.999Z</time>
      </trkpt>
      <trkpt lat="48.70279" lon="2.11138">
        <ele>107.53</ele>
        <time>2021-11-20T11:02:29.999Z</time>
      </trkpt>
      <trkpt lat="48.7027" lon="2.11131">
        <ele>107.47</ele>
        <time>2021-11-20T11:02:36.999Z</time>
      </trkpt>
      <trkpt lat="48.7026" lon="2.11133">
        <ele>107.39</ele>
        <time>2021-11-20T11:02:46.999Z</time>
      </trkpt>
      <trkpt lat="48.70252" lon="2.11139">
        <ele>107.36</ele>
        <time>2021-11-20T11:02:52.999Z</time>
      </trkpt>
      <trkpt lat="48.70243" lon="2.11138">
        <ele>107.33</ele>
        <time>2021-11-20T11:03:00.999Z</time>
      </trkpt>
      <trkpt lat="48.70244" lon="2.11123">
        <ele>107.25</ele>
        <time>2021-11-20T11:03:22.999Z</time>
      </trkpt>
      <trkpt lat="48.7025" lon="2.11111">
        <ele>107.2</ele>
        <time>2021-11-20T11:03:31.999Z</time>
      </trkpt>
      <trkpt lat="48.70248" lon="2.11097">
        <ele>107.11</ele>
        <time>2021-11-20T11:03:48.999Z</time>
      </trkpt>
      <trkpt lat="48.70239" lon="2.11088">
        <ele>107.05</ele>
        <time>2021-11-20T11:03:54.999Z</time>
      </trkpt>
      <trkpt lat="48.70231" lon="2.11083">
        <ele>106.98</ele>
        <time>2021-11-20T11:04:00.999Z</time>
      </trkpt>
      <trkpt lat="48.70224" lon="2.11072">
        <ele>106.89</ele>
        <time>2021-11-20T11:04:08.999Z</time>
      </trkpt>
      <trkpt lat="48.70218" lon="2.11058">
        <ele>106.81</ele>
        <time>2021-11-20T11:04:15.999Z</time>
      </trkpt>
      <trkpt lat="48.70213" lon="2.11047">
        <ele>106.71</ele>
        <time>2021-11-20T11:04:24.999Z</time>
      </trkpt>
      <trkpt lat="48.70207" lon="2.11035">
        <ele>106.65</ele>
        <time>2021-11-20T11:04:30.999Z</time>
      </trkpt>
      <trkpt lat="48.70197" lon="2.11033">
        <ele>106.56</ele>
        <time>2021-11-20T11:04:39.999Z</time>
      </trkpt>
      <trkpt lat="48.70192" lon="2.11021">
        <ele>106.49</ele>
        <time>2021-11-20T11:04:50.999Z</time>
      </trkpt>
      <trkpt lat="48.70193" lon="2.11007">
        <ele>106.45</ele>
        <time>2021-11-20T11:04:58.999Z</time>
      </trkpt>
      <trkpt lat="48.70196" lon="2.10993">
        <ele>106.42</ele>
        <time>2021-11-20T11:05:05.999Z</time>
      </trkpt>
      <trkpt lat="48.70201" lon="2.10978">
        <ele>106.4</ele>
        <time>2021-11-20T11:05:13.999Z</time>
      </trkpt>
      <trkpt lat="48.70203" lon="2.10964">
        <ele>106.4</ele>
        <time>2021-11-20T11:05:20.999Z</time>
      </trkpt>
      <trkpt lat="48.70209" lon="2.10951">
        <ele>106.44</ele>
        <time>2021-11-20T11:05:30.999Z</time>
      </trkpt>
      <trkpt lat="48.70217" lon="2.10945">
        <ele>106.47</ele>
        <time>2021-11-20T11:05:39.999Z</time>
      </trkpt>
      <trkpt lat="48.70219" lon="2.1093">
        <ele>106.5</ele>
        <time>2021-11-20T11:05:48.999Z</time>
      </trkpt>
      <trkpt lat="48.70221" lon="2.10916">
        <ele>106.51</ele>
        <time>2021-11-20T11:05:54.999Z</time>
      </trkpt>
      <trkpt lat="48.70221" lon="2.10902">
        <ele>106.52</ele>
        <time>2021-11-20T11:06:02.999Z</time>
      </trkpt>
      <trkpt lat="48.70224" lon="2.10889">
        <ele>106.55</ele>
        <time>2021-11-20T11:06:10.999Z</time>
      </trkpt>
      <trkpt lat="48.70228" lon="2.10876">
        <ele>106.57</ele>
        <time>2021-11-20T11:06:17.999Z</time>
      </trkpt>
      <trkpt lat="48.70234" lon="2.10864">
        <ele>106.63</ele>
        <time>2021-11-20T11:06:27.999Z</time>
      </trkpt>
      <trkpt lat="48.70236" lon="2.10851">
        <ele>106.71</ele>
        <time>2021-11-20T11:06:39.999Z</time>
      </trkpt>
      <trkpt lat="48.70243" lon="2.1084">
        <ele>106.76</ele>
        <time>2021-11-20T11:06:50.999Z</time>
      </trkpt>
      <trkpt lat="48.70247" lon="2.10828">
        <ele>106.71</ele>
        <time>2021-11-20T11:07:22.999Z</time>
      </trkpt>
      <trkpt lat="48.70253" lon="2.10838">
        <ele>106.69</ele>
        <time>2021-11-20T11:07:38.999Z</time>
      </trkpt>
      <trkpt lat="48.70251" lon="2.10824">
        <ele>106.66</ele>
        <time>2021-11-20T11:08:05.999Z</time>
      </trkpt>
      <trkpt lat="48.70249" lon="2.10829">
        <ele>107.04</ele>
        <time>2021-11-20T11:10:06Z</time>
      </trkpt>
      <trkpt lat="48.70557" lon="2.10282">
        <ele>180.39</ele>
        <time>2021-11-20T12:01:26.054Z</time>
      </trkpt>
      <trkpt lat="48.70565" lon="2.10288">
        <ele>146.6</ele>
        <time>2021-11-20T12:01:27.054Z</time>
      </trkpt>
      <trkpt lat="48.70566" lon="2.10303">
        <ele>156.29</ele>
        <time>2021-11-20T12:01:36Z</time>
      </trkpt>
      <trkpt lat="48.70569" lon="2.10316">
        <ele>156.27</ele>
        <time>2021-11-20T12:01:46Z</time>
      </trkpt>
      <trkpt lat="48.70572" lon="2.10332">
        <ele>155.18</ele>
        <time>2021-11-20T12:01:58Z</time>
      </trkpt>
      <trkpt lat="48.7058" lon="2.10339">
        <ele>155.03</ele>
        <time>2021-11-20T12:02:10Z</time>
      </trkpt>
      <trkpt lat="48.70584" lon="2.10352">
        <ele>154.22</ele>
        <time>2021-11-20T12:02:31Z</time>
      </trkpt>
      <trkpt lat="48.70584" lon="2.10366">
        <ele>154</ele>
        <time>2021-11-20T12:02:36Z</time>
      </trkpt>
      <trkpt lat="48.70592" lon="2.10359">
        <ele>153.19</ele>
        <time>2021-11-20T12:03:09Z</time>
      </trkpt>
      <trkpt lat="48.70596" lon="2.10348">
        <ele>153.2</ele>
        <time>2021-11-20T12:03:18Z</time>
      </trkpt>
      <trkpt lat="48.70599" lon="2.10334">
        <ele>153.26</ele>
        <time>2021-11-20T12:03:32Z</time>
      </trkpt>
      <trkpt lat="48.70605" lon="2.10323">
        <ele>153.37</ele>
        <time>2021-11-20T12:03:43Z</time>
      </trkpt>
      <trkpt lat="48.70612" lon="2.10311">
        <ele>153.65</ele>
        <time>2021-11-20T12:03:55Z</time>
      </trkpt>
      <trkpt lat="48.7062" lon="2.1032">
        <ele>154.23</ele>
        <time>2021-11-20T12:04:14Z</time>
      </trkpt>
      <trkpt lat="48.7062" lon="2.10333">
        <ele>154.75</ele>
        <time>2021-11-20T12:04:26Z</time>
      </trkpt>
      <trkpt lat="48.70621" lon="2.10348">
        <ele>155.32</ele>
        <time>2021-11-20T12:04:42.999Z</time>
      </trkpt>
      <trkpt lat="48.70625" lon="2.1036">
        <ele>155.57</ele>
        <time>2021-11-20T12:04:52.999Z</time>
      </trkpt>
      <trkpt lat="48.70628" lon="2.10373">
        <ele>155.83</ele>
        <time>2021-11-20T12:05:06.999Z</time>
      </trkpt>
      <trkpt lat="48.70629" lon="2.10387">
        <ele>156.01</ele>
        <time>2021-11-20T12:05:13.999Z</time>
      </trkpt>
      <trkpt lat="48.7063" lon="2.10401">
        <ele>156.2</ele>
        <time>2021-11-20T12:05:22.999Z</time>
      </trkpt>
      <trkpt lat="48.70637" lon="2.10412">
        <ele>156.54</ele>
        <time>2021-11-20T12:05:34.999Z</time>
      </trkpt>
      <trkpt lat="48.70636" lon="2.10425">
        <ele>156.8</ele>
        <time>2021-11-20T12:05:47.999Z</time>
      </trkpt>
      <trkpt lat="48.70639" lon="2.10439">
        <ele>157</ele>
        <time>2021-11-20T12:05:59.999Z</time>
      </trkpt>
      <trkpt lat="48.70646" lon="2.10451">
        <ele>157.58</ele>
        <time>2021-11-20T12:06:34.999Z</time>
      </trkpt>
      <trkpt lat="48.70652" lon="2.10462">
        <ele>157.75</ele>
        <time>2021-11-20T12:06:39.999Z</time>
      </trkpt>
      <trkpt lat="48.70654" lon="2.10476">
        <ele>157.92</ele>
        <time>2021-11-20T12:06:45.999Z</time>
      </trkpt>
      <trkpt lat="48.70659" lon="2.10488">
        <ele>158.27</ele>
        <time>2021-11-20T12:06:59.999Z</time>
      </trkpt>
      <trkpt lat="48.70657" lon="2.10475">
        <ele>160.33</ele>
        <time>2021-11-20T12:08:03.999Z</time>
      </trkpt>
      <trkpt lat="48.70656" lon="2.10461">
        <ele>161.14</ele>
        <time>2021-11-20T12:08:21.999Z</time>
      </trkpt>
      <trkpt lat="48.70661" lon="2.10449">
        <ele>161.85</ele>
        <time>2021-11-20T12:08:33.999Z</time>
      </trkpt>
      <trkpt lat="48.7066" lon="2.10435">
        <ele>162.61</ele>
        <time>2021-11-20T12:08:45.999Z</time>
      </trkpt>
      <trkpt lat="48.70657" lon="2.10422">
        <ele>163.28</ele>
        <time>2021-11-20T12:08:56.999Z</time>
      </trkpt>
      <trkpt lat="48.70661" lon="2.1041">
        <ele>164.16</ele>
        <time>2021-11-20T12:09:10.999Z</time>
      </trkpt>
      <trkpt lat="48.70663" lon="2.10396">
        <ele>164.94</ele>
        <time>2021-11-20T12:09:23.999Z</time>
      </trkpt>
      <trkpt lat="48.70669" lon="2.10385">
        <ele>165.58</ele>
        <time>2021-11-20T12:09:34.999Z</time>
      </trkpt>
      <trkpt lat="48.70678" lon="2.10385">
        <ele>166.9</ele>
        <time>2021-11-20T12:10:10.999Z</time>
      </trkpt>
      <trkpt lat="48.70687" lon="2.1039">
        <ele>167.27</ele>
        <time>2021-11-20T12:10:20.999Z</time>
      </trkpt>
      <trkpt lat="48.70696" lon="2.10393">
        <ele>167.62</ele>
        <time>2021-11-20T12:10:33.999Z</time>
      </trkpt>
      <trkpt lat="48.70705" lon="2.10391">
        <ele>168.22</ele>
        <time>2021-11-20T12:11:24.999Z</time>
      </trkpt>
      <trkpt lat="48.70712" lon="2.10384">
        <ele>169.54</ele>
        <time>2021-11-20T12:13:25.999Z</time>
      </trkpt>
      <trkpt lat="48.70722" lon="2.10385">
        <ele>171.35</ele>
        <time>2021-11-20T12:14:22.999Z</time>
      </trkpt>
      <trkpt lat="48.70733" lon="2.10385">
        <ele>171.84</ele>
        <time>2021-11-20T12:14:30.999Z</time>
      </trkpt>
      <trkpt lat="48.70742" lon="2.10385">
        <ele>172.16</ele>
        <time>2021-11-20T12:14:36.999Z</time>
      </trkpt>
      <trkpt lat="48.7075" lon="2.10393">
        <ele>172.57</ele>
        <time>2021-11-20T12:14:44.999Z</time>
      </trkpt>
      <trkpt lat="48.70754" lon="2.10407">
        <ele>172.95</ele>
        <time>2021-11-20T12:14:52.999Z</time>
      </trkpt>
      <trkpt lat="48.70761" lon="2.10416">
        <ele>173.27</ele>
        <time>2021-11-20T12:15:02.999Z</time>
      </trkpt>
      <trkpt lat="48.70769" lon="2.10421">
        <ele>173.68</ele>
        <time>2021-11-20T12:15:13.999Z</time>
      </trkpt>
      <trkpt lat="48.70777" lon="2.10429">
        <ele>174.04</ele>
        <time>2021-11-20T12:15:29.999Z</time>
      </trkpt>
      <trkpt lat="48.70786" lon="2.10432">
        <ele>174.5</ele>
        <time>2021-11-20T12:15:40.999Z</time>
      </trkpt>
      <trkpt lat="48.70794" lon="2.10442">
        <ele>174.88</ele>
        <time>2021-11-20T12:15:51.999Z</time>
      </trkpt>
      <trkpt lat="48.70803" lon="2.10448">
        <ele>175.14</ele>
        <time>2021-11-20T12:15:59.999Z</time>
      </trkpt>
      <trkpt lat="48.7081" lon="2.10456">
        <ele>175.45</ele>
        <time>2021-11-20T12:16:08.999Z</time>
      </trkpt>
      <trkpt lat="48.70818" lon="2.10465">
        <ele>175.84</ele>
        <time>2021-11-20T12:16:22.999Z</time>
      </trkpt>
      <trkpt lat="48.70826" lon="2.10473">
        <ele>176.08</ele>
        <time>2021-11-20T12:16:28.999Z</time>
      </trkpt>
      <trkpt lat="48.70835" lon="2.10479">
        <ele>176.39</ele>
        <time>2021-11-20T12:16:35.999Z</time>
      </trkpt>
      <trkpt lat="48.70845" lon="2.10485">
        <ele>177.01</ele>
        <time>2021-11-20T12:16:47.999Z</time>
      </trkpt>
      <trkpt lat="48.70852" lon="2.10492">
        <ele>177.51</ele>
        <time>2021-11-20T12:16:55.999Z</time>
      </trkpt>
      <trkpt lat="48.70861" lon="2.10497">
        <ele>177.99</ele>
        <time>2021-11-20T12:17:02.999Z</time>
      </trkpt>
      <trkpt lat="48.70867" lon="2.10508">
        <ele>178.75</ele>
        <time>2021-11-20T12:17:12.999Z</time>
      </trkpt>
      <trkpt lat="48.70874" lon="2.10517">
        <ele>179.17</ele>
        <time>2021-11-20T12:17:17.999Z</time>
      </trkpt>
      <trkpt lat="48.70883" lon="2.10525">
        <ele>179.84</ele>
        <time>2021-11-20T12:17:25.999Z</time>
      </trkpt>
      <trkpt lat="48.70891" lon="2.10534">
        <ele>180.58</ele>
        <time>2021-11-20T12:17:34.999Z</time>
      </trkpt>
      <trkpt lat="48.70899" lon="2.10543">
        <ele>181.26</ele>
        <time>2021-11-20T12:17:43.999Z</time>
      </trkpt>
      <trkpt lat="48.70906" lon="2.10552">
        <ele>181.82</ele>
        <time>2021-11-20T12:17:51.999Z</time>
      </trkpt>
      <trkpt lat="48.70915" lon="2.10556">
        <ele>182.46</ele>
        <time>2021-11-20T12:18:01.999Z</time>
      </trkpt>
      <trkpt lat="48.70921" lon="2.10567">
        <ele>183.24</ele>
        <time>2021-11-20T12:18:15.999Z</time>
      </trkpt>
      <trkpt lat="48.70931" lon="2.10571">
        <ele>183.48</ele>
        <time>2021-11-20T12:18:20.999Z</time>
      </trkpt>
      <trkpt lat="48.70939" lon="2.10578">
        <ele>183.86</ele>
        <time>2021-11-20T12:18:28.999Z</time>
      </trkpt>
      <trkpt lat="48.70949" lon="2.10584">
        <ele>184.26</ele>
        <time>2021-11-20T12:18:37.999Z</time>
      </trkpt>
      <trkpt lat="48.70958" lon="2.1059">
        <ele>184.54</ele>
        <time>2021-11-20T12:18:44.999Z</time>
      </trkpt>
      <trkpt lat="48.70966" lon="2.10599">
        <ele>184.91</ele>
        <time>2021-11-20T12:18:56.999Z</time>
      </trkpt>
      <trkpt lat="48.70974" lon="2.10608">
        <ele>185.44</ele>
        <time>2021-11-20T12:19:08.999Z</time>
      </trkpt>
      <trkpt lat="48.70983" lon="2.10618">
        <ele>185.67</ele>
        <time>2021-11-20T12:19:13.999Z</time>
      </trkpt>
      <trkpt lat="48.70993" lon="2.10625">
        <ele>185.93</ele>
        <time>2021-11-20T12:19:19.999Z</time>
      </trkpt>
      <trkpt lat="48.71002" lon="2.1063">
        <ele>186.18</ele>
        <time>2021-11-20T12:19:26.999Z</time>
      </trkpt>
      <trkpt lat="48.7101" lon="2.10635">
        <ele>186.47</ele>
        <time>2021-11-20T12:19:34.999Z</time>
      </trkpt>
      <trkpt lat="48.71019" lon="2.10641">
        <ele>186.88</ele>
        <time>2021-11-20T12:19:46.999Z</time>
      </trkpt>
      <trkpt lat="48.71028" lon="2.10648">
        <ele>187.23</ele>
        <time>2021-11-20T12:19:56.999Z</time>
      </trkpt>
      <trkpt lat="48.71035" lon="2.10657">
        <ele>187.56</ele>
        <time>2021-11-20T12:20:04.999Z</time>
      </trkpt>
      <trkpt lat="48.71044" lon="2.10664">
        <ele>187.98</ele>
        <time>2021-11-20T12:20:14.999Z</time>
      </trkpt>
      <trkpt lat="48.71052" lon="2.10672">
        <ele>188.33</ele>
        <time>2021-11-20T12:20:21.999Z</time>
      </trkpt>
      <trkpt lat="48.7106" lon="2.10679">
        <ele>188.69</ele>
        <time>2021-11-20T12:20:28.999Z</time>
      </trkpt>
      <trkpt lat="48.71069" lon="2.10687">
        <ele>189.02</ele>
        <time>2021-11-20T12:20:35.999Z</time>
      </trkpt>
      <trkpt lat="48.71078" lon="2.10691">
        <ele>189.34</ele>
        <time>2021-11-20T12:20:42.999Z</time>
      </trkpt>
      <trkpt lat="48.71087" lon="2.10698">
        <ele>189.9</ele>
        <time>2021-11-20T12:20:55.999Z</time>
      </trkpt>
      <trkpt lat="48.71096" lon="2.10704">
        <ele>190.24</ele>
        <time>2021-11-20T12:21:04.999Z</time>
      </trkpt>
      <trkpt lat="48.71104" lon="2.10711">
        <ele>190.52</ele>
        <time>2021-11-20T12:21:11.999Z</time>
      </trkpt>
      <trkpt lat="48.71113" lon="2.10718">
        <ele>190.76</ele>
        <time>2021-11-20T12:21:18.999Z</time>
      </trkpt>
      <trkpt lat="48.7112" lon="2.10729">
        <ele>191.03</ele>
        <time>2021-11-20T12:21:26.999Z</time>
      </trkpt>
      <trkpt lat="48.71127" lon="2.10735">
        <ele>191.32</ele>
        <time>2021-11-20T12:21:36.999Z</time>
      </trkpt>
      <trkpt lat="48.71135" lon="2.10744">
        <ele>191.58</ele>
        <time>2021-11-20T12:21:47.999Z</time>
      </trkpt>
      <trkpt lat="48.71144" lon="2.10748">
        <ele>191.74</ele>
        <time>2021-11-20T12:21:56.999Z</time>
      </trkpt>
      <trkpt lat="48.7115" lon="2.10758">
        <ele>191.99</ele>
        <time>2021-11-20T12:22:14.999Z</time>
      </trkpt>
      <trkpt lat="48.71157" lon="2.10768">
        <ele>192.28</ele>
        <time>2021-11-20T12:22:25.999Z</time>
      </trkpt>
      <trkpt lat="48.71164" lon="2.10777">
        <ele>192.54</ele>
        <time>2021-11-20T12:22:35.999Z</time>
      </trkpt>
      <trkpt lat="48.71172" lon="2.10786">
        <ele>192.76</ele>
        <time>2021-11-20T12:22:45.999Z</time>
      </trkpt>
      <trkpt lat="48.71181" lon="2.10794">
        <ele>192.92</ele>
        <time>2021-11-20T12:22:56Z</time>
      </trkpt>
      <trkpt lat="48.7119" lon="2.108">
        <ele>193.05</ele>
        <time>2021-11-20T12:23:05Z</time>
      </trkpt>
      <trkpt lat="48.71198" lon="2.10809">
        <ele>193.16</ele>
        <time>2021-11-20T12:23:14Z</time>
      </trkpt>
      <trkpt lat="48.71206" lon="2.10817">
        <ele>193.23</ele>
        <time>2021-11-20T12:23:21Z</time>
      </trkpt>
      <trkpt lat="48.71214" lon="2.10824">
        <ele>193.31</ele>
        <time>2021-11-20T12:23:29Z</time>
      </trkpt>
      <trkpt lat="48.71223" lon="2.1083">
        <ele>193.42</ele>
        <time>2021-11-20T12:23:42Z</time>
      </trkpt>
      <trkpt lat="48.71232" lon="2.10836">
        <ele>193.46</ele>
        <time>2021-11-20T12:23:49Z</time>
      </trkpt>
      <trkpt lat="48.7124" lon="2.10844">
        <ele>193.5</ele>
        <time>2021-11-20T12:23:56Z</time>
      </trkpt>
      <trkpt lat="48.71242" lon="2.10857">
        <ele>193.56</ele>
        <time>2021-11-20T12:24:09Z</time>
      </trkpt>
      <trkpt lat="48.71249" lon="2.10867">
        <ele>193.58</ele>
        <time>2021-11-20T12:24:17Z</time>
      </trkpt>
      <trkpt lat="48.71257" lon="2.10874">
        <ele>193.57</ele>
        <time>2021-11-20T12:24:26Z</time>
      </trkpt>
      <trkpt lat="48.71266" lon="2.10881">
        <ele>193.54</ele>
        <time>2021-11-20T12:24:33Z</time>
      </trkpt>
      <trkpt lat="48.71276" lon="2.10885">
        <ele>193.49</ele>
        <time>2021-11-20T12:24:44Z</time>
      </trkpt>
      <trkpt lat="48.71285" lon="2.10892">
        <ele>193.46</ele>
        <time>2021-11-20T12:24:49Z</time>
      </trkpt>
      <trkpt lat="48.71294" lon="2.10898">
        <ele>193.43</ele>
        <time>2021-11-20T12:24:56Z</time>
      </trkpt>
      <trkpt lat="48.71303" lon="2.10902">
        <ele>193.4</ele>
        <time>2021-11-20T12:25:03Z</time>
      </trkpt>
      <trkpt lat="48.71311" lon="2.10909">
        <ele>193.38</ele>
        <time>2021-11-20T12:25:09Z</time>
      </trkpt>
      <trkpt lat="48.71319" lon="2.10916">
        <ele>193.34</ele>
        <time>2021-11-20T12:25:18Z</time>
      </trkpt>
      <trkpt lat="48.71327" lon="2.1091">
        <ele>192.98</ele>
        <time>2021-11-20T12:26:08Z</time>
      </trkpt>
      <trkpt lat="48.71337" lon="2.10916">
        <ele>192.86</ele>
        <time>2021-11-20T12:26:15Z</time>
      </trkpt>
      <trkpt lat="48.71337" lon="2.10933">
        <ele>192.63</ele>
        <time>2021-11-20T12:26:31Z</time>
      </trkpt>
      <trkpt lat="48.71338" lon="2.10947">
        <ele>192.41</ele>
        <time>2021-11-20T12:26:43Z</time>
      </trkpt>
      <trkpt lat="48.71344" lon="2.10959">
        <ele>192.27</ele>
        <time>2021-11-20T12:26:49Z</time>
      </trkpt>
      <trkpt lat="48.71354" lon="2.10963">
        <ele>192.12</ele>
        <time>2021-11-20T12:26:55Z</time>
      </trkpt>
      <trkpt lat="48.71366" lon="2.10965">
        <ele>192.02</ele>
        <time>2021-11-20T12:26:59Z</time>
      </trkpt>
      <trkpt lat="48.71373" lon="2.10976">
        <ele>191.78</ele>
        <time>2021-11-20T12:27:10Z</time>
      </trkpt>
      <trkpt lat="48.71379" lon="2.10987">
        <ele>191.6</ele>
        <time>2021-11-20T12:27:18Z</time>
      </trkpt>
      <trkpt lat="48.71389" lon="2.10993">
        <ele>191.44</ele>
        <time>2021-11-20T12:27:25Z</time>
      </trkpt>
      <trkpt lat="48.71399" lon="2.10986">
        <ele>191.37</ele>
        <time>2021-11-20T12:27:28Z</time>
      </trkpt>
      <trkpt lat="48.71409" lon="2.10989">
        <ele>191.27</ele>
        <time>2021-11-20T12:27:33Z</time>
      </trkpt>
      <trkpt lat="48.71418" lon="2.10994">
        <ele>191.12</ele>
        <time>2021-11-20T12:27:42Z</time>
      </trkpt>
      <trkpt lat="48.71425" lon="2.11002">
        <ele>190.88</ele>
        <time>2021-11-20T12:28:06Z</time>
      </trkpt>
      <trkpt lat="48.71434" lon="2.11007">
        <ele>190.69</ele>
        <time>2021-11-20T12:28:29Z</time>
      </trkpt>
      <trkpt lat="48.71443" lon="2.11008">
        <ele>190.55</ele>
        <time>2021-11-20T12:28:49Z</time>
      </trkpt>
      <trkpt lat="48.71451" lon="2.11014">
        <ele>190.37</ele>
        <time>2021-11-20T12:29:09Z</time>
      </trkpt>
      <trkpt lat="48.7146" lon="2.1102">
        <ele>190.2</ele>
        <time>2021-11-20T12:29:27Z</time>
      </trkpt>
      <trkpt lat="48.71468" lon="2.11028">
        <ele>190.08</ele>
        <time>2021-11-20T12:29:38Z</time>
      </trkpt>
      <trkpt lat="48.71463" lon="2.1104">
        <ele>189.44</ele>
        <time>2021-11-20T12:31:03Z</time>
      </trkpt>
      <trkpt lat="48.7146" lon="2.11055">
        <ele>189.32</ele>
        <time>2021-11-20T12:31:13Z</time>
      </trkpt>
      <trkpt lat="48.71461" lon="2.1107">
        <ele>189.09</ele>
        <time>2021-11-20T12:31:27Z</time>
      </trkpt>
      <trkpt lat="48.71462" lon="2.11083">
        <ele>188.89</ele>
        <time>2021-11-20T12:31:37Z</time>
      </trkpt>
      <trkpt lat="48.71464" lon="2.11098">
        <ele>188.44</ele>
        <time>2021-11-20T12:31:57Z</time>
      </trkpt>
      <trkpt lat="48.71465" lon="2.11111">
        <ele>188.24</ele>
        <time>2021-11-20T12:32:06Z</time>
      </trkpt>
      <trkpt lat="48.7146" lon="2.11124">
        <ele>187.86</ele>
        <time>2021-11-20T12:32:19Z</time>
      </trkpt>
      <trkpt lat="48.71459" lon="2.11138">
        <ele>187.53</ele>
        <time>2021-11-20T12:32:31Z</time>
      </trkpt>
      <trkpt lat="48.71458" lon="2.11152">
        <ele>187.25</ele>
        <time>2021-11-20T12:32:41Z</time>
      </trkpt>
      <trkpt lat="48.7146" lon="2.11167">
        <ele>186.93</ele>
        <time>2021-11-20T12:32:55Z</time>
      </trkpt>
      <trkpt lat="48.71461" lon="2.11181">
        <ele>186.58</ele>
        <time>2021-11-20T12:33:09Z</time>
      </trkpt>
      <trkpt lat="48.71464" lon="2.11196">
        <ele>186.2</ele>
        <time>2021-11-20T12:33:25Z</time>
      </trkpt>
      <trkpt lat="48.71467" lon="2.11212">
        <ele>185.9</ele>
        <time>2021-11-20T12:33:37Z</time>
      </trkpt>
      <trkpt lat="48.71463" lon="2.11226">
        <ele>185.53</ele>
        <time>2021-11-20T12:33:49Z</time>
      </trkpt>
      <trkpt lat="48.71459" lon="2.11241">
        <ele>185.3</ele>
        <time>2021-11-20T12:33:57Z</time>
      </trkpt>
      <trkpt lat="48.71455" lon="2.11253">
        <ele>185.11</ele>
        <time>2021-11-20T12:34:03Z</time>
      </trkpt>
      <trkpt lat="48.71449" lon="2.11264">
        <ele>184.96</ele>
        <time>2021-11-20T12:34:08Z</time>
      </trkpt>
      <trkpt lat="48.71441" lon="2.11273">
        <ele>184.73</ele>
        <time>2021-11-20T12:34:14Z</time>
      </trkpt>
      <trkpt lat="48.71433" lon="2.11283">
        <ele>184.43</ele>
        <time>2021-11-20T12:34:23Z</time>
      </trkpt>
      <trkpt lat="48.71428" lon="2.11295">
        <ele>184.07</ele>
        <time>2021-11-20T12:34:31Z</time>
      </trkpt>
      <trkpt lat="48.71427" lon="2.11309">
        <ele>183.74</ele>
        <time>2021-11-20T12:34:38Z</time>
      </trkpt>
      <trkpt lat="48.71422" lon="2.11322">
        <ele>183.31</ele>
        <time>2021-11-20T12:34:47Z</time>
      </trkpt>
      <trkpt lat="48.7142" lon="2.11335">
        <ele>182.67</ele>
        <time>2021-11-20T12:35:03Z</time>
      </trkpt>
      <trkpt lat="48.71419" lon="2.11351">
        <ele>182.16</ele>
        <time>2021-11-20T12:35:13Z</time>
      </trkpt>
      <trkpt lat="48.71416" lon="2.11365">
        <ele>181.69</ele>
        <time>2021-11-20T12:35:24Z</time>
      </trkpt>
      <trkpt lat="48.71417" lon="2.1138">
        <ele>181.36</ele>
        <time>2021-11-20T12:35:32Z</time>
      </trkpt>
      <trkpt lat="48.71418" lon="2.11394">
        <ele>181.04</ele>
        <time>2021-11-20T12:35:41Z</time>
      </trkpt>
      <trkpt lat="48.71421" lon="2.11407">
        <ele>180.72</ele>
        <time>2021-11-20T12:35:49Z</time>
      </trkpt>
      <trkpt lat="48.71425" lon="2.1142">
        <ele>180.36</ele>
        <time>2021-11-20T12:35:59Z</time>
      </trkpt>
      <trkpt lat="48.71431" lon="2.11432">
        <ele>180.05</ele>
        <time>2021-11-20T12:36:07Z</time>
      </trkpt>
      <trkpt lat="48.71442" lon="2.11433">
        <ele>179.56</ele>
        <time>2021-11-20T12:36:22Z</time>
      </trkpt>
      <trkpt lat="48.71451" lon="2.11428">
        <ele>179.05</ele>
        <time>2021-11-20T12:36:45Z</time>
      </trkpt>
      <trkpt lat="48.71442" lon="2.11428">
        <ele>178.71</ele>
        <time>2021-11-20T12:37:00Z</time>
      </trkpt>
      <trkpt lat="48.71433" lon="2.11422">
        <ele>178.53</ele>
        <time>2021-11-20T12:37:28Z</time>
      </trkpt>
      <trkpt lat="48.71429" lon="2.11434">
        <ele>177.38</ele>
        <time>2021-11-20T12:38:44Z</time>
      </trkpt>
      <trkpt lat="48.71431" lon="2.11449">
        <ele>176.68</ele>
        <time>2021-11-20T12:38:58Z</time>
      </trkpt>
      <trkpt lat="48.71433" lon="2.11463">
        <ele>176.25</ele>
        <time>2021-11-20T12:39:08Z</time>
      </trkpt>
      <trkpt lat="48.71438" lon="2.11475">
        <ele>176.01</ele>
        <time>2021-11-20T12:39:15Z</time>
      </trkpt>
      <trkpt lat="48.7144" lon="2.11489">
        <ele>175.49</ele>
        <time>2021-11-20T12:39:30Z</time>
      </trkpt>
      <trkpt lat="48.71441" lon="2.11503">
        <ele>175.13</ele>
        <time>2021-11-20T12:39:41Z</time>
      </trkpt>
      <trkpt lat="48.71445" lon="2.11515">
        <ele>174.8</ele>
        <time>2021-11-20T12:39:51Z</time>
      </trkpt>
      <trkpt lat="48.71447" lon="2.1153">
        <ele>174.41</ele>
        <time>2021-11-20T12:40:04Z</time>
      </trkpt>
      <trkpt lat="48.7145" lon="2.11544">
        <ele>174.1</ele>
        <time>2021-11-20T12:40:14Z</time>
      </trkpt>
      <trkpt lat="48.71452" lon="2.11558">
        <ele>173.72</ele>
        <time>2021-11-20T12:40:27Z</time>
      </trkpt>
      <trkpt lat="48.71451" lon="2.11573">
        <ele>173.45</ele>
        <time>2021-11-20T12:40:34Z</time>
      </trkpt>
      <trkpt lat="48.71451" lon="2.11587">
        <ele>173.07</ele>
        <time>2021-11-20T12:40:44Z</time>
      </trkpt>
      <trkpt lat="48.71454" lon="2.11601">
        <ele>172.74</ele>
        <time>2021-11-20T12:40:53Z</time>
      </trkpt>
      <trkpt lat="48.71456" lon="2.11616">
        <ele>172.4</ele>
        <time>2021-11-20T12:41:01Z</time>
      </trkpt>
      <trkpt lat="48.71455" lon="2.1163">
        <ele>172.06</ele>
        <time>2021-11-20T12:41:09Z</time>
      </trkpt>
      <trkpt lat="48.71461" lon="2.11642">
        <ele>171.7</ele>
        <time>2021-11-20T12:41:17Z</time>
      </trkpt>
      <trkpt lat="48.71465" lon="2.11654">
        <ele>171.34</ele>
        <time>2021-11-20T12:41:25.999Z</time>
      </trkpt>
      <trkpt lat="48.71472" lon="2.11666">
        <ele>170.76</ele>
        <time>2021-11-20T12:41:40.999Z</time>
      </trkpt>
      <trkpt lat="48.7148" lon="2.11672">
        <ele>170.37</ele>
        <time>2021-11-20T12:41:49.999Z</time>
      </trkpt>
      <trkpt lat="48.71488" lon="2.1168">
        <ele>169.95</ele>
        <time>2021-11-20T12:41:59.999Z</time>
      </trkpt>
      <trkpt lat="48.7149" lon="2.11693">
        <ele>169.52</ele>
        <time>2021-11-20T12:42:09.999Z</time>
      </trkpt>
      <trkpt lat="48.71496" lon="2.11705">
        <ele>169.06</ele>
        <time>2021-11-20T12:42:19.999Z</time>
      </trkpt>
      <trkpt lat="48.71501" lon="2.11718">
        <ele>168.67</ele>
        <time>2021-11-20T12:42:27.999Z</time>
      </trkpt>
      <trkpt lat="48.71505" lon="2.1173">
        <ele>168.37</ele>
        <time>2021-11-20T12:42:33.999Z</time>
      </trkpt>
      <trkpt lat="48.71509" lon="2.11744">
        <ele>167.97</ele>
        <time>2021-11-20T12:42:41.999Z</time>
      </trkpt>
      <trkpt lat="48.71514" lon="2.11756">
        <ele>167.51</ele>
        <time>2021-11-20T12:42:50.999Z</time>
      </trkpt>
      <trkpt lat="48.71511" lon="2.11769">
        <ele>166.78</ele>
        <time>2021-11-20T12:43:10.999Z</time>
      </trkpt>
      <trkpt lat="48.71512" lon="2.11784">
        <ele>166.19</ele>
        <time>2021-11-20T12:43:19.999Z</time>
      </trkpt>
      <trkpt lat="48.71513" lon="2.11799">
        <ele>165.68</ele>
        <time>2021-11-20T12:43:27.999Z</time>
      </trkpt>
      <trkpt lat="48.7151" lon="2.11813">
        <ele>164.9</ele>
        <time>2021-11-20T12:43:39.999Z</time>
      </trkpt>
      <trkpt lat="48.71517" lon="2.11822">
        <ele>163.99</ele>
        <time>2021-11-20T12:44:03.999Z</time>
      </trkpt>
      <trkpt lat="48.71527" lon="2.11822">
        <ele>163.47</ele>
        <time>2021-11-20T12:44:09.999Z</time>
      </trkpt>
      <trkpt lat="48.71538" lon="2.11823">
        <ele>162.58</ele>
        <time>2021-11-20T12:44:20.999Z</time>
      </trkpt>
      <trkpt lat="48.71546" lon="2.11827">
        <ele>161.83</ele>
        <time>2021-11-20T12:44:30.999Z</time>
      </trkpt>
      <trkpt lat="48.71555" lon="2.11831">
        <ele>161.13</ele>
        <time>2021-11-20T12:44:40.999Z</time>
      </trkpt>
      <trkpt lat="48.71564" lon="2.11835">
        <ele>160.5</ele>
        <time>2021-11-20T12:44:49.999Z</time>
      </trkpt>
      <trkpt lat="48.71574" lon="2.11837">
        <ele>159.76</ele>
        <time>2021-11-20T12:44:59.999Z</time>
      </trkpt>
      <trkpt lat="48.71583" lon="2.11838">
        <ele>159.16</ele>
        <time>2021-11-20T12:45:07.999Z</time>
      </trkpt>
      <trkpt lat="48.71592" lon="2.1184">
        <ele>158.36</ele>
        <time>2021-11-20T12:45:18.999Z</time>
      </trkpt>
      <trkpt lat="48.71602" lon="2.11842">
        <ele>157.84</ele>
        <time>2021-11-20T12:45:26.999Z</time>
      </trkpt>
      <trkpt lat="48.71611" lon="2.11843">
        <ele>157.36</ele>
        <time>2021-11-20T12:45:34.999Z</time>
      </trkpt>
      <trkpt lat="48.7162" lon="2.11846">
        <ele>156.72</ele>
        <time>2021-11-20T12:45:46.999Z</time>
      </trkpt>
      <trkpt lat="48.7163" lon="2.11847">
        <ele>156.18</ele>
        <time>2021-11-20T12:45:57.999Z</time>
      </trkpt>
      <trkpt lat="48.71639" lon="2.1185">
        <ele>155.61</ele>
        <time>2021-11-20T12:46:09.999Z</time>
      </trkpt>
      <trkpt lat="48.71649" lon="2.11853">
        <ele>155.27</ele>
        <time>2021-11-20T12:46:16.999Z</time>
      </trkpt>
      <trkpt lat="48.71657" lon="2.11861">
        <ele>154.91</ele>
        <time>2021-11-20T12:46:24.999Z</time>
      </trkpt>
      <trkpt lat="48.71663" lon="2.11872">
        <ele>154.36</ele>
        <time>2021-11-20T12:46:37.999Z</time>
      </trkpt>
      <trkpt lat="48.71668" lon="2.11883">
        <ele>153.78</ele>
        <time>2021-11-20T12:46:50.999Z</time>
      </trkpt>
      <trkpt lat="48.71672" lon="2.11896">
        <ele>153.13</ele>
        <time>2021-11-20T12:47:12.999Z</time>
      </trkpt>
      <trkpt lat="48.71679" lon="2.11904">
        <ele>152.68</ele>
        <time>2021-11-20T12:47:20.999Z</time>
      </trkpt>
      <trkpt lat="48.71686" lon="2.11914">
        <ele>151.93</ele>
        <time>2021-11-20T12:47:35.999Z</time>
      </trkpt>
      <trkpt lat="48.71694" lon="2.11921">
        <ele>151.61</ele>
        <time>2021-11-20T12:47:41.999Z</time>
      </trkpt>
      <trkpt lat="48.71702" lon="2.11928">
        <ele>151.16</ele>
        <time>2021-11-20T12:47:50.999Z</time>
      </trkpt>
      <trkpt lat="48.71709" lon="2.11939">
        <ele>149.85</ele>
        <time>2021-11-20T12:48:40.999Z</time>
      </trkpt>
      <trkpt lat="48.71718" lon="2.11947">
        <ele>148.09</ele>
        <time>2021-11-20T12:49:46.999Z</time>
      </trkpt>
      <trkpt lat="48.71727" lon="2.11954">
        <ele>147.47</ele>
        <time>2021-11-20T12:49:53.999Z</time>
      </trkpt>
      <trkpt lat="48.71734" lon="2.11963">
        <ele>146.84</ele>
        <time>2021-11-20T12:50:01.999Z</time>
      </trkpt>
      <trkpt lat="48.71738" lon="2.11975">
        <ele>146.29</ele>
        <time>2021-11-20T12:50:09.999Z</time>
      </trkpt>
      <trkpt lat="48.71742" lon="2.11988">
        <ele>145.68</ele>
        <time>2021-11-20T12:50:19.999Z</time>
      </trkpt>
      <trkpt lat="48.71747" lon="2.12001">
        <ele>145</ele>
        <time>2021-11-20T12:50:32.999Z</time>
      </trkpt>
      <trkpt lat="48.71753" lon="2.12011">
        <ele>144.6</ele>
        <time>2021-11-20T12:50:41.999Z</time>
      </trkpt>
      <trkpt lat="48.7176" lon="2.12021">
        <ele>144.23</ele>
        <time>2021-11-20T12:50:51.999Z</time>
      </trkpt>
      <trkpt lat="48.71769" lon="2.12026">
        <ele>143.89</ele>
        <time>2021-11-20T12:51:02.999Z</time>
      </trkpt>
      <trkpt lat="48.71778" lon="2.12029">
        <ele>143.46</ele>
        <time>2021-11-20T12:51:28.999Z</time>
      </trkpt>
      <trkpt lat="48.71787" lon="2.12034">
        <ele>142.84</ele>
        <time>2021-11-20T12:52:07.999Z</time>
      </trkpt>
      <trkpt lat="48.71798" lon="2.12039">
        <ele>142.36</ele>
        <time>2021-11-20T12:52:24.999Z</time>
      </trkpt>
      <trkpt lat="48.71807" lon="2.12043">
        <ele>142.09</ele>
        <time>2021-11-20T12:52:36.999Z</time>
      </trkpt>
      <trkpt lat="48.71817" lon="2.12049">
        <ele>141.89</ele>
        <time>2021-11-20T12:52:48.999Z</time>
      </trkpt>
      <trkpt lat="48.71824" lon="2.12058">
        <ele>141.47</ele>
        <time>2021-11-20T12:53:11.999Z</time>
      </trkpt>
      <trkpt lat="48.71833" lon="2.12067">
        <ele>141.36</ele>
        <time>2021-11-20T12:53:19.999Z</time>
      </trkpt>
      <trkpt lat="48.71841" lon="2.12074">
        <ele>141.26</ele>
        <time>2021-11-20T12:53:25.999Z</time>
      </trkpt>
      <trkpt lat="48.7185" lon="2.12082">
        <ele>141.17</ele>
        <time>2021-11-20T12:53:30.999Z</time>
      </trkpt>
      <trkpt lat="48.71858" lon="2.12088">
        <ele>141.09</ele>
        <time>2021-11-20T12:53:35.999Z</time>
      </trkpt>
      <trkpt lat="48.71865" lon="2.121">
        <ele>140.96</ele>
        <time>2021-11-20T12:53:43.999Z</time>
      </trkpt>
      <trkpt lat="48.71873" lon="2.1211">
        <ele>140.83</ele>
        <time>2021-11-20T12:53:51.999Z</time>
      </trkpt>
      <trkpt lat="48.71881" lon="2.12118">
        <ele>140.72</ele>
        <time>2021-11-20T12:53:59.999Z</time>
      </trkpt>
      <trkpt lat="48.71888" lon="2.12126">
        <ele>140.59</ele>
        <time>2021-11-20T12:54:08.999Z</time>
      </trkpt>
      <trkpt lat="48.71897" lon="2.12131">
        <ele>140.5</ele>
        <time>2021-11-20T12:54:15.999Z</time>
      </trkpt>
      <trkpt lat="48.71905" lon="2.12138">
        <ele>140.43</ele>
        <time>2021-11-20T12:54:22.999Z</time>
      </trkpt>
      <trkpt lat="48.71914" lon="2.12144">
        <ele>140.35</ele>
        <time>2021-11-20T12:54:32.999Z</time>
      </trkpt>
      <trkpt lat="48.71922" lon="2.12153">
        <ele>140.31</ele>
        <time>2021-11-20T12:54:41.999Z</time>
      </trkpt>
      <trkpt lat="48.7193" lon="2.12147">
        <ele>140.23</ele>
        <time>2021-11-20T12:55:26.999Z</time>
      </trkpt>
      <trkpt lat="48.71934" lon="2.12134">
        <ele>140.1</ele>
        <time>2021-11-20T12:55:41.999Z</time>
      </trkpt>
      <trkpt lat="48.71936" lon="2.12121">
        <ele>139.99</ele>
        <time>2021-11-20T12:56:00.999Z</time>
      </trkpt>
      <trkpt lat="48.71941" lon="2.12108">
        <ele>139.93</ele>
        <time>2021-11-20T12:56:11.999Z</time>
      </trkpt>
      <trkpt lat="48.71944" lon="2.12094">
        <ele>139.88</ele>
        <time>2021-11-20T12:56:25.999Z</time>
      </trkpt>
      <trkpt lat="48.71948" lon="2.12082">
        <ele>139.83</ele>
        <time>2021-11-20T12:56:37.999Z</time>
      </trkpt>
      <trkpt lat="48.71953" lon="2.12071">
        <ele>139.79</ele>
        <time>2021-11-20T12:56:49.999Z</time>
      </trkpt>
      <trkpt lat="48.71961" lon="2.1206">
        <ele>139.76</ele>
        <time>2021-11-20T12:57:02.999Z</time>
      </trkpt>
      <trkpt lat="48.71968" lon="2.12049">
        <ele>139.74</ele>
        <time>2021-11-20T12:57:10.999Z</time>
      </trkpt>
      <trkpt lat="48.71975" lon="2.1204">
        <ele>139.72</ele>
        <time>2021-11-20T12:57:20.999Z</time>
      </trkpt>
      <trkpt lat="48.71982" lon="2.12029">
        <ele>139.71</ele>
        <time>2021-11-20T12:57:31.999Z</time>
      </trkpt>
      <trkpt lat="48.71988" lon="2.12018">
        <ele>139.7</ele>
        <time>2021-11-20T12:57:45.999Z</time>
      </trkpt>
      <trkpt lat="48.71993" lon="2.12007">
        <ele>139.7</ele>
        <time>2021-11-20T12:57:55.999Z</time>
      </trkpt>
      <trkpt lat="48.71999" lon="2.11997">
        <ele>139.7</ele>
        <time>2021-11-20T12:58:09.999Z</time>
      </trkpt>
      <trkpt lat="48.72008" lon="2.11988">
        <ele>139.69</ele>
        <time>2021-11-20T12:58:18.999Z</time>
      </trkpt>
      <trkpt lat="48.72016" lon="2.11978">
        <ele>139.68</ele>
        <time>2021-11-20T12:58:30.999Z</time>
      </trkpt>
      <trkpt lat="48.7202" lon="2.11966">
        <ele>139.67</ele>
        <time>2021-11-20T12:58:39.999Z</time>
      </trkpt>
      <trkpt lat="48.72025" lon="2.11953">
        <ele>139.66</ele>
        <time>2021-11-20T12:58:45.999Z</time>
      </trkpt>
      <trkpt lat="48.72027" lon="2.11938">
        <ele>139.66</ele>
        <time>2021-11-20T12:58:51.999Z</time>
      </trkpt>
      <trkpt lat="48.72031" lon="2.11924">
        <ele>139.67</ele>
        <time>2021-11-20T12:59:00.999Z</time>
      </trkpt>
      <trkpt lat="48.72037" lon="2.11913">
        <ele>139.69</ele>
        <time>2021-11-20T12:59:10.999Z</time>
      </trkpt>
      <trkpt lat="48.72041" lon="2.11897">
        <ele>139.7</ele>
        <time>2021-11-20T12:59:21.999Z</time>
      </trkpt>
      <trkpt lat="48.72042" lon="2.11884">
        <ele>139.71</ele>
        <time>2021-11-20T12:59:30Z</time>
      </trkpt>
      <trkpt lat="48.72046" lon="2.1187">
        <ele>139.71</ele>
        <time>2021-11-20T12:59:39Z</time>
      </trkpt>
      <trkpt lat="48.72048" lon="2.11856">
        <ele>139.71</ele>
        <time>2021-11-20T12:59:47Z</time>
      </trkpt>
      <trkpt lat="48.7205" lon="2.11842">
        <ele>139.72</ele>
        <time>2021-11-20T12:59:57Z</time>
      </trkpt>
      <trkpt lat="48.7205" lon="2.11828">
        <ele>139.73</ele>
        <time>2021-11-20T13:00:06Z</time>
      </trkpt>
      <trkpt lat="48.72045" lon="2.11816">
        <ele>139.72</ele>
        <time>2021-11-20T13:00:20Z</time>
      </trkpt>
      <trkpt lat="48.72041" lon="2.11802">
        <ele>139.7</ele>
        <time>2021-11-20T13:00:30Z</time>
      </trkpt>
      <trkpt lat="48.72041" lon="2.11784">
        <ele>139.69</ele>
        <time>2021-11-20T13:00:44Z</time>
      </trkpt>
      <trkpt lat="48.72043" lon="2.11769">
        <ele>139.68</ele>
        <time>2021-11-20T13:00:47Z</time>
      </trkpt>
      <trkpt lat="48.72048" lon="2.11756">
        <ele>139.69</ele>
        <time>2021-11-20T13:00:57Z</time>
      </trkpt>
      <trkpt lat="48.72051" lon="2.11744">
        <ele>139.69</ele>
        <time>2021-11-20T13:01:02Z</time>
      </trkpt>
      <trkpt lat="48.72057" lon="2.11731">
        <ele>139.71</ele>
        <time>2021-11-20T13:01:29Z</time>
      </trkpt>
      <trkpt lat="48.72057" lon="2.11716">
        <ele>139.71</ele>
        <time>2021-11-20T13:01:41Z</time>
      </trkpt>
      <trkpt lat="48.72057" lon="2.11702">
        <ele>139.69</ele>
        <time>2021-11-20T13:01:56Z</time>
      </trkpt>
      <trkpt lat="48.72055" lon="2.11688">
        <ele>139.64</ele>
        <time>2021-11-20T13:02:14Z</time>
      </trkpt>
      <trkpt lat="48.72057" lon="2.11673">
        <ele>139.61</ele>
        <time>2021-11-20T13:02:18Z</time>
      </trkpt>
      <trkpt lat="48.72062" lon="2.11661">
        <ele>139.55</ele>
        <time>2021-11-20T13:02:25Z</time>
      </trkpt>
      <trkpt lat="48.7207" lon="2.1165">
        <ele>139.48</ele>
        <time>2021-11-20T13:02:33Z</time>
      </trkpt>
      <trkpt lat="48.72075" lon="2.11637">
        <ele>139.36</ele>
        <time>2021-11-20T13:02:47Z</time>
      </trkpt>
      <trkpt lat="48.72082" lon="2.11628">
        <ele>139.27</ele>
        <time>2021-11-20T13:02:58Z</time>
      </trkpt>
      <trkpt lat="48.72086" lon="2.11613">
        <ele>139.18</ele>
        <time>2021-11-20T13:03:06Z</time>
      </trkpt>
      <trkpt lat="48.72092" lon="2.11603">
        <ele>139.08</ele>
        <time>2021-11-20T13:03:17Z</time>
      </trkpt>
      <trkpt lat="48.72099" lon="2.11592">
        <ele>138.97</ele>
        <time>2021-11-20T13:03:34Z</time>
      </trkpt>
      <trkpt lat="48.72105" lon="2.11583">
        <ele>138.88</ele>
        <time>2021-11-20T13:03:51Z</time>
      </trkpt>
      <trkpt lat="48.72112" lon="2.11573">
        <ele>138.82</ele>
        <time>2021-11-20T13:04:01Z</time>
      </trkpt>
      <trkpt lat="48.72118" lon="2.11558">
        <ele>138.78</ele>
        <time>2021-11-20T13:04:06Z</time>
      </trkpt>
      <trkpt lat="48.7212" lon="2.11544">
        <ele>138.74</ele>
        <time>2021-11-20T13:04:12Z</time>
      </trkpt>
      <trkpt lat="48.72123" lon="2.11531">
        <ele>138.68</ele>
        <time>2021-11-20T13:04:21Z</time>
      </trkpt>
      <trkpt lat="48.72123" lon="2.11517">
        <ele>138.63</ele>
        <time>2021-11-20T13:04:32Z</time>
      </trkpt>
      <trkpt lat="48.72123" lon="2.11502">
        <ele>138.58</ele>
        <time>2021-11-20T13:04:44Z</time>
      </trkpt>
      <trkpt lat="48.72126" lon="2.11489">
        <ele>138.55</ele>
        <time>2021-11-20T13:04:53Z</time>
      </trkpt>
      <trkpt lat="48.72124" lon="2.11476">
        <ele>138.53</ele>
        <time>2021-11-20T13:05:08Z</time>
      </trkpt>
      <trkpt lat="48.7213" lon="2.11464">
        <ele>138.6</ele>
        <time>2021-11-20T13:05:57Z</time>
      </trkpt>
      <trkpt lat="48.72136" lon="2.11453">
        <ele>138.64</ele>
        <time>2021-11-20T13:06:08Z</time>
      </trkpt>
      <trkpt lat="48.72144" lon="2.11444">
        <ele>138.64</ele>
        <time>2021-11-20T13:06:14Z</time>
      </trkpt>
      <trkpt lat="48.72152" lon="2.11435">
        <ele>138.66</ele>
        <time>2021-11-20T13:06:24Z</time>
      </trkpt>
      <trkpt lat="48.72159" lon="2.11426">
        <ele>138.68</ele>
        <time>2021-11-20T13:06:31Z</time>
      </trkpt>
      <trkpt lat="48.72167" lon="2.1142">
        <ele>138.7</ele>
        <time>2021-11-20T13:06:39Z</time>
      </trkpt>
      <trkpt lat="48.72176" lon="2.11413">
        <ele>138.74</ele>
        <time>2021-11-20T13:06:48Z</time>
      </trkpt>
      <trkpt lat="48.72184" lon="2.11405">
        <ele>138.78</ele>
        <time>2021-11-20T13:06:58Z</time>
      </trkpt>
      <trkpt lat="48.7219" lon="2.11393">
        <ele>138.81</ele>
        <time>2021-11-20T13:07:07Z</time>
      </trkpt>
      <trkpt lat="48.72198" lon="2.11384">
        <ele>138.83</ele>
        <time>2021-11-20T13:07:13Z</time>
      </trkpt>
      <trkpt lat="48.72204" lon="2.11374">
        <ele>138.86</ele>
        <time>2021-11-20T13:07:23Z</time>
      </trkpt>
      <trkpt lat="48.72209" lon="2.11361">
        <ele>138.88</ele>
        <time>2021-11-20T13:07:31Z</time>
      </trkpt>
      <trkpt lat="48.72216" lon="2.11351">
        <ele>138.9</ele>
        <time>2021-11-20T13:07:36Z</time>
      </trkpt>
      <trkpt lat="48.72225" lon="2.11345">
        <ele>138.93</ele>
        <time>2021-11-20T13:07:46Z</time>
      </trkpt>
      <trkpt lat="48.72232" lon="2.11338">
        <ele>138.94</ele>
        <time>2021-11-20T13:07:55Z</time>
      </trkpt>
      <trkpt lat="48.72241" lon="2.11332">
        <ele>138.93</ele>
        <time>2021-11-20T13:08:02Z</time>
      </trkpt>
      <trkpt lat="48.72249" lon="2.11321">
        <ele>138.92</ele>
        <time>2021-11-20T13:08:10Z</time>
      </trkpt>
      <trkpt lat="48.72255" lon="2.11309">
        <ele>138.92</ele>
        <time>2021-11-20T13:08:16Z</time>
      </trkpt>
      <trkpt lat="48.72259" lon="2.11296">
        <ele>138.91</ele>
        <time>2021-11-20T13:08:23Z</time>
      </trkpt>
      <trkpt lat="48.72267" lon="2.11287">
        <ele>138.91</ele>
        <time>2021-11-20T13:08:33Z</time>
      </trkpt>
      <trkpt lat="48.72274" lon="2.11277">
        <ele>138.9</ele>
        <time>2021-11-20T13:08:45Z</time>
      </trkpt>
      <trkpt lat="48.72278" lon="2.11264">
        <ele>138.81</ele>
        <time>2021-11-20T13:09:32Z</time>
      </trkpt>
      <trkpt lat="48.72287" lon="2.1126">
        <ele>138.56</ele>
        <time>2021-11-20T13:10:49Z</time>
      </trkpt>
      <trkpt lat="48.72295" lon="2.11252">
        <ele>138.42</ele>
        <time>2021-11-20T13:11:30Z</time>
      </trkpt>
      <trkpt lat="48.72298" lon="2.11239">
        <ele>138.39</ele>
        <time>2021-11-20T13:11:40Z</time>
      </trkpt>
      <trkpt lat="48.72302" lon="2.11226">
        <ele>138.38</ele>
        <time>2021-11-20T13:11:51Z</time>
      </trkpt>
      <trkpt lat="48.72307" lon="2.11213">
        <ele>138.39</ele>
        <time>2021-11-20T13:12:04Z</time>
      </trkpt>
      <trkpt lat="48.72312" lon="2.112">
        <ele>138.4</ele>
        <time>2021-11-20T13:12:16Z</time>
      </trkpt>
      <trkpt lat="48.72321" lon="2.11192">
        <ele>138.41</ele>
        <time>2021-11-20T13:12:26Z</time>
      </trkpt>
      <trkpt lat="48.72329" lon="2.11187">
        <ele>138.43</ele>
        <time>2021-11-20T13:12:35Z</time>
      </trkpt>
      <trkpt lat="48.72335" lon="2.11175">
        <ele>138.44</ele>
        <time>2021-11-20T13:12:42Z</time>
      </trkpt>
      <trkpt lat="48.72344" lon="2.11167">
        <ele>138.47</ele>
        <time>2021-11-20T13:12:53Z</time>
      </trkpt>
      <trkpt lat="48.72354" lon="2.11167">
        <ele>138.53</ele>
        <time>2021-11-20T13:13:01Z</time>
      </trkpt>
      <trkpt lat="48.72364" lon="2.11169">
        <ele>138.69</ele>
        <time>2021-11-20T13:13:23Z</time>
      </trkpt>
      <trkpt lat="48.72374" lon="2.11163">
        <ele>138.78</ele>
        <time>2021-11-20T13:13:29Z</time>
      </trkpt>
      <trkpt lat="48.72383" lon="2.11163">
        <ele>138.83</ele>
        <time>2021-11-20T13:13:33Z</time>
      </trkpt>
      <trkpt lat="48.72392" lon="2.1116">
        <ele>138.95</ele>
        <time>2021-11-20T13:13:42Z</time>
      </trkpt>
      <trkpt lat="48.72403" lon="2.1116">
        <ele>139.07</ele>
        <time>2021-11-20T13:13:52Z</time>
      </trkpt>
      <trkpt lat="48.72412" lon="2.11156">
        <ele>139.15</ele>
        <time>2021-11-20T13:13:59Z</time>
      </trkpt>
      <trkpt lat="48.72421" lon="2.1115">
        <ele>139.19</ele>
        <time>2021-11-20T13:14:05Z</time>
      </trkpt>
      <trkpt lat="48.72428" lon="2.11143">
        <ele>139.25</ele>
        <time>2021-11-20T13:14:15Z</time>
      </trkpt>
      <trkpt lat="48.72437" lon="2.11135">
        <ele>139.32</ele>
        <time>2021-11-20T13:14:24Z</time>
      </trkpt>
      <trkpt lat="48.72445" lon="2.11129">
        <ele>139.35</ele>
        <time>2021-11-20T13:14:33Z</time>
      </trkpt>
      <trkpt lat="48.72451" lon="2.11119">
        <ele>139.36</ele>
        <time>2021-11-20T13:14:40Z</time>
      </trkpt>
      <trkpt lat="48.72458" lon="2.1111">
        <ele>139.41</ele>
        <time>2021-11-20T13:14:51Z</time>
      </trkpt>
      <trkpt lat="48.72466" lon="2.11099">
        <ele>139.54</ele>
        <time>2021-11-20T13:15:03Z</time>
      </trkpt>
      <trkpt lat="48.72472" lon="2.11089">
        <ele>139.65</ele>
        <time>2021-11-20T13:15:14Z</time>
      </trkpt>
      <trkpt lat="48.72479" lon="2.1108">
        <ele>139.71</ele>
        <time>2021-11-20T13:15:20Z</time>
      </trkpt>
      <trkpt lat="48.72488" lon="2.11073">
        <ele>139.81</ele>
        <time>2021-11-20T13:15:27Z</time>
      </trkpt>
      <trkpt lat="48.72495" lon="2.11063">
        <ele>139.91</ele>
        <time>2021-11-20T13:15:34Z</time>
      </trkpt>
      <trkpt lat="48.72502" lon="2.11054">
        <ele>140.04</ele>
        <time>2021-11-20T13:15:42Z</time>
      </trkpt>
      <trkpt lat="48.72511" lon="2.11049">
        <ele>140.19</ele>
        <time>2021-11-20T13:15:50Z</time>
      </trkpt>
      <trkpt lat="48.72518" lon="2.11039">
        <ele>140.37</ele>
        <time>2021-11-20T13:15:59Z</time>
      </trkpt>
      <trkpt lat="48.72525" lon="2.1103">
        <ele>140.56</ele>
        <time>2021-11-20T13:16:11Z</time>
      </trkpt>
      <trkpt lat="48.72532" lon="2.1102">
        <ele>140.65</ele>
        <time>2021-11-20T13:16:18Z</time>
      </trkpt>
      <trkpt lat="48.72539" lon="2.1101">
        <ele>140.76</ele>
        <time>2021-11-20T13:16:28Z</time>
      </trkpt>
      <trkpt lat="48.72546" lon="2.11001">
        <ele>140.83</ele>
        <time>2021-11-20T13:16:36Z</time>
      </trkpt>
      <trkpt lat="48.72554" lon="2.10991">
        <ele>140.87</ele>
        <time>2021-11-20T13:16:45Z</time>
      </trkpt>
      <trkpt lat="48.72561" lon="2.10981">
        <ele>140.9</ele>
        <time>2021-11-20T13:16:54Z</time>
      </trkpt>
      <trkpt lat="48.72569" lon="2.10972">
        <ele>140.92</ele>
        <time>2021-11-20T13:17:04Z</time>
      </trkpt>
      <trkpt lat="48.72577" lon="2.10966">
        <ele>140.99</ele>
        <time>2021-11-20T13:17:13Z</time>
      </trkpt>
      <trkpt lat="48.72586" lon="2.1096">
        <ele>141.19</ele>
        <time>2021-11-20T13:17:28.999Z</time>
      </trkpt>
      <trkpt lat="48.72596" lon="2.10958">
        <ele>141.3</ele>
        <time>2021-11-20T13:17:35.999Z</time>
      </trkpt>
      <trkpt lat="48.72605" lon="2.10954">
        <ele>141.4</ele>
        <time>2021-11-20T13:17:43.999Z</time>
      </trkpt>
      <trkpt lat="48.72614" lon="2.1095">
        <ele>141.49</ele>
        <time>2021-11-20T13:17:50.999Z</time>
      </trkpt>
      <trkpt lat="48.72623" lon="2.10945">
        <ele>141.61</ele>
        <time>2021-11-20T13:17:58.999Z</time>
      </trkpt>
      <trkpt lat="48.72631" lon="2.10934">
        <ele>141.75</ele>
        <time>2021-11-20T13:18:08.999Z</time>
      </trkpt>
      <trkpt lat="48.72639" lon="2.10927">
        <ele>141.83</ele>
        <time>2021-11-20T13:18:15.999Z</time>
      </trkpt>
      <trkpt lat="48.72648" lon="2.10925">
        <ele>141.89</ele>
        <time>2021-11-20T13:18:21.999Z</time>
      </trkpt>
      <trkpt lat="48.72657" lon="2.10919">
        <ele>141.98</ele>
        <time>2021-11-20T13:18:30.999Z</time>
      </trkpt>
      <trkpt lat="48.72665" lon="2.10912">
        <ele>142.06</ele>
        <time>2021-11-20T13:18:38.999Z</time>
      </trkpt>
      <trkpt lat="48.72675" lon="2.10909">
        <ele>142.15</ele>
        <time>2021-11-20T13:18:48.999Z</time>
      </trkpt>
      <trkpt lat="48.72683" lon="2.10904">
        <ele>142.25</ele>
        <time>2021-11-20T13:18:57.999Z</time>
      </trkpt>
      <trkpt lat="48.72692" lon="2.10902">
        <ele>142.34</ele>
        <time>2021-11-20T13:19:05.999Z</time>
      </trkpt>
      <trkpt lat="48.72701" lon="2.10896">
        <ele>142.44</ele>
        <time>2021-11-20T13:19:15.999Z</time>
      </trkpt>
      <trkpt lat="48.72711" lon="2.10895">
        <ele>142.53</ele>
        <time>2021-11-20T13:19:24.999Z</time>
      </trkpt>
      <trkpt lat="48.7272" lon="2.1089">
        <ele>142.65</ele>
        <time>2021-11-20T13:19:39.999Z</time>
      </trkpt>
      <trkpt lat="48.72728" lon="2.10884">
        <ele>142.73</ele>
        <time>2021-11-20T13:19:48.999Z</time>
      </trkpt>
      <trkpt lat="48.72736" lon="2.10875">
        <ele>142.79</ele>
        <time>2021-11-20T13:19:54.999Z</time>
      </trkpt>
      <trkpt lat="48.72743" lon="2.10865">
        <ele>142.83</ele>
        <time>2021-11-20T13:20:01.999Z</time>
      </trkpt>
      <trkpt lat="48.72751" lon="2.1086">
        <ele>142.88</ele>
        <time>2021-11-20T13:20:08.999Z</time>
      </trkpt>
      <trkpt lat="48.72759" lon="2.10852">
        <ele>142.95</ele>
        <time>2021-11-20T13:20:17.999Z</time>
      </trkpt>
      <trkpt lat="48.72768" lon="2.10851">
        <ele>143</ele>
        <time>2021-11-20T13:20:25.999Z</time>
      </trkpt>
      <trkpt lat="48.72778" lon="2.10848">
        <ele>143.05</ele>
        <time>2021-11-20T13:20:35.999Z</time>
      </trkpt>
      <trkpt lat="48.72785" lon="2.10838">
        <ele>143.08</ele>
        <time>2021-11-20T13:20:47.999Z</time>
      </trkpt>
      <trkpt lat="48.72795" lon="2.10837">
        <ele>143.11</ele>
        <time>2021-11-20T13:20:57.999Z</time>
      </trkpt>
      <trkpt lat="48.72803" lon="2.10831">
        <ele>143.28</ele>
        <time>2021-11-20T13:21:39.999Z</time>
      </trkpt>
      <trkpt lat="48.72808" lon="2.10819">
        <ele>143.37</ele>
        <time>2021-11-20T13:21:49.999Z</time>
      </trkpt>
      <trkpt lat="48.72815" lon="2.10809">
        <ele>143.44</ele>
        <time>2021-11-20T13:21:59.999Z</time>
      </trkpt>
      <trkpt lat="48.72824" lon="2.10812">
        <ele>143.57</ele>
        <time>2021-11-20T13:22:12.999Z</time>
      </trkpt>
      <trkpt lat="48.72833" lon="2.10814">
        <ele>143.73</ele>
        <time>2021-11-20T13:22:24.999Z</time>
      </trkpt>
      <trkpt lat="48.72843" lon="2.10814">
        <ele>143.87</ele>
        <time>2021-11-20T13:22:33.999Z</time>
      </trkpt>
      <trkpt lat="48.72851" lon="2.10822">
        <ele>143.99</ele>
        <time>2021-11-20T13:22:45.999Z</time>
      </trkpt>
      <trkpt lat="48.72859" lon="2.10817">
        <ele>144.08</ele>
        <time>2021-11-20T13:22:56.999Z</time>
      </trkpt>
      <trkpt lat="48.72869" lon="2.10818">
        <ele>144.38</ele>
        <time>2021-11-20T13:23:12.999Z</time>
      </trkpt>
      <trkpt lat="48.72878" lon="2.10813">
        <ele>144.68</ele>
        <time>2021-11-20T13:23:25.999Z</time>
      </trkpt>
      <trkpt lat="48.72885" lon="2.10803">
        <ele>144.89</ele>
        <time>2021-11-20T13:23:34.999Z</time>
      </trkpt>
      <trkpt lat="48.72894" lon="2.108">
        <ele>145.3</ele>
        <time>2021-11-20T13:23:48.999Z</time>
      </trkpt>
      <trkpt lat="48.72902" lon="2.10791">
        <ele>145.68</ele>
        <time>2021-11-20T13:23:59.999Z</time>
      </trkpt>
      <trkpt lat="48.72911" lon="2.10784">
        <ele>146.04</ele>
        <time>2021-11-20T13:24:11.999Z</time>
      </trkpt>
      <trkpt lat="48.72918" lon="2.10774">
        <ele>146.4</ele>
        <time>2021-11-20T13:24:22.999Z</time>
      </trkpt>
      <trkpt lat="48.72924" lon="2.10762">
        <ele>147.03</ele>
        <time>2021-11-20T13:24:36.999Z</time>
      </trkpt>
      <trkpt lat="48.72932" lon="2.10755">
        <ele>147.6</ele>
        <time>2021-11-20T13:24:46.999Z</time>
      </trkpt>
      <trkpt lat="48.72938" lon="2.10744">
        <ele>148.35</ele>
        <time>2021-11-20T13:24:58.999Z</time>
      </trkpt>
      <trkpt lat="48.72945" lon="2.10736">
        <ele>149.02</ele>
        <time>2021-11-20T13:25:07.999Z</time>
      </trkpt>
      <trkpt lat="48.72952" lon="2.10724">
        <ele>149.55</ele>
        <time>2021-11-20T13:25:14.999Z</time>
      </trkpt>
      <trkpt lat="48.72961" lon="2.10717">
        <ele>150.41</ele>
        <time>2021-11-20T13:25:25.999Z</time>
      </trkpt>
      <trkpt lat="48.72967" lon="2.10706">
        <ele>151.39</ele>
        <time>2021-11-20T13:25:37.999Z</time>
      </trkpt>
      <trkpt lat="48.72974" lon="2.10698">
        <ele>152.57</ele>
        <time>2021-11-20T13:25:51.999Z</time>
      </trkpt>
      <trkpt lat="48.72983" lon="2.10696">
        <ele>153.17</ele>
        <time>2021-11-20T13:25:59.999Z</time>
      </trkpt>
      <trkpt lat="48.72992" lon="2.10691">
        <ele>154.2</ele>
        <time>2021-11-20T13:26:10.999Z</time>
      </trkpt>
      <trkpt lat="48.73001" lon="2.10687">
        <ele>155.4</ele>
        <time>2021-11-20T13:26:22.999Z</time>
      </trkpt>
      <trkpt lat="48.73011" lon="2.10681">
        <ele>156.55</ele>
        <time>2021-11-20T13:26:36.999Z</time>
      </trkpt>
      <trkpt lat="48.7302" lon="2.10674">
        <ele>158.19</ele>
        <time>2021-11-20T13:26:57.999Z</time>
      </trkpt>
      <trkpt lat="48.7303" lon="2.10673">
        <ele>158.88</ele>
        <time>2021-11-20T13:27:07.999Z</time>
      </trkpt>
      <trkpt lat="48.7304" lon="2.10671">
        <ele>160.09</ele>
        <time>2021-11-20T13:27:21.999Z</time>
      </trkpt>
      <trkpt lat="48.73047" lon="2.10663">
        <ele>160.94</ele>
        <time>2021-11-20T13:27:36.999Z</time>
      </trkpt>
      <trkpt lat="48.73052" lon="2.10674">
        <ele>162.29</ele>
        <time>2021-11-20T13:27:53.999Z</time>
      </trkpt>
      <trkpt lat="48.73048" lon="2.10688">
        <ele>163.37</ele>
        <time>2021-11-20T13:28:06.999Z</time>
      </trkpt>
      <trkpt lat="48.73042" lon="2.10698">
        <ele>164.45</ele>
        <time>2021-11-20T13:28:25.999Z</time>
      </trkpt>
      <trkpt lat="48.73035" lon="2.10708">
        <ele>165.38</ele>
        <time>2021-11-20T13:28:40.999Z</time>
      </trkpt>
      <trkpt lat="48.73028" lon="2.10715">
        <ele>166.45</ele>
        <time>2021-11-20T13:28:55.999Z</time>
      </trkpt>
      <trkpt lat="48.73023" lon="2.10728">
        <ele>167.81</ele>
        <time>2021-11-20T13:29:10.999Z</time>
      </trkpt>
      <trkpt lat="48.73015" lon="2.10737">
        <ele>168.56</ele>
        <time>2021-11-20T13:29:21.999Z</time>
      </trkpt>
      <trkpt lat="48.73012" lon="2.10755">
        <ele>169.37</ele>
        <time>2021-11-20T13:29:33.999Z</time>
      </trkpt>
      <trkpt lat="48.7302" lon="2.10765">
        <ele>170.51</ele>
        <time>2021-11-20T13:29:48.999Z</time>
      </trkpt>
      <trkpt lat="48.73029" lon="2.10765">
        <ele>171.75</ele>
        <time>2021-11-20T13:30:00.999Z</time>
      </trkpt>
      <trkpt lat="48.73038" lon="2.10768">
        <ele>172.53</ele>
        <time>2021-11-20T13:30:08.999Z</time>
      </trkpt>
      <trkpt lat="48.73047" lon="2.10768">
        <ele>173.45</ele>
        <time>2021-11-20T13:30:16.999Z</time>
      </trkpt>
      <trkpt lat="48.73056" lon="2.10776">
        <ele>174.48</ele>
        <time>2021-11-20T13:30:25.999Z</time>
      </trkpt>
      <trkpt lat="48.73064" lon="2.10784">
        <ele>175.8</ele>
        <time>2021-11-20T13:30:37.999Z</time>
      </trkpt>
      <trkpt lat="48.73073" lon="2.10789">
        <ele>176.98</ele>
        <time>2021-11-20T13:30:50.999Z</time>
      </trkpt>
      <trkpt lat="48.73082" lon="2.10796">
        <ele>177.68</ele>
        <time>2021-11-20T13:30:57.999Z</time>
      </trkpt>
      <trkpt lat="48.7309" lon="2.10803">
        <ele>178.59</ele>
        <time>2021-11-20T13:31:05.999Z</time>
      </trkpt>
      <trkpt lat="48.73099" lon="2.10805">
        <ele>179.3</ele>
        <time>2021-11-20T13:31:11.999Z</time>
      </trkpt>
      <trkpt lat="48.73108" lon="2.10813">
        <ele>181.89</ele>
        <time>2021-11-20T13:31:33.999Z</time>
      </trkpt>
      <trkpt lat="48.73115" lon="2.10821">
        <ele>183.45</ele>
        <time>2021-11-20T13:31:47.999Z</time>
      </trkpt>
      <trkpt lat="48.73122" lon="2.10829">
        <ele>185.07</ele>
        <time>2021-11-20T13:32:03.999Z</time>
      </trkpt>
      <trkpt lat="48.73129" lon="2.1084">
        <ele>186.25</ele>
        <time>2021-11-20T13:32:20.999Z</time>
      </trkpt>
      <trkpt lat="48.73136" lon="2.10848">
        <ele>187.31</ele>
        <time>2021-11-20T13:32:32.999Z</time>
      </trkpt>
      <trkpt lat="48.73145" lon="2.10858">
        <ele>188</ele>
        <time>2021-11-20T13:32:39.999Z</time>
      </trkpt>
      <trkpt lat="48.73154" lon="2.10862">
        <ele>189.15</ele>
        <time>2021-11-20T13:32:51.999Z</time>
      </trkpt>
      <trkpt lat="48.73163" lon="2.10868">
        <ele>190.08</ele>
        <time>2021-11-20T13:32:59.999Z</time>
      </trkpt>
      <trkpt lat="48.73169" lon="2.10868">
        <ele>194.54</ele>
        <time>2021-11-20T13:35:00.999Z</time>
      </trkpt>
      <trkpt lat="48.73171" lon="2.10884">
        <ele>197.02</ele>
        <time>2021-11-20T13:36:14Z</time>
      </trkpt>
      <trkpt lat="48.7317" lon="2.10898">
        <ele>197.77</ele>
        <time>2021-11-20T13:36:22Z</time>
      </trkpt>
      <trkpt lat="48.73169" lon="2.10912">
        <ele>198.66</ele>
        <time>2021-11-20T13:36:33Z</time>
      </trkpt>
      <trkpt lat="48.73165" lon="2.10926">
        <ele>199.35</ele>
        <time>2021-11-20T13:36:43Z</time>
      </trkpt>
      <trkpt lat="48.73163" lon="2.1094">
        <ele>199.77</ele>
        <time>2021-11-20T13:36:50Z</time>
      </trkpt>
      <trkpt lat="48.73162" lon="2.10954">
        <ele>200.2</ele>
        <time>2021-11-20T13:36:58Z</time>
      </trkpt>
      <trkpt lat="48.7316" lon="2.10969">
        <ele>200.64</ele>
        <time>2021-11-20T13:37:07Z</time>
      </trkpt>
      <trkpt lat="48.73157" lon="2.10981">
        <ele>200.96</ele>
        <time>2021-11-20T13:37:15Z</time>
      </trkpt>
      <trkpt lat="48.73156" lon="2.10996">
        <ele>201.31</ele>
        <time>2021-11-20T13:37:25Z</time>
      </trkpt>
      <trkpt lat="48.73156" lon="2.1101">
        <ele>201.56</ele>
        <time>2021-11-20T13:37:33Z</time>
      </trkpt>
      <trkpt lat="48.73153" lon="2.11024">
        <ele>201.85</ele>
        <time>2021-11-20T13:37:43Z</time>
      </trkpt>
      <trkpt lat="48.73151" lon="2.11037">
        <ele>202.06</ele>
        <time>2021-11-20T13:37:51Z</time>
      </trkpt>
      <trkpt lat="48.73147" lon="2.1105">
        <ele>202.29</ele>
        <time>2021-11-20T13:38:02Z</time>
      </trkpt>
      <trkpt lat="48.73146" lon="2.11064">
        <ele>202.44</ele>
        <time>2021-11-20T13:38:11Z</time>
      </trkpt>
      <trkpt lat="48.73144" lon="2.11079">
        <ele>202.56</ele>
        <time>2021-11-20T13:38:19Z</time>
      </trkpt>
      <trkpt lat="48.73141" lon="2.11093">
        <ele>202.69</ele>
        <time>2021-11-20T13:38:28Z</time>
      </trkpt>
      <trkpt lat="48.73137" lon="2.11107">
        <ele>202.8</ele>
        <time>2021-11-20T13:38:37Z</time>
      </trkpt>
      <trkpt lat="48.73134" lon="2.1112">
        <ele>202.87</ele>
        <time>2021-11-20T13:38:44Z</time>
      </trkpt>
      <trkpt lat="48.73133" lon="2.11134">
        <ele>202.92</ele>
        <time>2021-11-20T13:38:51Z</time>
      </trkpt>
      <trkpt lat="48.73131" lon="2.11147">
        <ele>202.97</ele>
        <time>2021-11-20T13:38:59Z</time>
      </trkpt>
      <trkpt lat="48.7313" lon="2.11161">
        <ele>203.02</ele>
        <time>2021-11-20T13:39:08Z</time>
      </trkpt>
      <trkpt lat="48.73126" lon="2.11175">
        <ele>203.05</ele>
        <time>2021-11-20T13:39:15Z</time>
      </trkpt>
      <trkpt lat="48.73125" lon="2.11191">
        <ele>203.07</ele>
        <time>2021-11-20T13:39:24Z</time>
      </trkpt>
      <trkpt lat="48.73125" lon="2.11207">
        <ele>203.09</ele>
        <time>2021-11-20T13:39:33Z</time>
      </trkpt>
      <trkpt lat="48.73123" lon="2.11223">
        <ele>203.11</ele>
        <time>2021-11-20T13:39:41Z</time>
      </trkpt>
      <trkpt lat="48.73121" lon="2.11237">
        <ele>203.13</ele>
        <time>2021-11-20T13:39:50Z</time>
      </trkpt>
      <trkpt lat="48.73121" lon="2.11252">
        <ele>203.15</ele>
        <time>2021-11-20T13:39:57Z</time>
      </trkpt>
      <trkpt lat="48.73119" lon="2.11266">
        <ele>203.17</ele>
        <time>2021-11-20T13:40:05Z</time>
      </trkpt>
      <trkpt lat="48.73118" lon="2.1128">
        <ele>203.21</ele>
        <time>2021-11-20T13:40:17Z</time>
      </trkpt>
      <trkpt lat="48.73115" lon="2.11294">
        <ele>203.23</ele>
        <time>2021-11-20T13:40:26Z</time>
      </trkpt>
      <trkpt lat="48.73111" lon="2.11308">
        <ele>203.25</ele>
        <time>2021-11-20T13:40:34Z</time>
      </trkpt>
      <trkpt lat="48.7311" lon="2.11321">
        <ele>203.27</ele>
        <time>2021-11-20T13:40:41Z</time>
      </trkpt>
      <trkpt lat="48.73107" lon="2.11335">
        <ele>203.28</ele>
        <time>2021-11-20T13:40:48Z</time>
      </trkpt>
      <trkpt lat="48.73104" lon="2.11348">
        <ele>203.29</ele>
        <time>2021-11-20T13:40:57Z</time>
      </trkpt>
      <trkpt lat="48.73101" lon="2.11362">
        <ele>203.29</ele>
        <time>2021-11-20T13:41:06Z</time>
      </trkpt>
      <trkpt lat="48.73097" lon="2.11374">
        <ele>203.3</ele>
        <time>2021-11-20T13:41:15Z</time>
      </trkpt>
      <trkpt lat="48.73091" lon="2.11387">
        <ele>203.29</ele>
        <time>2021-11-20T13:41:25Z</time>
      </trkpt>
      <trkpt lat="48.73085" lon="2.11397">
        <ele>203.28</ele>
        <time>2021-11-20T13:41:34Z</time>
      </trkpt>
      <trkpt lat="48.7308" lon="2.11409">
        <ele>203.27</ele>
        <time>2021-11-20T13:41:42Z</time>
      </trkpt>
      <trkpt lat="48.73074" lon="2.1142">
        <ele>203.26</ele>
        <time>2021-11-20T13:41:51Z</time>
      </trkpt>
      <trkpt lat="48.73068" lon="2.11432">
        <ele>203.26</ele>
        <time>2021-11-20T13:42:02Z</time>
      </trkpt>
      <trkpt lat="48.73064" lon="2.11445">
        <ele>203.25</ele>
        <time>2021-11-20T13:42:09Z</time>
      </trkpt>
      <trkpt lat="48.73059" lon="2.11458">
        <ele>203.25</ele>
        <time>2021-11-20T13:42:17Z</time>
      </trkpt>
      <trkpt lat="48.73054" lon="2.1147">
        <ele>203.24</ele>
        <time>2021-11-20T13:42:24Z</time>
      </trkpt>
      <trkpt lat="48.73048" lon="2.1148">
        <ele>203.22</ele>
        <time>2021-11-20T13:42:40Z</time>
      </trkpt>
      <trkpt lat="48.73043" lon="2.11492">
        <ele>203.22</ele>
        <time>2021-11-20T13:42:48Z</time>
      </trkpt>
      <trkpt lat="48.73036" lon="2.11503">
        <ele>203.2</ele>
        <time>2021-11-20T13:42:56Z</time>
      </trkpt>
      <trkpt lat="48.73031" lon="2.11515">
        <ele>203.18</ele>
        <time>2021-11-20T13:43:04Z</time>
      </trkpt>
      <trkpt lat="48.73026" lon="2.11526">
        <ele>203.16</ele>
        <time>2021-11-20T13:43:12Z</time>
      </trkpt>
      <trkpt lat="48.73018" lon="2.11536">
        <ele>203.14</ele>
        <time>2021-11-20T13:43:21Z</time>
      </trkpt>
      <trkpt lat="48.73012" lon="2.11548">
        <ele>203.11</ele>
        <time>2021-11-20T13:43:35Z</time>
      </trkpt>
      <trkpt lat="48.73007" lon="2.1156">
        <ele>203.1</ele>
        <time>2021-11-20T13:43:43Z</time>
      </trkpt>
      <trkpt lat="48.73001" lon="2.11572">
        <ele>203.09</ele>
        <time>2021-11-20T13:43:50Z</time>
      </trkpt>
      <trkpt lat="48.72997" lon="2.11584">
        <ele>203.09</ele>
        <time>2021-11-20T13:43:59Z</time>
      </trkpt>
      <trkpt lat="48.7299" lon="2.11595">
        <ele>203.08</ele>
        <time>2021-11-20T13:44:08Z</time>
      </trkpt>
      <trkpt lat="48.72984" lon="2.11605">
        <ele>203.07</ele>
        <time>2021-11-20T13:44:17Z</time>
      </trkpt>
      <trkpt lat="48.72978" lon="2.11615">
        <ele>203.06</ele>
        <time>2021-11-20T13:44:27Z</time>
      </trkpt>
      <trkpt lat="48.72979" lon="2.11631">
        <ele>203.05</ele>
        <time>2021-11-20T13:44:36Z</time>
      </trkpt>
      <trkpt lat="48.7298" lon="2.11645">
        <ele>203.04</ele>
        <time>2021-11-20T13:44:45Z</time>
      </trkpt>
      <trkpt lat="48.72973" lon="2.11655">
        <ele>203.02</ele>
        <time>2021-11-20T13:44:56Z</time>
      </trkpt>
      <trkpt lat="48.72967" lon="2.11666">
        <ele>203.01</ele>
        <time>2021-11-20T13:45:03Z</time>
      </trkpt>
      <trkpt lat="48.72961" lon="2.11677">
        <ele>203</ele>
        <time>2021-11-20T13:45:10Z</time>
      </trkpt>
      <trkpt lat="48.72955" lon="2.11687">
        <ele>202.99</ele>
        <time>2021-11-20T13:45:20Z</time>
      </trkpt>
      <trkpt lat="48.72948" lon="2.11699">
        <ele>202.98</ele>
        <time>2021-11-20T13:45:29Z</time>
      </trkpt>
      <trkpt lat="48.72941" lon="2.11709">
        <ele>202.97</ele>
        <time>2021-11-20T13:45:37Z</time>
      </trkpt>
      <trkpt lat="48.72937" lon="2.11722">
        <ele>202.97</ele>
        <time>2021-11-20T13:45:44Z</time>
      </trkpt>
      <trkpt lat="48.7293" lon="2.11732">
        <ele>202.96</ele>
        <time>2021-11-20T13:45:54Z</time>
      </trkpt>
      <trkpt lat="48.72925" lon="2.11743">
        <ele>202.95</ele>
        <time>2021-11-20T13:46:02Z</time>
      </trkpt>
      <trkpt lat="48.72919" lon="2.11753">
        <ele>202.94</ele>
        <time>2021-11-20T13:46:10Z</time>
      </trkpt>
      <trkpt lat="48.72912" lon="2.11764">
        <ele>202.93</ele>
        <time>2021-11-20T13:46:18Z</time>
      </trkpt>
      <trkpt lat="48.72911" lon="2.11779">
        <ele>202.9</ele>
        <time>2021-11-20T13:46:27Z</time>
      </trkpt>
      <trkpt lat="48.72913" lon="2.11794">
        <ele>202.87</ele>
        <time>2021-11-20T13:46:36Z</time>
      </trkpt>
      <trkpt lat="48.72915" lon="2.11808">
        <ele>202.85</ele>
        <time>2021-11-20T13:46:43Z</time>
      </trkpt>
      <trkpt lat="48.72918" lon="2.11821">
        <ele>202.82</ele>
        <time>2021-11-20T13:46:50Z</time>
      </trkpt>
      <trkpt lat="48.72919" lon="2.11836">
        <ele>202.8</ele>
        <time>2021-11-20T13:46:58Z</time>
      </trkpt>
      <trkpt lat="48.72922" lon="2.11851">
        <ele>202.78</ele>
        <time>2021-11-20T13:47:05Z</time>
      </trkpt>
      <trkpt lat="48.72926" lon="2.11864">
        <ele>202.75</ele>
        <time>2021-11-20T13:47:13Z</time>
      </trkpt>
      <trkpt lat="48.72928" lon="2.11878">
        <ele>202.73</ele>
        <time>2021-11-20T13:47:22Z</time>
      </trkpt>
      <trkpt lat="48.72931" lon="2.11891">
        <ele>202.7</ele>
        <time>2021-11-20T13:47:31Z</time>
      </trkpt>
      <trkpt lat="48.72933" lon="2.11906">
        <ele>202.68</ele>
        <time>2021-11-20T13:47:38Z</time>
      </trkpt>
      <trkpt lat="48.72934" lon="2.1192">
        <ele>202.66</ele>
        <time>2021-11-20T13:47:46Z</time>
      </trkpt>
      <trkpt lat="48.72936" lon="2.11934">
        <ele>202.64</ele>
        <time>2021-11-20T13:47:55Z</time>
      </trkpt>
      <trkpt lat="48.7294" lon="2.11948">
        <ele>202.62</ele>
        <time>2021-11-20T13:48:04Z</time>
      </trkpt>
      <trkpt lat="48.72942" lon="2.11962">
        <ele>202.61</ele>
        <time>2021-11-20T13:48:11Z</time>
      </trkpt>
      <trkpt lat="48.72942" lon="2.11977">
        <ele>202.57</ele>
        <time>2021-11-20T13:48:26Z</time>
      </trkpt>
      <trkpt lat="48.72945" lon="2.11991">
        <ele>202.55</ele>
        <time>2021-11-20T13:48:34Z</time>
      </trkpt>
      <trkpt lat="48.72948" lon="2.12006">
        <ele>202.52</ele>
        <time>2021-11-20T13:48:43Z</time>
      </trkpt>
      <trkpt lat="48.72951" lon="2.1202">
        <ele>202.49</ele>
        <time>2021-11-20T13:48:52Z</time>
      </trkpt>
      <trkpt lat="48.72953" lon="2.12034">
        <ele>202.47</ele>
        <time>2021-11-20T13:49:00Z</time>
      </trkpt>
      <trkpt lat="48.72955" lon="2.12049">
        <ele>202.44</ele>
        <time>2021-11-20T13:49:08Z</time>
      </trkpt>
      <trkpt lat="48.72955" lon="2.12063">
        <ele>202.41</ele>
        <time>2021-11-20T13:49:16Z</time>
      </trkpt>
      <trkpt lat="48.72946" lon="2.12069">
        <ele>202.38</ele>
        <time>2021-11-20T13:49:25Z</time>
      </trkpt>
      <trkpt lat="48.72937" lon="2.12071">
        <ele>202.36</ele>
        <time>2021-11-20T13:49:46Z</time>
      </trkpt>
      <trkpt lat="48.7293" lon="2.1208">
        <ele>202.35</ele>
        <time>2021-11-20T13:49:56Z</time>
      </trkpt>
      <trkpt lat="48.72922" lon="2.12087">
        <ele>202.33</ele>
        <time>2021-11-20T13:50:10Z</time>
      </trkpt>
      <trkpt lat="48.72914" lon="2.12094">
        <ele>202.32</ele>
        <time>2021-11-20T13:50:25Z</time>
      </trkpt>
      <trkpt lat="48.72907" lon="2.12101">
        <ele>202.3</ele>
        <time>2021-11-20T13:50:34Z</time>
      </trkpt>
      <trkpt lat="48.72898" lon="2.12108">
        <ele>202.28</ele>
        <time>2021-11-20T13:50:44Z</time>
      </trkpt>
      <trkpt lat="48.72892" lon="2.12119">
        <ele>202.26</ele>
        <time>2021-11-20T13:50:54Z</time>
      </trkpt>
      <trkpt lat="48.72885" lon="2.12128">
        <ele>202.25</ele>
        <time>2021-11-20T13:51:02Z</time>
      </trkpt>
      <trkpt lat="48.72877" lon="2.12137">
        <ele>202.24</ele>
        <time>2021-11-20T13:51:11Z</time>
      </trkpt>
      <trkpt lat="48.7287" lon="2.12145">
        <ele>202.24</ele>
        <time>2021-11-20T13:51:17Z</time>
      </trkpt>
      <trkpt lat="48.72862" lon="2.12153">
        <ele>202.23</ele>
        <time>2021-11-20T13:51:26Z</time>
      </trkpt>
      <trkpt lat="48.72855" lon="2.12163">
        <ele>202.23</ele>
        <time>2021-11-20T13:51:33Z</time>
      </trkpt>
      <trkpt lat="48.72847" lon="2.12173">
        <ele>202.23</ele>
        <time>2021-11-20T13:51:41Z</time>
      </trkpt>
      <trkpt lat="48.7284" lon="2.1218">
        <ele>202.22</ele>
        <time>2021-11-20T13:51:50Z</time>
      </trkpt>
      <trkpt lat="48.72831" lon="2.12188">
        <ele>202.21</ele>
        <time>2021-11-20T13:52:01Z</time>
      </trkpt>
      <trkpt lat="48.72823" lon="2.12198">
        <ele>202.2</ele>
        <time>2021-11-20T13:52:11Z</time>
      </trkpt>
      <trkpt lat="48.72817" lon="2.12209">
        <ele>202.19</ele>
        <time>2021-11-20T13:52:16Z</time>
      </trkpt>
      <trkpt lat="48.72809" lon="2.12216">
        <ele>202.16</ele>
        <time>2021-11-20T13:52:24Z</time>
      </trkpt>
      <trkpt lat="48.72798" lon="2.12223">
        <ele>202.12</ele>
        <time>2021-11-20T13:52:35Z</time>
      </trkpt>
      <trkpt lat="48.72793" lon="2.12235">
        <ele>202.08</ele>
        <time>2021-11-20T13:52:44Z</time>
      </trkpt>
      <trkpt lat="48.72786" lon="2.12248">
        <ele>202.03</ele>
        <time>2021-11-20T13:52:53Z</time>
      </trkpt>
      <trkpt lat="48.72777" lon="2.12258">
        <ele>201.99</ele>
        <time>2021-11-20T13:53:01Z</time>
      </trkpt>
      <trkpt lat="48.7277" lon="2.12268">
        <ele>201.96</ele>
        <time>2021-11-20T13:53:08Z</time>
      </trkpt>
      <trkpt lat="48.72762" lon="2.12277">
        <ele>201.93</ele>
        <time>2021-11-20T13:53:17Z</time>
      </trkpt>
      <trkpt lat="48.72757" lon="2.12288">
        <ele>201.89</ele>
        <time>2021-11-20T13:53:28Z</time>
      </trkpt>
      <trkpt lat="48.72749" lon="2.12297">
        <ele>201.87</ele>
        <time>2021-11-20T13:53:35Z</time>
      </trkpt>
      <trkpt lat="48.72742" lon="2.12309">
        <ele>201.85</ele>
        <time>2021-11-20T13:53:42Z</time>
      </trkpt>
      <trkpt lat="48.72735" lon="2.12321">
        <ele>201.83</ele>
        <time>2021-11-20T13:53:51Z</time>
      </trkpt>
      <trkpt lat="48.72729" lon="2.12331">
        <ele>201.8</ele>
        <time>2021-11-20T13:54:01Z</time>
      </trkpt>
      <trkpt lat="48.72725" lon="2.12345">
        <ele>201.73</ele>
        <time>2021-11-20T13:54:31.999Z</time>
      </trkpt>
      <trkpt lat="48.72723" lon="2.12359">
        <ele>201.68</ele>
        <time>2021-11-20T13:54:41.999Z</time>
      </trkpt>
      <trkpt lat="48.72714" lon="2.12362">
        <ele>201.64</ele>
        <time>2021-11-20T13:54:49.999Z</time>
      </trkpt>
      <trkpt lat="48.72706" lon="2.12371">
        <ele>201.6</ele>
        <time>2021-11-20T13:55:00.999Z</time>
      </trkpt>
      <trkpt lat="48.727" lon="2.12381">
        <ele>201.57</ele>
        <time>2021-11-20T13:55:09.999Z</time>
      </trkpt>
      <trkpt lat="48.72694" lon="2.12391">
        <ele>201.54</ele>
        <time>2021-11-20T13:55:17.999Z</time>
      </trkpt>
      <trkpt lat="48.72688" lon="2.12403">
        <ele>201.5</ele>
        <time>2021-11-20T13:55:28.999Z</time>
      </trkpt>
      <trkpt lat="48.72683" lon="2.12415">
        <ele>201.47</ele>
        <time>2021-11-20T13:55:37.999Z</time>
      </trkpt>
      <trkpt lat="48.72677" lon="2.12425">
        <ele>201.43</ele>
        <time>2021-11-20T13:55:58.999Z</time>
      </trkpt>
      <trkpt lat="48.72673" lon="2.12438">
        <ele>201.42</ele>
        <time>2021-11-20T13:57:23.999Z</time>
      </trkpt>
      <trkpt lat="48.72669" lon="2.12452">
        <ele>201.44</ele>
        <time>2021-11-20T13:57:36.999Z</time>
      </trkpt>
      <trkpt lat="48.72664" lon="2.12463">
        <ele>201.47</ele>
        <time>2021-11-20T13:57:50.999Z</time>
      </trkpt>
      <trkpt lat="48.7266" lon="2.12477">
        <ele>201.47</ele>
        <time>2021-11-20T13:57:59.999Z</time>
      </trkpt>
      <trkpt lat="48.72655" lon="2.1249">
        <ele>201.48</ele>
        <time>2021-11-20T13:58:08.999Z</time>
      </trkpt>
      <trkpt lat="48.72652" lon="2.12503">
        <ele>201.47</ele>
        <time>2021-11-20T13:58:18.999Z</time>
      </trkpt>
      <trkpt lat="48.72647" lon="2.12517">
        <ele>201.46</ele>
        <time>2021-11-20T13:58:27.999Z</time>
      </trkpt>
      <trkpt lat="48.72641" lon="2.12529">
        <ele>201.45</ele>
        <time>2021-11-20T13:58:37.999Z</time>
      </trkpt>
      <trkpt lat="48.72636" lon="2.12542">
        <ele>201.44</ele>
        <time>2021-11-20T13:58:45.999Z</time>
      </trkpt>
      <trkpt lat="48.72629" lon="2.12551">
        <ele>201.43</ele>
        <time>2021-11-20T13:58:52.999Z</time>
      </trkpt>
      <trkpt lat="48.72624" lon="2.12564">
        <ele>201.41</ele>
        <time>2021-11-20T13:59:00.999Z</time>
      </trkpt>
      <trkpt lat="48.72622" lon="2.12578">
        <ele>201.4</ele>
        <time>2021-11-20T13:59:07.999Z</time>
      </trkpt>
      <trkpt lat="48.72619" lon="2.12592">
        <ele>201.39</ele>
        <time>2021-11-20T13:59:12.999Z</time>
      </trkpt>
      <trkpt lat="48.72616" lon="2.12605">
        <ele>201.39</ele>
        <time>2021-11-20T13:59:21.999Z</time>
      </trkpt>
      <trkpt lat="48.72611" lon="2.12617">
        <ele>201.42</ele>
        <time>2021-11-20T13:59:36.999Z</time>
      </trkpt>
      <trkpt lat="48.72605" lon="2.12627">
        <ele>201.48</ele>
        <time>2021-11-20T13:59:51.999Z</time>
      </trkpt>
    </trkseg>
  </trk>
</gpx>